<?xml version='1.0' encoding='UTF-8'?><gpx version="1.1" creator="JPX - https://github.com/jenetics/jpx" xmlns="http://www.topografix.com/GPX/1/1"><trk><trkseg><trkpt lat="42.4141939" lon="13.5579801"><ele>1463.0</ele><time>2026-04-26T07:33:45.356Z</time></trkpt><trkpt lat="42.4141374" lon="13.5580665"><ele>1463.0</ele><time>2026-04-26T07:33:48.356Z</time></trkpt><trkpt lat="42.4140435" lon="13.5581672"><ele>1463.0</ele><time>2026-04-26T07:33:50.336Z</time></trkpt><trkpt lat="42.4139795" lon="13.5582339"><ele>1463.0</ele><time>2026-04-26T07:33:51.332Z</time></trkpt><trkpt lat="42.4139007" lon="13.55832"><ele>1463.0</ele><time>2026-04-26T07:33:52.388Z</time></trkpt><trkpt lat="42.4138229" lon="13.5584043"><ele>1462.75</ele><time>2026-04-26T07:33:53.341Z</time></trkpt><trkpt lat="42.4137343" lon="13.5585009"><ele>1462.5</ele><time>2026-04-26T07:33:54.315Z</time></trkpt><trkpt lat="42.4136294" lon="13.5586047"><ele>1462.25</ele><time>2026-04-26T07:33:55.345Z</time></trkpt><trkpt lat="42.413513" lon="13.5586974"><ele>1462.0</ele><time>2026-04-26T07:33:56.371Z</time></trkpt><trkpt lat="42.4133938" lon="13.5587639"><ele>1462.0</ele><time>2026-04-26T07:33:57.337Z</time></trkpt><trkpt lat="42.4132583" lon="13.5588027"><ele>1462.0</ele><time>2026-04-26T07:33:58.353Z</time></trkpt><trkpt lat="42.4131231" lon="13.5588156"><ele>1462.0</ele><time>2026-04-26T07:33:59.324Z</time></trkpt><trkpt lat="42.4129703" lon="13.558815"><ele>1462.0</ele><time>2026-04-26T07:34:00.364Z</time></trkpt><trkpt lat="42.4128237" lon="13.5588159"><ele>1463.0</ele><time>2026-04-26T07:34:01.339Z</time></trkpt><trkpt lat="42.412672" lon="13.5588271"><ele>1464.0</ele><time>2026-04-26T07:34:02.321Z</time></trkpt><trkpt lat="42.4125136" lon="13.5588369"><ele>1465.0</ele><time>2026-04-26T07:34:03.326Z</time></trkpt><trkpt lat="42.4123563" lon="13.5588375"><ele>1465.0</ele><time>2026-04-26T07:34:04.318Z</time></trkpt><trkpt lat="42.4121987" lon="13.5588228"><ele>1465.0</ele><time>2026-04-26T07:34:05.316Z</time></trkpt><trkpt lat="42.4120233" lon="13.5587831"><ele>1465.0</ele><time>2026-04-26T07:34:06.432Z</time></trkpt><trkpt lat="42.4117295" lon="13.558668"><ele>1460.6666666666665</ele><time>2026-04-26T07:34:08.33Z</time></trkpt><trkpt lat="42.4115768" lon="13.5586003"><ele>1456.3333333333333</ele><time>2026-04-26T07:34:09.319Z</time></trkpt><trkpt lat="42.4114175" lon="13.5585405"><ele>1452.0</ele><time>2026-04-26T07:34:10.331Z</time></trkpt><trkpt lat="42.4112593" lon="13.5584926"><ele>1452.0</ele><time>2026-04-26T07:34:11.331Z</time></trkpt><trkpt lat="42.4111014" lon="13.5584588"><ele>1452.0</ele><time>2026-04-26T07:34:12.324Z</time></trkpt><trkpt lat="42.4109262" lon="13.558429"><ele>1452.0</ele><time>2026-04-26T07:34:13.426Z</time></trkpt><trkpt lat="42.4107821" lon="13.5584082"><ele>1452.0</ele><time>2026-04-26T07:34:14.336Z</time></trkpt><trkpt lat="42.4106322" lon="13.5583852"><ele>1452.0</ele><time>2026-04-26T07:34:15.306Z</time></trkpt><trkpt lat="42.4104805" lon="13.5583587"><ele>1452.0</ele><time>2026-04-26T07:34:16.308Z</time></trkpt><trkpt lat="42.4103262" lon="13.5583319"><ele>1452.25</ele><time>2026-04-26T07:34:17.341Z</time></trkpt><trkpt lat="42.4101844" lon="13.5583076"><ele>1452.5</ele><time>2026-04-26T07:34:18.322Z</time></trkpt><trkpt lat="42.4100444" lon="13.5582937"><ele>1452.75</ele><time>2026-04-26T07:34:19.312Z</time></trkpt><trkpt lat="42.4099068" lon="13.5583008"><ele>1453.0</ele><time>2026-04-26T07:34:20.335Z</time></trkpt><trkpt lat="42.4097763" lon="13.5583326"><ele>1451.25</ele><time>2026-04-26T07:34:21.321Z</time></trkpt><trkpt lat="42.4096471" lon="13.5583821"><ele>1449.5</ele><time>2026-04-26T07:34:22.348Z</time></trkpt><trkpt lat="42.4095256" lon="13.558442"><ele>1447.75</ele><time>2026-04-26T07:34:23.354Z</time></trkpt><trkpt lat="42.4094117" lon="13.5584948"><ele>1446.0</ele><time>2026-04-26T07:34:24.362Z</time></trkpt><trkpt lat="42.4093053" lon="13.5585325"><ele>1446.0</ele><time>2026-04-26T07:34:25.344Z</time></trkpt><trkpt lat="42.4091935" lon="13.5585477"><ele>1446.0</ele><time>2026-04-26T07:34:26.342Z</time></trkpt><trkpt lat="42.4090805" lon="13.5585332"><ele>1446.0</ele><time>2026-04-26T07:34:27.328Z</time></trkpt><trkpt lat="42.408964" lon="13.5584795"><ele>1446.0</ele><time>2026-04-26T07:34:28.396Z</time></trkpt><trkpt lat="42.4088645" lon="13.5584042"><ele>1446.0</ele><time>2026-04-26T07:34:29.331Z</time></trkpt><trkpt lat="42.4087752" lon="13.558289"><ele>1446.0</ele><time>2026-04-26T07:34:30.335Z</time></trkpt><trkpt lat="42.4087026" lon="13.5581247"><ele>1446.0</ele><time>2026-04-26T07:34:31.329Z</time></trkpt><trkpt lat="42.4086463" lon="13.5579393"><ele>1446.0</ele><time>2026-04-26T07:34:32.323Z</time></trkpt><trkpt lat="42.4085792" lon="13.5577687"><ele>1446.0</ele><time>2026-04-26T07:34:33.312Z</time></trkpt><trkpt lat="42.408499" lon="13.5576064"><ele>1446.0</ele><time>2026-04-26T07:34:34.324Z</time></trkpt><trkpt lat="42.4084065" lon="13.5574499"><ele>1446.0</ele><time>2026-04-26T07:34:35.331Z</time></trkpt><trkpt lat="42.4083037" lon="13.5573077"><ele>1446.0</ele><time>2026-04-26T07:34:36.302Z</time></trkpt><trkpt lat="42.4081762" lon="13.5571707"><ele>1446.0</ele><time>2026-04-26T07:34:37.341Z</time></trkpt><trkpt lat="42.4080433" lon="13.5570509"><ele>1446.0</ele><time>2026-04-26T07:34:38.32Z</time></trkpt><trkpt lat="42.4079034" lon="13.556938"><ele>1446.0</ele><time>2026-04-26T07:34:39.324Z</time></trkpt><trkpt lat="42.4077585" lon="13.5568326"><ele>1443.0</ele><time>2026-04-26T07:34:40.323Z</time></trkpt><trkpt lat="42.4076098" lon="13.556733"><ele>1440.0</ele><time>2026-04-26T07:34:41.342Z</time></trkpt><trkpt lat="42.4074606" lon="13.5566419"><ele>1437.0</ele><time>2026-04-26T07:34:42.329Z</time></trkpt><trkpt lat="42.4073056" lon="13.5565631"><ele>1441.3333333333333</ele><time>2026-04-26T07:34:43.321Z</time></trkpt><trkpt lat="42.4071422" lon="13.5564986"><ele>1445.6666666666665</ele><time>2026-04-26T07:34:44.328Z</time></trkpt><trkpt lat="42.4069589" lon="13.5564442"><ele>1450.0</ele><time>2026-04-26T07:34:45.46Z</time></trkpt><trkpt lat="42.4066551" lon="13.556378"><ele>1450.0</ele><time>2026-04-26T07:34:47.341Z</time></trkpt><trkpt lat="42.4064807" lon="13.5563413"><ele>1450.0</ele><time>2026-04-26T07:34:48.382Z</time></trkpt><trkpt lat="42.4063158" lon="13.5563178"><ele>1450.0</ele><time>2026-04-26T07:34:49.343Z</time></trkpt><trkpt lat="42.4061469" lon="13.5563076"><ele>1450.6666666666665</ele><time>2026-04-26T07:34:50.325Z</time></trkpt><trkpt lat="42.4059736" lon="13.5563086"><ele>1451.3333333333333</ele><time>2026-04-26T07:34:51.35Z</time></trkpt><trkpt lat="42.4058079" lon="13.5563176"><ele>1452.0</ele><time>2026-04-26T07:34:52.343Z</time></trkpt><trkpt lat="42.4056476" lon="13.5563152"><ele>1451.6666666666667</ele><time>2026-04-26T07:34:53.331Z</time></trkpt><trkpt lat="42.4054868" lon="13.5563005"><ele>1451.3333333333335</ele><time>2026-04-26T07:34:54.338Z</time></trkpt><trkpt lat="42.405309" lon="13.5562868"><ele>1451.0</ele><time>2026-04-26T07:34:55.463Z</time></trkpt><trkpt lat="42.4050266" lon="13.5563068"><ele>1451.0</ele><time>2026-04-26T07:34:57.334Z</time></trkpt><trkpt lat="42.4048813" lon="13.5563525"><ele>1451.0</ele><time>2026-04-26T07:34:58.329Z</time></trkpt><trkpt lat="42.404735" lon="13.556422"><ele>1451.0</ele><time>2026-04-26T07:34:59.338Z</time></trkpt><trkpt lat="42.4045923" lon="13.5565007"><ele>1447.3333333333335</ele><time>2026-04-26T07:35:00.325Z</time></trkpt><trkpt lat="42.4044398" lon="13.5565839"><ele>1443.6666666666667</ele><time>2026-04-26T07:35:01.365Z</time></trkpt><trkpt lat="42.4042946" lon="13.5566589"><ele>1440.0</ele><time>2026-04-26T07:35:02.347Z</time></trkpt><trkpt lat="42.4041459" lon="13.5567291"><ele>1440.0</ele><time>2026-04-26T07:35:03.351Z</time></trkpt><trkpt lat="42.4039882" lon="13.5568035"><ele>1440.0</ele><time>2026-04-26T07:35:04.424Z</time></trkpt><trkpt lat="42.4038551" lon="13.5568787"><ele>1440.0</ele><time>2026-04-26T07:35:05.357Z</time></trkpt><trkpt lat="42.4037157" lon="13.5569778"><ele>1441.0</ele><time>2026-04-26T07:35:06.376Z</time></trkpt><trkpt lat="42.4035813" lon="13.5570963"><ele>1442.0</ele><time>2026-04-26T07:35:07.395Z</time></trkpt><trkpt lat="42.4034467" lon="13.5572353"><ele>1443.0</ele><time>2026-04-26T07:35:08.452Z</time></trkpt><trkpt lat="42.403242" lon="13.5575411"><ele>1443.0</ele><time>2026-04-26T07:35:10.335Z</time></trkpt><trkpt lat="42.4031503" lon="13.557721"><ele>1443.0</ele><time>2026-04-26T07:35:11.339Z</time></trkpt><trkpt lat="42.4030733" lon="13.5579177"><ele>1443.0</ele><time>2026-04-26T07:35:12.354Z</time></trkpt><trkpt lat="42.4030075" lon="13.5581182"><ele>1438.3333333333333</ele><time>2026-04-26T07:35:13.367Z</time></trkpt><trkpt lat="42.4029519" lon="13.5583164"><ele>1433.6666666666665</ele><time>2026-04-26T07:35:14.349Z</time></trkpt><trkpt lat="42.4028928" lon="13.5585229"><ele>1429.0</ele><time>2026-04-26T07:35:15.393Z</time></trkpt><trkpt lat="42.4028305" lon="13.5587002"><ele>1432.0</ele><time>2026-04-26T07:35:16.345Z</time></trkpt><trkpt lat="42.4027549" lon="13.5588759"><ele>1435.0</ele><time>2026-04-26T07:35:17.346Z</time></trkpt><trkpt lat="42.4026709" lon="13.5590386"><ele>1438.0</ele><time>2026-04-26T07:35:18.316Z</time></trkpt><trkpt lat="42.4025755" lon="13.5592083"><ele>1438.0</ele><time>2026-04-26T07:35:19.367Z</time></trkpt><trkpt lat="42.4024832" lon="13.5593531"><ele>1438.0</ele><time>2026-04-26T07:35:20.32Z</time></trkpt><trkpt lat="42.4023839" lon="13.5595043"><ele>1438.0</ele><time>2026-04-26T07:35:21.345Z</time></trkpt><trkpt lat="42.4022925" lon="13.5596543"><ele>1438.0</ele><time>2026-04-26T07:35:22.328Z</time></trkpt><trkpt lat="42.4022008" lon="13.5598123"><ele>1437.25</ele><time>2026-04-26T07:35:23.335Z</time></trkpt><trkpt lat="42.4021146" lon="13.5599668"><ele>1436.5</ele><time>2026-04-26T07:35:24.306Z</time></trkpt><trkpt lat="42.4020278" lon="13.5601294"><ele>1435.75</ele><time>2026-04-26T07:35:25.324Z</time></trkpt><trkpt lat="42.4019404" lon="13.5602881"><ele>1435.0</ele><time>2026-04-26T07:35:26.327Z</time></trkpt><trkpt lat="42.401848" lon="13.5604498"><ele>1438.75</ele><time>2026-04-26T07:35:27.343Z</time></trkpt><trkpt lat="42.4017498" lon="13.5606045"><ele>1442.5</ele><time>2026-04-26T07:35:28.358Z</time></trkpt><trkpt lat="42.4016359" lon="13.5607552"><ele>1446.25</ele><time>2026-04-26T07:35:29.43Z</time></trkpt><trkpt lat="42.4015265" lon="13.5608667"><ele>1450.0</ele><time>2026-04-26T07:35:30.351Z</time></trkpt><trkpt lat="42.4013922" lon="13.5609692"><ele>1448.75</ele><time>2026-04-26T07:35:31.38Z</time></trkpt><trkpt lat="42.4012536" lon="13.5610491"><ele>1447.5</ele><time>2026-04-26T07:35:32.382Z</time></trkpt><trkpt lat="42.4011215" lon="13.5611183"><ele>1446.25</ele><time>2026-04-26T07:35:33.33Z</time></trkpt><trkpt lat="42.4009832" lon="13.5611905"><ele>1445.0</ele><time>2026-04-26T07:35:34.334Z</time></trkpt><trkpt lat="42.4008459" lon="13.5612479"><ele>1445.0</ele><time>2026-04-26T07:35:35.331Z</time></trkpt><trkpt lat="42.4007016" lon="13.5612861"><ele>1445.0</ele><time>2026-04-26T07:35:36.368Z</time></trkpt><trkpt lat="42.4005588" lon="13.56131"><ele>1445.0</ele><time>2026-04-26T07:35:37.386Z</time></trkpt><trkpt lat="42.4004066" lon="13.5613234"><ele>1445.0</ele><time>2026-04-26T07:35:38.498Z</time></trkpt><trkpt lat="42.4001718" lon="13.5613379"><ele>1444.6</ele><time>2026-04-26T07:35:40.399Z</time></trkpt><trkpt lat="42.400059" lon="13.5613297"><ele>1444.2</ele><time>2026-04-26T07:35:41.397Z</time></trkpt><trkpt lat="42.3999597" lon="13.5612945"><ele>1443.8000000000002</ele><time>2026-04-26T07:35:42.373Z</time></trkpt><trkpt lat="42.3998683" lon="13.5612278"><ele>1443.4</ele><time>2026-04-26T07:35:43.398Z</time></trkpt><trkpt lat="42.3997957" lon="13.5611419"><ele>1443.0</ele><time>2026-04-26T07:35:44.381Z</time></trkpt><trkpt lat="42.3997375" lon="13.5610284"><ele>1443.4</ele><time>2026-04-26T07:35:45.457Z</time></trkpt><trkpt lat="42.399722" lon="13.5607941"><ele>1443.8000000000002</ele><time>2026-04-26T07:35:47.363Z</time></trkpt><trkpt lat="42.3997182" lon="13.5606881"><ele>1444.2</ele><time>2026-04-26T07:35:48.327Z</time></trkpt><trkpt lat="42.3997016" lon="13.5605913"><ele>1444.6</ele><time>2026-04-26T07:35:49.38Z</time></trkpt><trkpt lat="42.3996108" lon="13.5604803"><ele>1445.0</ele><time>2026-04-26T07:35:51.34Z</time></trkpt><trkpt lat="42.3995402" lon="13.5604666"><ele>1445.0</ele><time>2026-04-26T07:35:52.362Z</time></trkpt><trkpt lat="42.3994689" lon="13.5604633"><ele>1445.0</ele><time>2026-04-26T07:35:53.352Z</time></trkpt><trkpt lat="42.399391" lon="13.5604611"><ele>1445.0</ele><time>2026-04-26T07:35:54.347Z</time></trkpt><trkpt lat="42.3993071" lon="13.5604546"><ele>1445.0</ele><time>2026-04-26T07:35:55.379Z</time></trkpt><trkpt lat="42.3992268" lon="13.560431"><ele>1445.0</ele><time>2026-04-26T07:35:56.337Z</time></trkpt><trkpt lat="42.3991443" lon="13.5603936"><ele>1445.0</ele><time>2026-04-26T07:35:57.351Z</time></trkpt><trkpt lat="42.3990639" lon="13.5603443"><ele>1443.25</ele><time>2026-04-26T07:35:58.34Z</time></trkpt><trkpt lat="42.3989877" lon="13.5602842"><ele>1441.5</ele><time>2026-04-26T07:35:59.33Z</time></trkpt><trkpt lat="42.3989153" lon="13.5602087"><ele>1439.75</ele><time>2026-04-26T07:36:00.358Z</time></trkpt><trkpt lat="42.3988467" lon="13.5601175"><ele>1438.0</ele><time>2026-04-26T07:36:01.45Z</time></trkpt><trkpt lat="42.3987244" lon="13.5599467"><ele>1436.6000000000001</ele><time>2026-04-26T07:36:03.372Z</time></trkpt><trkpt lat="42.3986577" lon="13.5598532"><ele>1435.2</ele><time>2026-04-26T07:36:04.344Z</time></trkpt><trkpt lat="42.3985902" lon="13.5597588"><ele>1433.8</ele><time>2026-04-26T07:36:05.342Z</time></trkpt><trkpt lat="42.3985266" lon="13.5596645"><ele>1432.4</ele><time>2026-04-26T07:36:06.329Z</time></trkpt><trkpt lat="42.3984587" lon="13.5595564"><ele>1431.0</ele><time>2026-04-26T07:36:07.448Z</time></trkpt><trkpt lat="42.3984079" lon="13.5594643"><ele>1430.5</ele><time>2026-04-26T07:36:08.369Z</time></trkpt><trkpt lat="42.3983577" lon="13.5593538"><ele>1430.0</ele><time>2026-04-26T07:36:09.423Z</time></trkpt><trkpt lat="42.3983234" lon="13.5592539"><ele>1429.5</ele><time>2026-04-26T07:36:10.366Z</time></trkpt><trkpt lat="42.3982947" lon="13.5591448"><ele>1429.0</ele><time>2026-04-26T07:36:11.346Z</time></trkpt><trkpt lat="42.3982666" lon="13.5590289"><ele>1428.5</ele><time>2026-04-26T07:36:12.342Z</time></trkpt><trkpt lat="42.3982383" lon="13.5589096"><ele>1428.0</ele><time>2026-04-26T07:36:13.37Z</time></trkpt><trkpt lat="42.3982138" lon="13.5587937"><ele>1428.2</ele><time>2026-04-26T07:36:14.364Z</time></trkpt><trkpt lat="42.3981873" lon="13.5586752"><ele>1428.4</ele><time>2026-04-26T07:36:15.343Z</time></trkpt><trkpt lat="42.398157" lon="13.5585417"><ele>1428.6000000000001</ele><time>2026-04-26T07:36:16.436Z</time></trkpt><trkpt lat="42.3981219" lon="13.5584305"><ele>1428.8000000000002</ele><time>2026-04-26T07:36:17.345Z</time></trkpt><trkpt lat="42.39807" lon="13.5583076"><ele>1429.0</ele><time>2026-04-26T07:36:18.358Z</time></trkpt><trkpt lat="42.3980162" lon="13.5581934"><ele>1427.6</ele><time>2026-04-26T07:36:19.347Z</time></trkpt><trkpt lat="42.3979583" lon="13.5580683"><ele>1426.2</ele><time>2026-04-26T07:36:20.356Z</time></trkpt><trkpt lat="42.3979037" lon="13.5579451"><ele>1424.8</ele><time>2026-04-26T07:36:21.343Z</time></trkpt><trkpt lat="42.3978527" lon="13.5578222"><ele>1423.3999999999999</ele><time>2026-04-26T07:36:22.365Z</time></trkpt><trkpt lat="42.3978022" lon="13.5577065"><ele>1422.0</ele><time>2026-04-26T07:36:23.344Z</time></trkpt><trkpt lat="42.3977474" lon="13.5575839"><ele>1421.5</ele><time>2026-04-26T07:36:24.356Z</time></trkpt><trkpt lat="42.3976848" lon="13.5574475"><ele>1421.0</ele><time>2026-04-26T07:36:25.381Z</time></trkpt><trkpt lat="42.3976243" lon="13.5573236"><ele>1420.5</ele><time>2026-04-26T07:36:26.354Z</time></trkpt><trkpt lat="42.3975534" lon="13.5571973"><ele>1420.0</ele><time>2026-04-26T07:36:27.339Z</time></trkpt><trkpt lat="42.3974713" lon="13.5570441"><ele>1421.25</ele><time>2026-04-26T07:36:28.463Z</time></trkpt><trkpt lat="42.3974138" lon="13.5569215"><ele>1422.5</ele><time>2026-04-26T07:36:29.376Z</time></trkpt><trkpt lat="42.3973652" lon="13.5567777"><ele>1423.75</ele><time>2026-04-26T07:36:30.336Z</time></trkpt><trkpt lat="42.397327" lon="13.5566308"><ele>1425.0</ele><time>2026-04-26T07:36:31.357Z</time></trkpt><trkpt lat="42.3972963" lon="13.5564749"><ele>1425.0</ele><time>2026-04-26T07:36:32.391Z</time></trkpt><trkpt lat="42.3972702" lon="13.556329"><ele>1425.0</ele><time>2026-04-26T07:36:33.387Z</time></trkpt><trkpt lat="42.3972543" lon="13.5561884"><ele>1425.0</ele><time>2026-04-26T07:36:34.336Z</time></trkpt><trkpt lat="42.3972479" lon="13.5560266"><ele>1425.0</ele><time>2026-04-26T07:36:35.391Z</time></trkpt><trkpt lat="42.3972614" lon="13.5558833"><ele>1425.0</ele><time>2026-04-26T07:36:36.345Z</time></trkpt><trkpt lat="42.3972885" lon="13.5557362"><ele>1425.25</ele><time>2026-04-26T07:36:37.331Z</time></trkpt><trkpt lat="42.3973363" lon="13.5555862"><ele>1425.5</ele><time>2026-04-26T07:36:38.358Z</time></trkpt><trkpt lat="42.3973946" lon="13.5554489"><ele>1425.75</ele><time>2026-04-26T07:36:39.346Z</time></trkpt><trkpt lat="42.3974598" lon="13.5553128"><ele>1426.0</ele><time>2026-04-26T07:36:40.371Z</time></trkpt><trkpt lat="42.3975234" lon="13.5551736"><ele>1425.25</ele><time>2026-04-26T07:36:41.383Z</time></trkpt><trkpt lat="42.3975844" lon="13.5550297"><ele>1424.5</ele><time>2026-04-26T07:36:42.367Z</time></trkpt><trkpt lat="42.3976464" lon="13.5548758"><ele>1423.75</ele><time>2026-04-26T07:36:43.389Z</time></trkpt><trkpt lat="42.3977063" lon="13.5547078"><ele>1423.0</ele><time>2026-04-26T07:36:44.473Z</time></trkpt><trkpt lat="42.3977939" lon="13.5543986"><ele>1423.0</ele><time>2026-04-26T07:36:46.434Z</time></trkpt><trkpt lat="42.3978311" lon="13.5542508"><ele>1423.0</ele><time>2026-04-26T07:36:47.389Z</time></trkpt><trkpt lat="42.3978705" lon="13.5540854"><ele>1423.0</ele><time>2026-04-26T07:36:48.472Z</time></trkpt><trkpt lat="42.3979338" lon="13.5537936"><ele>1423.75</ele><time>2026-04-26T07:36:50.479Z</time></trkpt><trkpt lat="42.3979419" lon="13.5535279"><ele>1424.5</ele><time>2026-04-26T07:36:52.389Z</time></trkpt><trkpt lat="42.397925" lon="13.5533833"><ele>1425.25</ele><time>2026-04-26T07:36:53.393Z</time></trkpt><trkpt lat="42.3978952" lon="13.5532431"><ele>1426.0</ele><time>2026-04-26T07:36:54.357Z</time></trkpt><trkpt lat="42.3978521" lon="13.5530947"><ele>1426.0</ele><time>2026-04-26T07:36:55.378Z</time></trkpt><trkpt lat="42.397804" lon="13.5529612"><ele>1426.0</ele><time>2026-04-26T07:36:56.368Z</time></trkpt><trkpt lat="42.3977542" lon="13.5528194"><ele>1426.0</ele><time>2026-04-26T07:36:57.343Z</time></trkpt><trkpt lat="42.3977008" lon="13.5526756"><ele>1426.0</ele><time>2026-04-26T07:36:58.363Z</time></trkpt><trkpt lat="42.3976443" lon="13.5525397"><ele>1423.0</ele><time>2026-04-26T07:36:59.367Z</time></trkpt><trkpt lat="42.3975797" lon="13.5524191"><ele>1420.0</ele><time>2026-04-26T07:37:00.34Z</time></trkpt><trkpt lat="42.397504" lon="13.5523107"><ele>1417.0</ele><time>2026-04-26T07:37:01.332Z</time></trkpt><trkpt lat="42.3974187" lon="13.5522138"><ele>1414.0</ele><time>2026-04-26T07:37:02.344Z</time></trkpt><trkpt lat="42.3973305" lon="13.5521267"><ele>1411.0</ele><time>2026-04-26T07:37:03.333Z</time></trkpt><trkpt lat="42.3972311" lon="13.5520527"><ele>1406.5</ele><time>2026-04-26T07:37:04.352Z</time></trkpt><trkpt lat="42.3971224" lon="13.5520002"><ele>1402.0</ele><time>2026-04-26T07:37:05.325Z</time></trkpt><trkpt lat="42.3969995" lon="13.5519748"><ele>1397.5</ele><time>2026-04-26T07:37:06.345Z</time></trkpt><trkpt lat="42.3968584" lon="13.5519637"><ele>1393.0</ele><time>2026-04-26T07:37:07.498Z</time></trkpt><trkpt lat="42.3966306" lon="13.5519467"><ele>1393.0</ele><time>2026-04-26T07:37:09.365Z</time></trkpt><trkpt lat="42.3965175" lon="13.5519448"><ele>1393.0</ele><time>2026-04-26T07:37:10.325Z</time></trkpt><trkpt lat="42.3964071" lon="13.5519549"><ele>1393.0</ele><time>2026-04-26T07:37:11.316Z</time></trkpt><trkpt lat="42.3962815" lon="13.5519872"><ele>1393.0</ele><time>2026-04-26T07:37:12.45Z</time></trkpt><trkpt lat="42.3960613" lon="13.5520946"><ele>1395.5</ele><time>2026-04-26T07:37:14.325Z</time></trkpt><trkpt lat="42.3959363" lon="13.5521657"><ele>1398.0</ele><time>2026-04-26T07:37:15.359Z</time></trkpt><trkpt lat="42.3958188" lon="13.5522304"><ele>1400.5</ele><time>2026-04-26T07:37:16.339Z</time></trkpt><trkpt lat="42.3957013" lon="13.5522951"><ele>1403.0</ele><time>2026-04-26T07:37:17.358Z</time></trkpt><trkpt lat="42.3955883" lon="13.5523594"><ele>1399.5</ele><time>2026-04-26T07:37:18.342Z</time></trkpt><trkpt lat="42.3954792" lon="13.5524331"><ele>1396.0</ele><time>2026-04-26T07:37:19.338Z</time></trkpt><trkpt lat="42.3953685" lon="13.5525205"><ele>1392.5</ele><time>2026-04-26T07:37:20.386Z</time></trkpt><trkpt lat="42.3952728" lon="13.5526105"><ele>1389.0</ele><time>2026-04-26T07:37:21.349Z</time></trkpt><trkpt lat="42.3951833" lon="13.5527099"><ele>1389.0</ele><time>2026-04-26T07:37:22.367Z</time></trkpt><trkpt lat="42.3951012" lon="13.5528153"><ele>1389.0</ele><time>2026-04-26T07:37:23.386Z</time></trkpt><trkpt lat="42.3950309" lon="13.5529205"><ele>1389.0</ele><time>2026-04-26T07:37:24.357Z</time></trkpt><trkpt lat="42.3949629" lon="13.5530363"><ele>1389.0</ele><time>2026-04-26T07:37:25.344Z</time></trkpt><trkpt lat="42.3948875" lon="13.5531555"><ele>1389.0</ele><time>2026-04-26T07:37:26.345Z</time></trkpt><trkpt lat="42.394804" lon="13.5532652"><ele>1390.25</ele><time>2026-04-26T07:37:27.372Z</time></trkpt><trkpt lat="42.3947016" lon="13.5533937"><ele>1391.5</ele><time>2026-04-26T07:37:28.595Z</time></trkpt><trkpt lat="42.3945562" lon="13.5535791"><ele>1392.75</ele><time>2026-04-26T07:37:30.384Z</time></trkpt><trkpt lat="42.3944805" lon="13.5536721"><ele>1394.0</ele><time>2026-04-26T07:37:31.334Z</time></trkpt><trkpt lat="42.394399" lon="13.5537597"><ele>1394.0</ele><time>2026-04-26T07:37:32.335Z</time></trkpt><trkpt lat="42.3943115" lon="13.5538263"><ele>1394.0</ele><time>2026-04-26T07:37:33.334Z</time></trkpt><trkpt lat="42.3942173" lon="13.5538665"><ele>1394.0</ele><time>2026-04-26T07:37:34.333Z</time></trkpt><trkpt lat="42.3941166" lon="13.553884"><ele>1394.0</ele><time>2026-04-26T07:37:35.337Z</time></trkpt><trkpt lat="42.3940111" lon="13.5538892"><ele>1394.0</ele><time>2026-04-26T07:37:36.345Z</time></trkpt><trkpt lat="42.3939051" lon="13.5538897"><ele>1391.4</ele><time>2026-04-26T07:37:37.343Z</time></trkpt><trkpt lat="42.3937981" lon="13.5538889"><ele>1388.8000000000002</ele><time>2026-04-26T07:37:38.347Z</time></trkpt><trkpt lat="42.3936891" lon="13.5538945"><ele>1386.1999999999998</ele><time>2026-04-26T07:37:39.362Z</time></trkpt><trkpt lat="42.3935879" lon="13.5539065"><ele>1383.6</ele><time>2026-04-26T07:37:40.332Z</time></trkpt><trkpt lat="42.3934853" lon="13.5539277"><ele>1381.0</ele><time>2026-04-26T07:37:41.345Z</time></trkpt><trkpt lat="42.393384" lon="13.553954"><ele>1381.0</ele><time>2026-04-26T07:37:42.363Z</time></trkpt><trkpt lat="42.3932833" lon="13.5539793"><ele>1381.0</ele><time>2026-04-26T07:37:43.368Z</time></trkpt><trkpt lat="42.39319" lon="13.5539994"><ele>1381.0</ele><time>2026-04-26T07:37:44.332Z</time></trkpt><trkpt lat="42.3930914" lon="13.5540158"><ele>1381.0</ele><time>2026-04-26T07:37:45.34Z</time></trkpt><trkpt lat="42.3929923" lon="13.5540317"><ele>1381.0</ele><time>2026-04-26T07:37:46.339Z</time></trkpt><trkpt lat="42.3928907" lon="13.5540473"><ele>1380.8</ele><time>2026-04-26T07:37:47.346Z</time></trkpt><trkpt lat="42.392791" lon="13.5540576"><ele>1380.6</ele><time>2026-04-26T07:37:48.329Z</time></trkpt><trkpt lat="42.3926894" lon="13.5540488"><ele>1380.4</ele><time>2026-04-26T07:37:49.347Z</time></trkpt><trkpt lat="42.3925867" lon="13.5540277"><ele>1380.2</ele><time>2026-04-26T07:37:50.355Z</time></trkpt><trkpt lat="42.3924858" lon="13.5539958"><ele>1380.0</ele><time>2026-04-26T07:37:51.327Z</time></trkpt><trkpt lat="42.3923804" lon="13.5539451"><ele>1380.0</ele><time>2026-04-26T07:37:52.352Z</time></trkpt><trkpt lat="42.3922813" lon="13.5538877"><ele>1380.0</ele><time>2026-04-26T07:37:53.339Z</time></trkpt><trkpt lat="42.3921795" lon="13.5538284"><ele>1380.0</ele><time>2026-04-26T07:37:54.343Z</time></trkpt><trkpt lat="42.3920692" lon="13.553772"><ele>1380.0</ele><time>2026-04-26T07:37:55.344Z</time></trkpt><trkpt lat="42.3919488" lon="13.553717"><ele>1379.0</ele><time>2026-04-26T07:37:56.36Z</time></trkpt><trkpt lat="42.3918217" lon="13.5536616"><ele>1378.0</ele><time>2026-04-26T07:37:57.415Z</time></trkpt><trkpt lat="42.3917107" lon="13.5536184"><ele>1377.0</ele><time>2026-04-26T07:37:58.347Z</time></trkpt><trkpt lat="42.3915817" lon="13.5535815"><ele>1376.0</ele><time>2026-04-26T07:37:59.376Z</time></trkpt><trkpt lat="42.3914685" lon="13.5535709"><ele>1376.0</ele><time>2026-04-26T07:38:00.324Z</time></trkpt><trkpt lat="42.3913513" lon="13.5535777"><ele>1376.0</ele><time>2026-04-26T07:38:01.352Z</time></trkpt><trkpt lat="42.3912447" lon="13.5536105"><ele>1376.0</ele><time>2026-04-26T07:38:02.332Z</time></trkpt><trkpt lat="42.3911313" lon="13.553681"><ele>1376.0</ele><time>2026-04-26T07:38:03.337Z</time></trkpt><trkpt lat="42.3910227" lon="13.5537674"><ele>1379.5</ele><time>2026-04-26T07:38:04.321Z</time></trkpt><trkpt lat="42.3909145" lon="13.553845"><ele>1383.0</ele><time>2026-04-26T07:38:05.342Z</time></trkpt><trkpt lat="42.3908083" lon="13.5538941"><ele>1386.5</ele><time>2026-04-26T07:38:06.366Z</time></trkpt><trkpt lat="42.3907042" lon="13.5539179"><ele>1390.0</ele><time>2026-04-26T07:38:07.356Z</time></trkpt><trkpt lat="42.3905921" lon="13.5539292"><ele>1386.75</ele><time>2026-04-26T07:38:08.41Z</time></trkpt><trkpt lat="42.3904891" lon="13.5539555"><ele>1383.5</ele><time>2026-04-26T07:38:09.343Z</time></trkpt><trkpt lat="42.3903688" lon="13.5540134"><ele>1380.25</ele><time>2026-04-26T07:38:10.388Z</time></trkpt><trkpt lat="42.390256" lon="13.5540905"><ele>1377.0</ele><time>2026-04-26T07:38:11.357Z</time></trkpt><trkpt lat="42.3901475" lon="13.5541753"><ele>1377.0</ele><time>2026-04-26T07:38:12.357Z</time></trkpt><trkpt lat="42.3900357" lon="13.5542565"><ele>1377.0</ele><time>2026-04-26T07:38:13.37Z</time></trkpt><trkpt lat="42.3899104" lon="13.5543163"><ele>1377.0</ele><time>2026-04-26T07:38:14.468Z</time></trkpt><trkpt lat="42.3896837" lon="13.5543183"><ele>1375.6666666666667</ele><time>2026-04-26T07:38:16.461Z</time></trkpt><trkpt lat="42.3894802" lon="13.5543257"><ele>1374.3333333333335</ele><time>2026-04-26T07:38:18.356Z</time></trkpt><trkpt lat="42.3893784" lon="13.5543729"><ele>1373.0</ele><time>2026-04-26T07:38:19.396Z</time></trkpt><trkpt lat="42.3892523" lon="13.5544939"><ele>1374.6666666666667</ele><time>2026-04-26T07:38:20.375Z</time></trkpt><trkpt lat="42.3891556" lon="13.5546557"><ele>1376.3333333333333</ele><time>2026-04-26T07:38:21.363Z</time></trkpt><trkpt lat="42.3890507" lon="13.5548739"><ele>1378.0</ele><time>2026-04-26T07:38:22.348Z</time></trkpt><trkpt lat="42.3889102" lon="13.5551342"><ele>1377.3333333333333</ele><time>2026-04-26T07:38:23.419Z</time></trkpt><trkpt lat="42.3887824" lon="13.555362"><ele>1376.6666666666667</ele><time>2026-04-26T07:38:24.367Z</time></trkpt><trkpt lat="42.3886475" lon="13.555575"><ele>1376.0</ele><time>2026-04-26T07:38:25.439Z</time></trkpt><trkpt lat="42.3885284" lon="13.5557303"><ele>1376.0</ele><time>2026-04-26T07:38:26.351Z</time></trkpt><trkpt lat="42.3884022" lon="13.5558898"><ele>1376.0</ele><time>2026-04-26T07:38:27.365Z</time></trkpt><trkpt lat="42.3882863" lon="13.5560573"><ele>1376.0</ele><time>2026-04-26T07:38:28.355Z</time></trkpt><trkpt lat="42.388179" lon="13.5562531"><ele>1377.3333333333335</ele><time>2026-04-26T07:38:29.371Z</time></trkpt><trkpt lat="42.3880809" lon="13.5564722"><ele>1378.6666666666667</ele><time>2026-04-26T07:38:30.434Z</time></trkpt><trkpt lat="42.3880047" lon="13.5566368"><ele>1380.0</ele><time>2026-04-26T07:38:31.337Z</time></trkpt><trkpt lat="42.387918" lon="13.5568185"><ele>1380.0</ele><time>2026-04-26T07:38:32.405Z</time></trkpt><trkpt lat="42.3878481" lon="13.5569717"><ele>1380.0</ele><time>2026-04-26T07:38:33.35Z</time></trkpt><trkpt lat="42.387771" lon="13.5571291"><ele>1380.0</ele><time>2026-04-26T07:38:34.345Z</time></trkpt><trkpt lat="42.387693" lon="13.5572697"><ele>1380.0</ele><time>2026-04-26T07:38:35.369Z</time></trkpt><trkpt lat="42.3876251" lon="13.5573775"><ele>1380.4</ele><time>2026-04-26T07:38:36.331Z</time></trkpt><trkpt lat="42.387555" lon="13.5574712"><ele>1380.8</ele><time>2026-04-26T07:38:37.354Z</time></trkpt><trkpt lat="42.3874881" lon="13.557547"><ele>1381.1999999999998</ele><time>2026-04-26T07:38:38.355Z</time></trkpt><trkpt lat="42.3874196" lon="13.5575934"><ele>1381.6</ele><time>2026-04-26T07:38:39.371Z</time></trkpt><trkpt lat="42.3873076" lon="13.5575687"><ele>1382.0</ele><time>2026-04-26T07:38:41.349Z</time></trkpt><trkpt lat="42.3872488" lon="13.5574691"><ele>1382.0</ele><time>2026-04-26T07:38:43.357Z</time></trkpt><trkpt lat="42.3872194" lon="13.5573915"><ele>1382.0</ele><time>2026-04-26T07:38:44.34Z</time></trkpt><trkpt lat="42.3871841" lon="13.5572973"><ele>1382.0</ele><time>2026-04-26T07:38:45.343Z</time></trkpt><trkpt lat="42.3871388" lon="13.5571703"><ele>1382.0</ele><time>2026-04-26T07:38:46.441Z</time></trkpt><trkpt lat="42.3870938" lon="13.5570446"><ele>1382.0</ele><time>2026-04-26T07:38:47.347Z</time></trkpt><trkpt lat="42.3870344" lon="13.5568832"><ele>1382.75</ele><time>2026-04-26T07:38:48.377Z</time></trkpt><trkpt lat="42.3869798" lon="13.5567351"><ele>1383.5</ele><time>2026-04-26T07:38:49.345Z</time></trkpt><trkpt lat="42.3869145" lon="13.5565681"><ele>1384.25</ele><time>2026-04-26T07:38:50.347Z</time></trkpt><trkpt lat="42.3868454" lon="13.5564032"><ele>1385.0</ele><time>2026-04-26T07:38:51.349Z</time></trkpt><trkpt lat="42.3867796" lon="13.5562557"><ele>1383.5</ele><time>2026-04-26T07:38:52.331Z</time></trkpt><trkpt lat="42.386701" lon="13.5560947"><ele>1382.0</ele><time>2026-04-26T07:38:53.477Z</time></trkpt><trkpt lat="42.3866452" lon="13.5559676"><ele>1380.5</ele><time>2026-04-26T07:38:54.427Z</time></trkpt><trkpt lat="42.3866046" lon="13.5558384"><ele>1379.0</ele><time>2026-04-26T07:38:55.348Z</time></trkpt><trkpt lat="42.3865823" lon="13.5557018"><ele>1379.0</ele><time>2026-04-26T07:38:56.303Z</time></trkpt><trkpt lat="42.3865814" lon="13.5555519"><ele>1379.0</ele><time>2026-04-26T07:38:57.33Z</time></trkpt><trkpt lat="42.3866057" lon="13.5553785"><ele>1379.0</ele><time>2026-04-26T07:38:58.455Z</time></trkpt><trkpt lat="42.3866755" lon="13.5550538"><ele>1379.4</ele><time>2026-04-26T07:39:00.508Z</time></trkpt><trkpt lat="42.3867008" lon="13.5549316"><ele>1379.8000000000002</ele><time>2026-04-26T07:39:01.338Z</time></trkpt><trkpt lat="42.3867309" lon="13.554791"><ele>1380.1999999999998</ele><time>2026-04-26T07:39:02.348Z</time></trkpt><trkpt lat="42.3867588" lon="13.5546569"><ele>1380.6</ele><time>2026-04-26T07:39:03.382Z</time></trkpt><trkpt lat="42.3867823" lon="13.5545125"><ele>1381.0</ele><time>2026-04-26T07:39:04.469Z</time></trkpt><trkpt lat="42.386809" lon="13.5542372"><ele>1381.0</ele><time>2026-04-26T07:39:06.405Z</time></trkpt><trkpt lat="42.3868153" lon="13.5540898"><ele>1381.0</ele><time>2026-04-26T07:39:07.392Z</time></trkpt><trkpt lat="42.3868162" lon="13.553935"><ele>1381.0</ele><time>2026-04-26T07:39:08.42Z</time></trkpt><trkpt lat="42.3868126" lon="13.5537898"><ele>1381.0</ele><time>2026-04-26T07:39:09.353Z</time></trkpt><trkpt lat="42.3868101" lon="13.5536248"><ele>1381.0</ele><time>2026-04-26T07:39:10.361Z</time></trkpt><trkpt lat="42.3868159" lon="13.5534536"><ele>1381.0</ele><time>2026-04-26T07:39:11.368Z</time></trkpt><trkpt lat="42.3868275" lon="13.5532811"><ele>1381.0</ele><time>2026-04-26T07:39:12.365Z</time></trkpt><trkpt lat="42.38684" lon="13.5531046"><ele>1381.0</ele><time>2026-04-26T07:39:13.37Z</time></trkpt><trkpt lat="42.3868535" lon="13.5529319"><ele>1381.5</ele><time>2026-04-26T07:39:14.366Z</time></trkpt><trkpt lat="42.3868661" lon="13.5527572"><ele>1382.0</ele><time>2026-04-26T07:39:15.386Z</time></trkpt><trkpt lat="42.3868728" lon="13.5525915"><ele>1382.5</ele><time>2026-04-26T07:39:16.356Z</time></trkpt><trkpt lat="42.3868794" lon="13.5524292"><ele>1383.0</ele><time>2026-04-26T07:39:17.345Z</time></trkpt><trkpt lat="42.3868895" lon="13.5522797"><ele>1383.0</ele><time>2026-04-26T07:39:18.373Z</time></trkpt><trkpt lat="42.3869004" lon="13.5521384"><ele>1383.0</ele><time>2026-04-26T07:39:19.495Z</time></trkpt><trkpt lat="42.3869126" lon="13.5519357"><ele>1383.0</ele><time>2026-04-26T07:39:21.401Z</time></trkpt><trkpt lat="42.3869182" lon="13.5518312"><ele>1383.0</ele><time>2026-04-26T07:39:22.368Z</time></trkpt><trkpt lat="42.3869233" lon="13.551729"><ele>1383.0</ele><time>2026-04-26T07:39:23.351Z</time></trkpt><trkpt lat="42.3869228" lon="13.5516286"><ele>1384.0</ele><time>2026-04-26T07:39:24.386Z</time></trkpt><trkpt lat="42.3869163" lon="13.5515273"><ele>1385.0</ele><time>2026-04-26T07:39:25.473Z</time></trkpt><trkpt lat="42.3868968" lon="13.5513485"><ele>1386.0</ele><time>2026-04-26T07:39:27.41Z</time></trkpt><trkpt lat="42.3868865" lon="13.5512603"><ele>1387.0</ele><time>2026-04-26T07:39:28.355Z</time></trkpt><trkpt lat="42.3868757" lon="13.5511652"><ele>1388.0</ele><time>2026-04-26T07:39:29.351Z</time></trkpt><trkpt lat="42.3868642" lon="13.5510645"><ele>1389.0</ele><time>2026-04-26T07:39:30.358Z</time></trkpt><trkpt lat="42.3868502" lon="13.550967"><ele>1389.142857142857</ele><time>2026-04-26T07:39:31.342Z</time></trkpt><trkpt lat="42.3868348" lon="13.5508697"><ele>1389.2857142857142</ele><time>2026-04-26T07:39:32.326Z</time></trkpt><trkpt lat="42.3868201" lon="13.5507738"><ele>1389.4285714285716</ele><time>2026-04-26T07:39:33.345Z</time></trkpt><trkpt lat="42.3868111" lon="13.5506869"><ele>1389.5714285714284</ele><time>2026-04-26T07:39:34.341Z</time></trkpt><trkpt lat="42.3868035" lon="13.5505937"><ele>1389.7142857142858</ele><time>2026-04-26T07:39:35.356Z</time></trkpt><trkpt lat="42.3867985" lon="13.5505004"><ele>1389.857142857143</ele><time>2026-04-26T07:39:36.361Z</time></trkpt><trkpt lat="42.3867975" lon="13.5504095"><ele>1390.0</ele><time>2026-04-26T07:39:37.354Z</time></trkpt><trkpt lat="42.386799" lon="13.5503098"><ele>1388.6</ele><time>2026-04-26T07:39:38.373Z</time></trkpt><trkpt lat="42.3868057" lon="13.5502029"><ele>1387.2</ele><time>2026-04-26T07:39:39.388Z</time></trkpt><trkpt lat="42.3868155" lon="13.5500848"><ele>1385.8000000000002</ele><time>2026-04-26T07:39:40.492Z</time></trkpt><trkpt lat="42.3868356" lon="13.5498663"><ele>1384.4</ele><time>2026-04-26T07:39:42.404Z</time></trkpt><trkpt lat="42.3868498" lon="13.5497649"><ele>1383.0</ele><time>2026-04-26T07:39:43.348Z</time></trkpt><trkpt lat="42.3868638" lon="13.5496567"><ele>1383.0</ele><time>2026-04-26T07:39:44.396Z</time></trkpt><trkpt lat="42.3868717" lon="13.549561"><ele>1383.0</ele><time>2026-04-26T07:39:45.361Z</time></trkpt><trkpt lat="42.3868802" lon="13.549465"><ele>1383.0</ele><time>2026-04-26T07:39:46.418Z</time></trkpt><trkpt lat="42.3869043" lon="13.5493022"><ele>1383.0</ele><time>2026-04-26T07:39:48.369Z</time></trkpt><trkpt lat="42.386916" lon="13.5492027"><ele>1383.0</ele><time>2026-04-26T07:39:49.599Z</time></trkpt><trkpt lat="42.3869355" lon="13.5490596"><ele>1383.0</ele><time>2026-04-26T07:39:51.453Z</time></trkpt><trkpt lat="42.3869593" lon="13.5489031"><ele>1381.8333333333333</ele><time>2026-04-26T07:39:53.421Z</time></trkpt><trkpt lat="42.3869774" lon="13.5488169"><ele>1380.6666666666667</ele><time>2026-04-26T07:39:54.505Z</time></trkpt><trkpt lat="42.3869901" lon="13.5486557"><ele>1379.5</ele><time>2026-04-26T07:39:56.352Z</time></trkpt><trkpt lat="42.3869967" lon="13.5485549"><ele>1378.3333333333335</ele><time>2026-04-26T07:39:57.389Z</time></trkpt><trkpt lat="42.3869979" lon="13.548452"><ele>1377.1666666666667</ele><time>2026-04-26T07:39:58.381Z</time></trkpt><trkpt lat="42.3869922" lon="13.5483523"><ele>1376.0</ele><time>2026-04-26T07:39:59.398Z</time></trkpt><trkpt lat="42.3869897" lon="13.548261"><ele>1375.1428571428573</ele><time>2026-04-26T07:40:00.393Z</time></trkpt><trkpt lat="42.3869902" lon="13.5481687"><ele>1374.2857142857142</ele><time>2026-04-26T07:40:01.401Z</time></trkpt><trkpt lat="42.386996" lon="13.5480791"><ele>1373.4285714285716</ele><time>2026-04-26T07:40:02.381Z</time></trkpt><trkpt lat="42.3870039" lon="13.547991"><ele>1372.5714285714287</ele><time>2026-04-26T07:40:03.357Z</time></trkpt><trkpt lat="42.3870185" lon="13.5478981"><ele>1371.7142857142858</ele><time>2026-04-26T07:40:04.398Z</time></trkpt><trkpt lat="42.3870383" lon="13.5478082"><ele>1370.857142857143</ele><time>2026-04-26T07:40:05.386Z</time></trkpt><trkpt lat="42.3870628" lon="13.5477198"><ele>1370.0</ele><time>2026-04-26T07:40:06.364Z</time></trkpt><trkpt lat="42.3870888" lon="13.547626"><ele>1368.4</ele><time>2026-04-26T07:40:07.388Z</time></trkpt><trkpt lat="42.3871075" lon="13.5475267"><ele>1366.8</ele><time>2026-04-26T07:40:08.36Z</time></trkpt><trkpt lat="42.3871189" lon="13.5474196"><ele>1365.1999999999998</ele><time>2026-04-26T07:40:09.396Z</time></trkpt><trkpt lat="42.3871174" lon="13.5472861"><ele>1363.6</ele><time>2026-04-26T07:40:10.587Z</time></trkpt><trkpt lat="42.3870936" lon="13.5470661"><ele>1362.0</ele><time>2026-04-26T07:40:12.379Z</time></trkpt><trkpt lat="42.3870826" lon="13.5469364"><ele>1360.0</ele><time>2026-04-26T07:40:13.38Z</time></trkpt><trkpt lat="42.3870795" lon="13.5468012"><ele>1358.0</ele><time>2026-04-26T07:40:14.368Z</time></trkpt><trkpt lat="42.3870777" lon="13.5466628"><ele>1356.0</ele><time>2026-04-26T07:40:15.384Z</time></trkpt><trkpt lat="42.3870677" lon="13.5465247"><ele>1354.0</ele><time>2026-04-26T07:40:16.366Z</time></trkpt><trkpt lat="42.3870463" lon="13.5463838"><ele>1352.0</ele><time>2026-04-26T07:40:17.375Z</time></trkpt><trkpt lat="42.3870219" lon="13.5462493"><ele>1350.8</ele><time>2026-04-26T07:40:18.373Z</time></trkpt><trkpt lat="42.3869937" lon="13.5460945"><ele>1349.6</ele><time>2026-04-26T07:40:19.501Z</time></trkpt><trkpt lat="42.3869686" lon="13.5459714"><ele>1348.3999999999999</ele><time>2026-04-26T07:40:20.406Z</time></trkpt><trkpt lat="42.3869356" lon="13.545833"><ele>1347.1999999999998</ele><time>2026-04-26T07:40:21.439Z</time></trkpt><trkpt lat="42.3868979" lon="13.5457099"><ele>1346.0</ele><time>2026-04-26T07:40:22.367Z</time></trkpt><trkpt lat="42.3868477" lon="13.5455731"><ele>1346.0</ele><time>2026-04-26T07:40:23.45Z</time></trkpt><trkpt lat="42.3868084" lon="13.5454603"><ele>1346.0</ele><time>2026-04-26T07:40:24.356Z</time></trkpt><trkpt lat="42.3867749" lon="13.545333"><ele>1346.0</ele><time>2026-04-26T07:40:25.378Z</time></trkpt><trkpt lat="42.3867596" lon="13.5452089"><ele>1346.0</ele><time>2026-04-26T07:40:26.357Z</time></trkpt><trkpt lat="42.386755" lon="13.5450841"><ele>1346.0</ele><time>2026-04-26T07:40:27.354Z</time></trkpt><trkpt lat="42.3867581" lon="13.5449486"><ele>1345.6666666666667</ele><time>2026-04-26T07:40:28.438Z</time></trkpt><trkpt lat="42.3867722" lon="13.5448249"><ele>1345.3333333333335</ele><time>2026-04-26T07:40:29.466Z</time></trkpt><trkpt lat="42.3867912" lon="13.5447183"><ele>1345.0</ele><time>2026-04-26T07:40:30.388Z</time></trkpt><trkpt lat="42.3868235" lon="13.544613"><ele>1344.6666666666667</ele><time>2026-04-26T07:40:31.386Z</time></trkpt><trkpt lat="42.3868699" lon="13.5445225"><ele>1344.3333333333333</ele><time>2026-04-26T07:40:32.338Z</time></trkpt><trkpt lat="42.3869281" lon="13.5444384"><ele>1344.0</ele><time>2026-04-26T07:40:33.365Z</time></trkpt><trkpt lat="42.3869863" lon="13.5443656"><ele>1342.4</ele><time>2026-04-26T07:40:34.373Z</time></trkpt><trkpt lat="42.3870372" lon="13.5443004"><ele>1340.8000000000002</ele><time>2026-04-26T07:40:35.355Z</time></trkpt><trkpt lat="42.3871174" lon="13.5441824"><ele>1339.1999999999998</ele><time>2026-04-26T07:40:37.358Z</time></trkpt><trkpt lat="42.3871092" lon="13.5440421"><ele>1337.6</ele><time>2026-04-26T07:40:39.436Z</time></trkpt><trkpt lat="42.3869707" lon="13.5440628"><ele>1336.0</ele><time>2026-04-26T07:40:41.413Z</time></trkpt><trkpt lat="42.3868869" lon="13.5440828"><ele>1336.0</ele><time>2026-04-26T07:40:42.372Z</time></trkpt><trkpt lat="42.3867936" lon="13.5440977"><ele>1336.0</ele><time>2026-04-26T07:40:43.349Z</time></trkpt><trkpt lat="42.3866978" lon="13.5441079"><ele>1336.0</ele><time>2026-04-26T07:40:44.331Z</time></trkpt><trkpt lat="42.386598" lon="13.5441161"><ele>1336.0</ele><time>2026-04-26T07:40:45.363Z</time></trkpt><trkpt lat="42.3865021" lon="13.5441266"><ele>1336.0</ele><time>2026-04-26T07:40:46.353Z</time></trkpt><trkpt lat="42.3864034" lon="13.5441417"><ele>1333.0</ele><time>2026-04-26T07:40:47.371Z</time></trkpt><trkpt lat="42.3863107" lon="13.5441667"><ele>1330.0</ele><time>2026-04-26T07:40:48.339Z</time></trkpt><trkpt lat="42.386217" lon="13.5442083"><ele>1327.0</ele><time>2026-04-26T07:40:49.37Z</time></trkpt><trkpt lat="42.3861358" lon="13.544273"><ele>1324.0</ele><time>2026-04-26T07:40:50.366Z</time></trkpt><trkpt lat="42.3860723" lon="13.5443611"><ele>1321.0</ele><time>2026-04-26T07:40:51.357Z</time></trkpt><trkpt lat="42.3860155" lon="13.5444661"><ele>1321.4</ele><time>2026-04-26T07:40:52.396Z</time></trkpt><trkpt lat="42.3859984" lon="13.5446066"><ele>1321.8</ele><time>2026-04-26T07:40:53.45Z</time></trkpt><trkpt lat="42.386013" lon="13.5447438"><ele>1322.2</ele><time>2026-04-26T07:40:54.355Z</time></trkpt><trkpt lat="42.3860197" lon="13.5448852"><ele>1322.6000000000001</ele><time>2026-04-26T07:40:55.405Z</time></trkpt><trkpt lat="42.3860403" lon="13.5450098"><ele>1323.0</ele><time>2026-04-26T07:40:56.393Z</time></trkpt><trkpt lat="42.3860739" lon="13.5451282"><ele>1323.0</ele><time>2026-04-26T07:40:57.37Z</time></trkpt><trkpt lat="42.3861033" lon="13.5452498"><ele>1323.0</ele><time>2026-04-26T07:40:58.472Z</time></trkpt><trkpt lat="42.3861188" lon="13.5454493"><ele>1323.0</ele><time>2026-04-26T07:41:00.389Z</time></trkpt><trkpt lat="42.386086" lon="13.5455973"><ele>1323.0</ele><time>2026-04-26T07:41:02.35Z</time></trkpt><trkpt lat="42.3859702" lon="13.5456461"><ele>1322.2</ele><time>2026-04-26T07:41:04.339Z</time></trkpt><trkpt lat="42.3858744" lon="13.5456215"><ele>1321.4</ele><time>2026-04-26T07:41:05.383Z</time></trkpt><trkpt lat="42.3857843" lon="13.5455564"><ele>1320.6000000000001</ele><time>2026-04-26T07:41:06.352Z</time></trkpt><trkpt lat="42.3856808" lon="13.5454959"><ele>1319.8000000000002</ele><time>2026-04-26T07:41:07.35Z</time></trkpt><trkpt lat="42.3855723" lon="13.5454366"><ele>1319.0</ele><time>2026-04-26T07:41:08.34Z</time></trkpt><trkpt lat="42.3854656" lon="13.5453805"><ele>1317.2</ele><time>2026-04-26T07:41:09.341Z</time></trkpt><trkpt lat="42.3853556" lon="13.54533"><ele>1315.4</ele><time>2026-04-26T07:41:10.361Z</time></trkpt><trkpt lat="42.3852469" lon="13.5452826"><ele>1313.6</ele><time>2026-04-26T07:41:11.385Z</time></trkpt><trkpt lat="42.3851425" lon="13.5452373"><ele>1311.8</ele><time>2026-04-26T07:41:12.374Z</time></trkpt><trkpt lat="42.385043" lon="13.5452124"><ele>1310.0</ele><time>2026-04-26T07:41:13.35Z</time></trkpt><trkpt lat="42.3849367" lon="13.5452194"><ele>1310.0</ele><time>2026-04-26T07:41:14.383Z</time></trkpt><trkpt lat="42.38484" lon="13.5452616"><ele>1310.0</ele><time>2026-04-26T07:41:15.376Z</time></trkpt><trkpt lat="42.3847468" lon="13.5453228"><ele>1310.0</ele><time>2026-04-26T07:41:16.419Z</time></trkpt><trkpt lat="42.3846636" lon="13.545381"><ele>1310.0</ele><time>2026-04-26T07:41:17.38Z</time></trkpt><trkpt lat="42.3845759" lon="13.5454321"><ele>1310.0</ele><time>2026-04-26T07:41:18.397Z</time></trkpt><trkpt lat="42.3844917" lon="13.5454666"><ele>1309.3333333333335</ele><time>2026-04-26T07:41:19.347Z</time></trkpt><trkpt lat="42.3844025" lon="13.5454942"><ele>1308.6666666666667</ele><time>2026-04-26T07:41:20.355Z</time></trkpt><trkpt lat="42.384315" lon="13.545512"><ele>1308.0</ele><time>2026-04-26T07:41:21.359Z</time></trkpt><trkpt lat="42.384227" lon="13.5455303"><ele>1307.3333333333333</ele><time>2026-04-26T07:41:22.366Z</time></trkpt><trkpt lat="42.3841431" lon="13.5455586"><ele>1306.6666666666665</ele><time>2026-04-26T07:41:23.365Z</time></trkpt><trkpt lat="42.3840621" lon="13.5456094"><ele>1306.0</ele><time>2026-04-26T07:41:24.415Z</time></trkpt><trkpt lat="42.3839967" lon="13.5456835"><ele>1306.0</ele><time>2026-04-26T07:41:25.385Z</time></trkpt><trkpt lat="42.3839431" lon="13.5457739"><ele>1306.0</ele><time>2026-04-26T07:41:26.391Z</time></trkpt><trkpt lat="42.3839061" lon="13.5458692"><ele>1306.0</ele><time>2026-04-26T07:41:27.379Z</time></trkpt><trkpt lat="42.3838729" lon="13.545977"><ele>1306.0</ele><time>2026-04-26T07:41:28.442Z</time></trkpt><trkpt lat="42.383847" lon="13.5460835"><ele>1306.0</ele><time>2026-04-26T07:41:29.402Z</time></trkpt><trkpt lat="42.3838201" lon="13.5461953"><ele>1306.0</ele><time>2026-04-26T07:41:30.395Z</time></trkpt><trkpt lat="42.3837745" lon="13.5462907"><ele>1304.8333333333333</ele><time>2026-04-26T07:41:31.396Z</time></trkpt><trkpt lat="42.3837295" lon="13.5463513"><ele>1303.6666666666665</ele><time>2026-04-26T07:41:32.363Z</time></trkpt><trkpt lat="42.3836677" lon="13.5463741"><ele>1302.5</ele><time>2026-04-26T07:41:33.386Z</time></trkpt><trkpt lat="42.3835893" lon="13.5463249"><ele>1301.3333333333333</ele><time>2026-04-26T07:41:34.427Z</time></trkpt><trkpt lat="42.3835215" lon="13.5462259"><ele>1300.1666666666667</ele><time>2026-04-26T07:41:35.392Z</time></trkpt><trkpt lat="42.3834833" lon="13.5461307"><ele>1299.0</ele><time>2026-04-26T07:41:36.374Z</time></trkpt><trkpt lat="42.3834402" lon="13.5460176"><ele>1297.8000000000002</ele><time>2026-04-26T07:41:37.46Z</time></trkpt><trkpt lat="42.3834012" lon="13.5459084"><ele>1296.6000000000001</ele><time>2026-04-26T07:41:38.403Z</time></trkpt><trkpt lat="42.3833574" lon="13.5457888"><ele>1295.4</ele><time>2026-04-26T07:41:39.402Z</time></trkpt><trkpt lat="42.3833126" lon="13.545678"><ele>1294.2</ele><time>2026-04-26T07:41:40.363Z</time></trkpt><trkpt lat="42.3832545" lon="13.5455632"><ele>1293.0</ele><time>2026-04-26T07:41:41.375Z</time></trkpt><trkpt lat="42.3831885" lon="13.5454554"><ele>1292.2</ele><time>2026-04-26T07:41:42.387Z</time></trkpt><trkpt lat="42.383121" lon="13.5453494"><ele>1291.4</ele><time>2026-04-26T07:41:43.437Z</time></trkpt><trkpt lat="42.3830635" lon="13.5452457"><ele>1290.6000000000001</ele><time>2026-04-26T07:41:44.404Z</time></trkpt><trkpt lat="42.3830091" lon="13.5451195"><ele>1289.8000000000002</ele><time>2026-04-26T07:41:45.442Z</time></trkpt><trkpt lat="42.3829658" lon="13.5449937"><ele>1289.0</ele><time>2026-04-26T07:41:46.4Z</time></trkpt><trkpt lat="42.3829304" lon="13.5448437"><ele>1287.0</ele><time>2026-04-26T07:41:47.5Z</time></trkpt><trkpt lat="42.3828423" lon="13.5446134"><ele>1285.0</ele><time>2026-04-26T07:41:49.37Z</time></trkpt><trkpt lat="42.3827632" lon="13.5444882"><ele>1283.0</ele><time>2026-04-26T07:41:50.495Z</time></trkpt><trkpt lat="42.3826115" lon="13.5443061"><ele>1281.8000000000002</ele><time>2026-04-26T07:41:52.395Z</time></trkpt><trkpt lat="42.3825363" lon="13.5442201"><ele>1280.6000000000001</ele><time>2026-04-26T07:41:53.393Z</time></trkpt><trkpt lat="42.3824593" lon="13.5441168"><ele>1279.4</ele><time>2026-04-26T07:41:54.405Z</time></trkpt><trkpt lat="42.3823995" lon="13.5440089"><ele>1278.2</ele><time>2026-04-26T07:41:55.399Z</time></trkpt><trkpt lat="42.3823576" lon="13.543889"><ele>1277.0</ele><time>2026-04-26T07:41:56.411Z</time></trkpt><trkpt lat="42.3823427" lon="13.5437351"><ele>1275.8</ele><time>2026-04-26T07:41:57.556Z</time></trkpt><trkpt lat="42.3823484" lon="13.5435983"><ele>1274.6</ele><time>2026-04-26T07:41:58.471Z</time></trkpt><trkpt lat="42.3823313" lon="13.5434421"><ele>1273.3999999999999</ele><time>2026-04-26T07:41:59.644Z</time></trkpt><trkpt lat="42.3822968" lon="13.5433213"><ele>1272.2</ele><time>2026-04-26T07:42:00.583Z</time></trkpt><trkpt lat="42.3822528" lon="13.5432002"><ele>1271.0</ele><time>2026-04-26T07:42:01.506Z</time></trkpt><trkpt lat="42.3821984" lon="13.5430749"><ele>1270.8</ele><time>2026-04-26T07:42:02.553Z</time></trkpt><trkpt lat="42.3821498" lon="13.5429692"><ele>1270.6</ele><time>2026-04-26T07:42:03.477Z</time></trkpt><trkpt lat="42.3821013" lon="13.5428454"><ele>1270.4</ele><time>2026-04-26T07:42:04.526Z</time></trkpt><trkpt lat="42.3820562" lon="13.5427085"><ele>1270.2</ele><time>2026-04-26T07:42:05.473Z</time></trkpt><trkpt lat="42.3820227" lon="13.542597"><ele>1270.0</ele><time>2026-04-26T07:42:06.513Z</time></trkpt><trkpt lat="42.3819736" lon="13.5424909"><ele>1268.6</ele><time>2026-04-26T07:42:07.522Z</time></trkpt><trkpt lat="42.3819239" lon="13.5423942"><ele>1267.2</ele><time>2026-04-26T07:42:08.477Z</time></trkpt><trkpt lat="42.3818577" lon="13.5422983"><ele>1265.8</ele><time>2026-04-26T07:42:09.512Z</time></trkpt><trkpt lat="42.3817856" lon="13.5422252"><ele>1264.4</ele><time>2026-04-26T07:42:10.499Z</time></trkpt><trkpt lat="42.3816918" lon="13.5421627"><ele>1263.0</ele><time>2026-04-26T07:42:11.664Z</time></trkpt><trkpt lat="42.381516" lon="13.5420896"><ele>1262.8</ele><time>2026-04-26T07:42:13.498Z</time></trkpt><trkpt lat="42.3814214" lon="13.5420466"><ele>1262.6</ele><time>2026-04-26T07:42:14.493Z</time></trkpt><trkpt lat="42.3813373" lon="13.5419891"><ele>1262.4</ele><time>2026-04-26T07:42:15.412Z</time></trkpt><trkpt lat="42.3812411" lon="13.541893"><ele>1262.2</ele><time>2026-04-26T07:42:16.494Z</time></trkpt><trkpt lat="42.3811666" lon="13.5417849"><ele>1262.0</ele><time>2026-04-26T07:42:17.442Z</time></trkpt><trkpt lat="42.3810909" lon="13.5416682"><ele>1260.75</ele><time>2026-04-26T07:42:18.398Z</time></trkpt><trkpt lat="42.3810027" lon="13.541545"><ele>1259.5</ele><time>2026-04-26T07:42:19.419Z</time></trkpt><trkpt lat="42.3809186" lon="13.5414351"><ele>1258.25</ele><time>2026-04-26T07:42:20.373Z</time></trkpt><trkpt lat="42.3808338" lon="13.5413243"><ele>1257.0</ele><time>2026-04-26T07:42:21.4Z</time></trkpt><trkpt lat="42.3807533" lon="13.5412198"><ele>1256.0</ele><time>2026-04-26T07:42:22.419Z</time></trkpt><trkpt lat="42.380675" lon="13.5411375"><ele>1255.0</ele><time>2026-04-26T07:42:23.396Z</time></trkpt><trkpt lat="42.3805835" lon="13.541077"><ele>1254.0</ele><time>2026-04-26T07:42:24.444Z</time></trkpt><trkpt lat="42.380475" lon="13.5410439"><ele>1253.0</ele><time>2026-04-26T07:42:25.514Z</time></trkpt><trkpt lat="42.380279" lon="13.5409896"><ele>1253.0</ele><time>2026-04-26T07:42:27.488Z</time></trkpt><trkpt lat="42.3801879" lon="13.5409472"><ele>1253.0</ele><time>2026-04-26T07:42:28.494Z</time></trkpt><trkpt lat="42.3800165" lon="13.5408106"><ele>1253.0</ele><time>2026-04-26T07:42:30.416Z</time></trkpt><trkpt lat="42.3799381" lon="13.5407435"><ele>1253.0</ele><time>2026-04-26T07:42:31.392Z</time></trkpt><trkpt lat="42.3798608" lon="13.5406723"><ele>1253.0</ele><time>2026-04-26T07:42:32.425Z</time></trkpt><trkpt lat="42.3797932" lon="13.5405973"><ele>1253.0</ele><time>2026-04-26T07:42:33.398Z</time></trkpt><trkpt lat="42.3797236" lon="13.5404979"><ele>1253.0</ele><time>2026-04-26T07:42:34.371Z</time></trkpt><trkpt lat="42.3796523" lon="13.5403681"><ele>1253.0</ele><time>2026-04-26T07:42:35.424Z</time></trkpt><trkpt lat="42.3795903" lon="13.5402369"><ele>1253.0</ele><time>2026-04-26T07:42:36.367Z</time></trkpt><trkpt lat="42.3795256" lon="13.5400969"><ele>1252.25</ele><time>2026-04-26T07:42:37.38Z</time></trkpt><trkpt lat="42.3794629" lon="13.5399601"><ele>1251.5</ele><time>2026-04-26T07:42:38.374Z</time></trkpt><trkpt lat="42.3793973" lon="13.5398234"><ele>1250.75</ele><time>2026-04-26T07:42:39.39Z</time></trkpt><trkpt lat="42.3793348" lon="13.5396934"><ele>1250.0</ele><time>2026-04-26T07:42:40.383Z</time></trkpt><trkpt lat="42.3792739" lon="13.5395644"><ele>1249.2</ele><time>2026-04-26T07:42:41.387Z</time></trkpt><trkpt lat="42.3792118" lon="13.5394435"><ele>1248.4</ele><time>2026-04-26T07:42:42.369Z</time></trkpt><trkpt lat="42.3791523" lon="13.5393283"><ele>1247.6</ele><time>2026-04-26T07:42:43.341Z</time></trkpt><trkpt lat="42.3790939" lon="13.5392065"><ele>1246.8</ele><time>2026-04-26T07:42:44.388Z</time></trkpt><trkpt lat="42.3790413" lon="13.5390945"><ele>1246.0</ele><time>2026-04-26T07:42:45.369Z</time></trkpt><trkpt lat="42.378989" lon="13.5389887"><ele>1246.0</ele><time>2026-04-26T07:42:46.336Z</time></trkpt><trkpt lat="42.3789287" lon="13.5388741"><ele>1246.0</ele><time>2026-04-26T07:42:47.412Z</time></trkpt><trkpt lat="42.3788746" lon="13.5387753"><ele>1246.0</ele><time>2026-04-26T07:42:48.354Z</time></trkpt><trkpt lat="42.3788189" lon="13.5386699"><ele>1246.0</ele><time>2026-04-26T07:42:49.353Z</time></trkpt><trkpt lat="42.3787648" lon="13.5385543"><ele>1246.0</ele><time>2026-04-26T07:42:50.401Z</time></trkpt><trkpt lat="42.3787253" lon="13.5384429"><ele>1245.0</ele><time>2026-04-26T07:42:51.377Z</time></trkpt><trkpt lat="42.3786892" lon="13.5383271"><ele>1244.0</ele><time>2026-04-26T07:42:52.34Z</time></trkpt><trkpt lat="42.3786637" lon="13.5382022"><ele>1243.0</ele><time>2026-04-26T07:42:53.358Z</time></trkpt><trkpt lat="42.3786438" lon="13.5380729"><ele>1242.0</ele><time>2026-04-26T07:42:54.367Z</time></trkpt><trkpt lat="42.378634" lon="13.5379379"><ele>1241.0</ele><time>2026-04-26T07:42:55.37Z</time></trkpt><trkpt lat="42.3786288" lon="13.5378035"><ele>1237.8</ele><time>2026-04-26T07:42:56.36Z</time></trkpt><trkpt lat="42.3786161" lon="13.5376564"><ele>1234.6</ele><time>2026-04-26T07:42:57.404Z</time></trkpt><trkpt lat="42.378589" lon="13.5375386"><ele>1231.4</ele><time>2026-04-26T07:42:58.362Z</time></trkpt><trkpt lat="42.3785545" lon="13.5374203"><ele>1228.2</ele><time>2026-04-26T07:42:59.341Z</time></trkpt><trkpt lat="42.3785085" lon="13.5372964"><ele>1225.0</ele><time>2026-04-26T07:43:00.359Z</time></trkpt><trkpt lat="42.378437" lon="13.5372282"><ele>1225.0</ele><time>2026-04-26T07:43:01.339Z</time></trkpt><trkpt lat="42.3783752" lon="13.5371237"><ele>1225.0</ele><time>2026-04-26T07:43:02.375Z</time></trkpt><trkpt lat="42.3782846" lon="13.5371029"><ele>1225.0</ele><time>2026-04-26T07:43:03.353Z</time></trkpt><trkpt lat="42.3782133" lon="13.5370778"><ele>1225.0</ele><time>2026-04-26T07:43:04.356Z</time></trkpt><trkpt lat="42.3781265" lon="13.5370715"><ele>1225.0</ele><time>2026-04-26T07:43:05.387Z</time></trkpt><trkpt lat="42.3780285" lon="13.537093"><ele>1222.0</ele><time>2026-04-26T07:43:06.433Z</time></trkpt><trkpt lat="42.3779078" lon="13.5371844"><ele>1219.0</ele><time>2026-04-26T07:43:07.34Z</time></trkpt><trkpt lat="42.3777958" lon="13.5372543"><ele>1216.0</ele><time>2026-04-26T07:43:08.355Z</time></trkpt><trkpt lat="42.3776949" lon="13.5373182"><ele>1213.0</ele><time>2026-04-26T07:43:09.359Z</time></trkpt><trkpt lat="42.3775816" lon="13.5374049"><ele>1213.0</ele><time>2026-04-26T07:43:10.349Z</time></trkpt><trkpt lat="42.3774648" lon="13.5374956"><ele>1213.0</ele><time>2026-04-26T07:43:11.361Z</time></trkpt><trkpt lat="42.3773474" lon="13.5375829"><ele>1213.0</ele><time>2026-04-26T07:43:12.384Z</time></trkpt><trkpt lat="42.3772274" lon="13.5376434"><ele>1213.0</ele><time>2026-04-26T07:43:13.35Z</time></trkpt><trkpt lat="42.3771373" lon="13.5376991"><ele>1211.6666666666665</ele><time>2026-04-26T07:43:14.361Z</time></trkpt><trkpt lat="42.3770487" lon="13.5377414"><ele>1210.3333333333333</ele><time>2026-04-26T07:43:15.354Z</time></trkpt><trkpt lat="42.3769602" lon="13.5377644"><ele>1209.0</ele><time>2026-04-26T07:43:16.349Z</time></trkpt><trkpt lat="42.3768726" lon="13.5377609"><ele>1207.6666666666667</ele><time>2026-04-26T07:43:17.357Z</time></trkpt><trkpt lat="42.3767893" lon="13.5377425"><ele>1206.3333333333335</ele><time>2026-04-26T07:43:18.367Z</time></trkpt><trkpt lat="42.3767152" lon="13.5377068"><ele>1205.0</ele><time>2026-04-26T07:43:19.35Z</time></trkpt><trkpt lat="42.3766525" lon="13.5376448"><ele>1205.0</ele><time>2026-04-26T07:43:20.375Z</time></trkpt><trkpt lat="42.3766165" lon="13.5375686"><ele>1205.0</ele><time>2026-04-26T07:43:21.38Z</time></trkpt><trkpt lat="42.376627" lon="13.5374032"><ele>1205.0</ele><time>2026-04-26T07:43:23.386Z</time></trkpt><trkpt lat="42.3766866" lon="13.537326"><ele>1205.0</ele><time>2026-04-26T07:43:24.369Z</time></trkpt><trkpt lat="42.3767978" lon="13.5372602"><ele>1205.0</ele><time>2026-04-26T07:43:25.558Z</time></trkpt><trkpt lat="42.3769543" lon="13.5371367"><ele>1205.0</ele><time>2026-04-26T07:43:27.362Z</time></trkpt><trkpt lat="42.3770243" lon="13.5370661"><ele>1205.0</ele><time>2026-04-26T07:43:28.363Z</time></trkpt><trkpt lat="42.3770858" lon="13.5369956"><ele>1205.0</ele><time>2026-04-26T07:43:29.358Z</time></trkpt><trkpt lat="42.3771409" lon="13.5369146"><ele>1205.0</ele><time>2026-04-26T07:43:30.4Z</time></trkpt><trkpt lat="42.377182" lon="13.5368227"><ele>1205.0</ele><time>2026-04-26T07:43:31.371Z</time></trkpt><trkpt lat="42.3772092" lon="13.5367201"><ele>1205.0</ele><time>2026-04-26T07:43:32.361Z</time></trkpt><trkpt lat="42.3772119" lon="13.5365896"><ele>1202.0</ele><time>2026-04-26T07:43:33.477Z</time></trkpt><trkpt lat="42.3771421" lon="13.53629"><ele>1199.0</ele><time>2026-04-26T07:43:35.531Z</time></trkpt><trkpt lat="42.3770621" lon="13.5359769"><ele>1196.75</ele><time>2026-04-26T07:43:37.407Z</time></trkpt><trkpt lat="42.3770327" lon="13.5358171"><ele>1194.5</ele><time>2026-04-26T07:43:38.375Z</time></trkpt><trkpt lat="42.3770101" lon="13.5356596"><ele>1192.25</ele><time>2026-04-26T07:43:39.39Z</time></trkpt><trkpt lat="42.376987" lon="13.5355065"><ele>1190.0</ele><time>2026-04-26T07:43:40.468Z</time></trkpt><trkpt lat="42.3769605" lon="13.5353626"><ele>1188.5</ele><time>2026-04-26T07:43:41.521Z</time></trkpt><trkpt lat="42.3768803" lon="13.5351356"><ele>1187.0</ele><time>2026-04-26T07:43:43.439Z</time></trkpt><trkpt lat="42.3768247" lon="13.5350412"><ele>1185.5</ele><time>2026-04-26T07:43:44.397Z</time></trkpt><trkpt lat="42.3767599" lon="13.5349484"><ele>1184.0</ele><time>2026-04-26T07:43:45.403Z</time></trkpt><trkpt lat="42.3766931" lon="13.5348698"><ele>1184.0</ele><time>2026-04-26T07:43:46.391Z</time></trkpt><trkpt lat="42.3766292" lon="13.5348137"><ele>1184.0</ele><time>2026-04-26T07:43:47.53Z</time></trkpt><trkpt lat="42.3765209" lon="13.5348037"><ele>1184.0</ele><time>2026-04-26T07:43:49.354Z</time></trkpt><trkpt lat="42.3764387" lon="13.5348205"><ele>1184.0</ele><time>2026-04-26T07:43:50.359Z</time></trkpt><trkpt lat="42.3763209" lon="13.5348844"><ele>1184.0</ele><time>2026-04-26T07:43:51.378Z</time></trkpt><trkpt lat="42.3761478" lon="13.5350345"><ele>1180.25</ele><time>2026-04-26T07:43:52.469Z</time></trkpt><trkpt lat="42.3760259" lon="13.5351165"><ele>1176.5</ele><time>2026-04-26T07:43:53.376Z</time></trkpt><trkpt lat="42.3758996" lon="13.535193"><ele>1172.75</ele><time>2026-04-26T07:43:54.406Z</time></trkpt><trkpt lat="42.3757758" lon="13.5352767"><ele>1169.0</ele><time>2026-04-26T07:43:55.357Z</time></trkpt><trkpt lat="42.3756639" lon="13.535353"><ele>1168.0</ele><time>2026-04-26T07:43:56.384Z</time></trkpt><trkpt lat="42.3755603" lon="13.5354335"><ele>1167.0</ele><time>2026-04-26T07:43:57.365Z</time></trkpt><trkpt lat="42.3754614" lon="13.5355178"><ele>1166.0</ele><time>2026-04-26T07:43:58.372Z</time></trkpt><trkpt lat="42.3753699" lon="13.5355999"><ele>1165.0</ele><time>2026-04-26T07:43:59.379Z</time></trkpt><trkpt lat="42.37527" lon="13.5356868"><ele>1165.0</ele><time>2026-04-26T07:44:00.638Z</time></trkpt><trkpt lat="42.3751432" lon="13.5357658"><ele>1165.0</ele><time>2026-04-26T07:44:02.392Z</time></trkpt><trkpt lat="42.3750607" lon="13.5357889"><ele>1165.0</ele><time>2026-04-26T07:44:03.395Z</time></trkpt><trkpt lat="42.374943" lon="13.5358664"><ele>1165.0</ele><time>2026-04-26T07:44:04.404Z</time></trkpt><trkpt lat="42.3748462" lon="13.5358928"><ele>1165.0</ele><time>2026-04-26T07:44:05.399Z</time></trkpt><trkpt lat="42.3747331" lon="13.535942"><ele>1165.0</ele><time>2026-04-26T07:44:06.374Z</time></trkpt><trkpt lat="42.3746278" lon="13.5359907"><ele>1165.0</ele><time>2026-04-26T07:44:07.375Z</time></trkpt><trkpt lat="42.3746836" lon="13.5357342"><ele>1165.0</ele><time>2026-04-26T07:44:09.341Z</time></trkpt><trkpt lat="42.3747143" lon="13.5355792"><ele>1165.0</ele><time>2026-04-26T07:44:10.375Z</time></trkpt><trkpt lat="42.3747482" lon="13.5354327"><ele>1165.0</ele><time>2026-04-26T07:44:11.389Z</time></trkpt><trkpt lat="42.3747962" lon="13.5352998"><ele>1165.0</ele><time>2026-04-26T07:44:12.409Z</time></trkpt><trkpt lat="42.3748511" lon="13.5351865"><ele>1165.0</ele><time>2026-04-26T07:44:13.354Z</time></trkpt><trkpt lat="42.3749008" lon="13.5350671"><ele>1165.0</ele><time>2026-04-26T07:44:14.371Z</time></trkpt><trkpt lat="42.374925" lon="13.534964"><ele>1163.0</ele><time>2026-04-26T07:44:15.361Z</time></trkpt><trkpt lat="42.374921" lon="13.5348216"><ele>1161.0</ele><time>2026-04-26T07:44:16.381Z</time></trkpt><trkpt lat="42.3748792" lon="13.5346818"><ele>1159.0</ele><time>2026-04-26T07:44:17.436Z</time></trkpt><trkpt lat="42.3748075" lon="13.5345885"><ele>1157.0</ele><time>2026-04-26T07:44:18.372Z</time></trkpt><trkpt lat="42.3747476" lon="13.5344843"><ele>1155.0</ele><time>2026-04-26T07:44:19.406Z</time></trkpt><trkpt lat="42.3746919" lon="13.5343844"><ele>1154.6666666666667</ele><time>2026-04-26T07:44:20.398Z</time></trkpt><trkpt lat="42.3746395" lon="13.5342902"><ele>1154.3333333333333</ele><time>2026-04-26T07:44:21.373Z</time></trkpt><trkpt lat="42.3745869" lon="13.5342027"><ele>1154.0</ele><time>2026-04-26T07:44:22.381Z</time></trkpt><trkpt lat="42.3745333" lon="13.5341271"><ele>1153.6666666666665</ele><time>2026-04-26T07:44:23.341Z</time></trkpt><trkpt lat="42.3744734" lon="13.5340452"><ele>1153.3333333333333</ele><time>2026-04-26T07:44:24.38Z</time></trkpt><trkpt lat="42.3744127" lon="13.5339687"><ele>1153.0</ele><time>2026-04-26T07:44:25.344Z</time></trkpt><trkpt lat="42.3743419" lon="13.5338853"><ele>1153.0</ele><time>2026-04-26T07:44:26.359Z</time></trkpt><trkpt lat="42.3742679" lon="13.5337943"><ele>1153.0</ele><time>2026-04-26T07:44:27.362Z</time></trkpt><trkpt lat="42.374191" lon="13.5336985"><ele>1153.0</ele><time>2026-04-26T07:44:28.359Z</time></trkpt><trkpt lat="42.3741116" lon="13.5336019"><ele>1153.0</ele><time>2026-04-26T07:44:29.34Z</time></trkpt><trkpt lat="42.3740359" lon="13.5334871"><ele>1153.0</ele><time>2026-04-26T07:44:30.358Z</time></trkpt><trkpt lat="42.3739734" lon="13.5333625"><ele>1152.3333333333333</ele><time>2026-04-26T07:44:31.344Z</time></trkpt><trkpt lat="42.3739196" lon="13.5332152"><ele>1151.6666666666667</ele><time>2026-04-26T07:44:32.42Z</time></trkpt><trkpt lat="42.3738857" lon="13.5330602"><ele>1151.0</ele><time>2026-04-26T07:44:33.509Z</time></trkpt><trkpt lat="42.3737864" lon="13.5328066"><ele>1151.0</ele><time>2026-04-26T07:44:35.391Z</time></trkpt><trkpt lat="42.3737129" lon="13.5326667"><ele>1151.0</ele><time>2026-04-26T07:44:36.405Z</time></trkpt><trkpt lat="42.3736439" lon="13.5325293"><ele>1151.0</ele><time>2026-04-26T07:44:37.338Z</time></trkpt><trkpt lat="42.3735661" lon="13.5323679"><ele>1151.0</ele><time>2026-04-26T07:44:38.378Z</time></trkpt><trkpt lat="42.3735031" lon="13.532216"><ele>1151.0</ele><time>2026-04-26T07:44:39.369Z</time></trkpt><trkpt lat="42.3734548" lon="13.5320744"><ele>1151.0</ele><time>2026-04-26T07:44:40.365Z</time></trkpt><trkpt lat="42.3734113" lon="13.5319562"><ele>1151.0</ele><time>2026-04-26T07:44:41.334Z</time></trkpt><trkpt lat="42.3733511" lon="13.5318472"><ele>1151.0</ele><time>2026-04-26T07:44:42.359Z</time></trkpt><trkpt lat="42.373278" lon="13.5317577"><ele>1151.0</ele><time>2026-04-26T07:44:43.386Z</time></trkpt><trkpt lat="42.3731151" lon="13.5316625"><ele>1149.0</ele><time>2026-04-26T07:44:45.505Z</time></trkpt><trkpt lat="42.3729804" lon="13.531644"><ele>1147.0</ele><time>2026-04-26T07:44:46.42Z</time></trkpt><trkpt lat="42.3728525" lon="13.5316285"><ele>1145.0</ele><time>2026-04-26T07:44:47.393Z</time></trkpt><trkpt lat="42.3727271" lon="13.5316083"><ele>1143.0</ele><time>2026-04-26T07:44:48.368Z</time></trkpt><trkpt lat="42.3726087" lon="13.5315906"><ele>1143.0</ele><time>2026-04-26T07:44:49.338Z</time></trkpt><trkpt lat="42.3724851" lon="13.5315736"><ele>1143.0</ele><time>2026-04-26T07:44:50.373Z</time></trkpt><trkpt lat="42.3723634" lon="13.531555"><ele>1143.0</ele><time>2026-04-26T07:44:51.394Z</time></trkpt><trkpt lat="42.372235" lon="13.5315312"><ele>1143.0</ele><time>2026-04-26T07:44:52.492Z</time></trkpt><trkpt lat="42.3720164" lon="13.5314611"><ele>1142.25</ele><time>2026-04-26T07:44:54.378Z</time></trkpt><trkpt lat="42.3719072" lon="13.5314101"><ele>1141.5</ele><time>2026-04-26T07:44:55.375Z</time></trkpt><trkpt lat="42.3717898" lon="13.5313471"><ele>1140.75</ele><time>2026-04-26T07:44:56.479Z</time></trkpt><trkpt lat="42.3716946" lon="13.531301"><ele>1140.0</ele><time>2026-04-26T07:44:57.358Z</time></trkpt><trkpt lat="42.3715715" lon="13.5312394"><ele>1138.75</ele><time>2026-04-26T07:44:58.504Z</time></trkpt><trkpt lat="42.371383" lon="13.5311016"><ele>1137.5</ele><time>2026-04-26T07:45:00.372Z</time></trkpt><trkpt lat="42.3713037" lon="13.5310141"><ele>1136.25</ele><time>2026-04-26T07:45:01.354Z</time></trkpt><trkpt lat="42.3712442" lon="13.5309042"><ele>1135.0</ele><time>2026-04-26T07:45:02.5Z</time></trkpt><trkpt lat="42.3712262" lon="13.5307013"><ele>1135.0</ele><time>2026-04-26T07:45:04.471Z</time></trkpt><trkpt lat="42.3712512" lon="13.5305917"><ele>1135.0</ele><time>2026-04-26T07:45:06.353Z</time></trkpt><trkpt lat="42.371319" lon="13.530488"><ele>1135.0</ele><time>2026-04-26T07:45:07.368Z</time></trkpt><trkpt lat="42.3714155" lon="13.5303881"><ele>1135.0</ele><time>2026-04-26T07:45:08.387Z</time></trkpt><trkpt lat="42.3715041" lon="13.530301"><ele>1135.0</ele><time>2026-04-26T07:45:09.376Z</time></trkpt><trkpt lat="42.3715896" lon="13.5302119"><ele>1133.0</ele><time>2026-04-26T07:45:10.358Z</time></trkpt><trkpt lat="42.3716673" lon="13.5301151"><ele>1131.0</ele><time>2026-04-26T07:45:11.38Z</time></trkpt><trkpt lat="42.3717336" lon="13.5300034"><ele>1129.0</ele><time>2026-04-26T07:45:12.359Z</time></trkpt><trkpt lat="42.3717939" lon="13.5298619"><ele>1127.0</ele><time>2026-04-26T07:45:13.379Z</time></trkpt><trkpt lat="42.3718334" lon="13.5296878"><ele>1127.6666666666667</ele><time>2026-04-26T07:45:14.495Z</time></trkpt><trkpt lat="42.3718594" lon="13.529346"><ele>1128.3333333333333</ele><time>2026-04-26T07:45:16.437Z</time></trkpt><trkpt lat="42.3718774" lon="13.5291797"><ele>1129.0</ele><time>2026-04-26T07:45:17.397Z</time></trkpt><trkpt lat="42.3719099" lon="13.5290118"><ele>1129.0</ele><time>2026-04-26T07:45:18.352Z</time></trkpt><trkpt lat="42.3719535" lon="13.5288371"><ele>1129.0</ele><time>2026-04-26T07:45:19.376Z</time></trkpt><trkpt lat="42.3719998" lon="13.5286626"><ele>1129.0</ele><time>2026-04-26T07:45:20.365Z</time></trkpt><trkpt lat="42.3720557" lon="13.5284927"><ele>1129.0</ele><time>2026-04-26T07:45:21.36Z</time></trkpt><trkpt lat="42.3721157" lon="13.5283303"><ele>1128.25</ele><time>2026-04-26T07:45:22.375Z</time></trkpt><trkpt lat="42.3721716" lon="13.5281727"><ele>1127.5</ele><time>2026-04-26T07:45:23.369Z</time></trkpt><trkpt lat="42.3722238" lon="13.5280131"><ele>1126.75</ele><time>2026-04-26T07:45:24.387Z</time></trkpt><trkpt lat="42.3722696" lon="13.5278649"><ele>1126.0</ele><time>2026-04-26T07:45:25.371Z</time></trkpt><trkpt lat="42.3722977" lon="13.5277216"><ele>1123.5</ele><time>2026-04-26T07:45:26.378Z</time></trkpt><trkpt lat="42.3723048" lon="13.5275967"><ele>1121.0</ele><time>2026-04-26T07:45:27.374Z</time></trkpt><trkpt lat="42.3722879" lon="13.5274674"><ele>1118.5</ele><time>2026-04-26T07:45:28.446Z</time></trkpt><trkpt lat="42.3722665" lon="13.527356"><ele>1116.0</ele><time>2026-04-26T07:45:29.43Z</time></trkpt><trkpt lat="42.3722381" lon="13.5272593"><ele>1113.5</ele><time>2026-04-26T07:45:30.406Z</time></trkpt><trkpt lat="42.3721722" lon="13.5271917"><ele>1111.0</ele><time>2026-04-26T07:45:31.382Z</time></trkpt><trkpt lat="42.3720849" lon="13.527108"><ele>1108.0</ele><time>2026-04-26T07:45:32.423Z</time></trkpt><trkpt lat="42.3720408" lon="13.5269859"><ele>1105.0</ele><time>2026-04-26T07:45:33.398Z</time></trkpt><trkpt lat="42.3719705" lon="13.526943"><ele>1102.0</ele><time>2026-04-26T07:45:34.374Z</time></trkpt><trkpt lat="42.3719172" lon="13.5268779"><ele>1099.0</ele><time>2026-04-26T07:45:35.491Z</time></trkpt><trkpt lat="42.3718204" lon="13.5268188"><ele>1096.0</ele><time>2026-04-26T07:45:37.412Z</time></trkpt><trkpt lat="42.3717559" lon="13.5267831"><ele>1093.0</ele><time>2026-04-26T07:45:38.329Z</time></trkpt><trkpt lat="42.3716866" lon="13.5267954"><ele>1093.0</ele><time>2026-04-26T07:45:39.445Z</time></trkpt><trkpt lat="42.3715574" lon="13.52681"><ele>1093.0</ele><time>2026-04-26T07:45:40.415Z</time></trkpt><trkpt lat="42.3714216" lon="13.5268154"><ele>1093.0</ele><time>2026-04-26T07:45:41.431Z</time></trkpt><trkpt lat="42.3713" lon="13.5268159"><ele>1093.0</ele><time>2026-04-26T07:45:42.447Z</time></trkpt><trkpt lat="42.3712024" lon="13.526814"><ele>1095.6</ele><time>2026-04-26T07:45:43.36Z</time></trkpt><trkpt lat="42.3710936" lon="13.526814"><ele>1098.1999999999998</ele><time>2026-04-26T07:45:44.495Z</time></trkpt><trkpt lat="42.3709353" lon="13.5268279"><ele>1100.8</ele><time>2026-04-26T07:45:46.354Z</time></trkpt><trkpt lat="42.3708534" lon="13.5268363"><ele>1103.3999999999999</ele><time>2026-04-26T07:45:47.354Z</time></trkpt><trkpt lat="42.3707843" lon="13.5268444"><ele>1106.0</ele><time>2026-04-26T07:45:48.365Z</time></trkpt><trkpt lat="42.3706636" lon="13.5268342"><ele>1106.0</ele><time>2026-04-26T07:45:50.368Z</time></trkpt><trkpt lat="42.3705874" lon="13.5268684"><ele>1106.0</ele><time>2026-04-26T07:45:53.467Z</time></trkpt><trkpt lat="42.3705893" lon="13.5270065"><ele>1106.0</ele><time>2026-04-26T07:45:55.344Z</time></trkpt><trkpt lat="42.370632" lon="13.5271199"><ele>1106.0</ele><time>2026-04-26T07:45:56.443Z</time></trkpt><trkpt lat="42.3707755" lon="13.527129"><ele>1106.0</ele><time>2026-04-26T07:45:58.459Z</time></trkpt><trkpt lat="42.370889" lon="13.5270785"><ele>1106.0</ele><time>2026-04-26T07:45:59.412Z</time></trkpt><trkpt lat="42.370994" lon="13.5270213"><ele>1106.0</ele><time>2026-04-26T07:46:00.394Z</time></trkpt><trkpt lat="42.3710987" lon="13.5269577"><ele>1106.0</ele><time>2026-04-26T07:46:01.378Z</time></trkpt><trkpt lat="42.3711993" lon="13.5268913"><ele>1106.0</ele><time>2026-04-26T07:46:02.352Z</time></trkpt><trkpt lat="42.3713023" lon="13.5268231"><ele>1103.3999999999999</ele><time>2026-04-26T07:46:03.379Z</time></trkpt><trkpt lat="42.3714006" lon="13.5267613"><ele>1100.8</ele><time>2026-04-26T07:46:04.354Z</time></trkpt><trkpt lat="42.3715041" lon="13.5266972"><ele>1098.1999999999998</ele><time>2026-04-26T07:46:05.374Z</time></trkpt><trkpt lat="42.3716108" lon="13.5266381"><ele>1095.6</ele><time>2026-04-26T07:46:06.423Z</time></trkpt><trkpt lat="42.3717124" lon="13.5265893"><ele>1093.0</ele><time>2026-04-26T07:46:07.404Z</time></trkpt><trkpt lat="42.3718299" lon="13.5265396"><ele>1093.0</ele><time>2026-04-26T07:46:08.513Z</time></trkpt><trkpt lat="42.3720195" lon="13.5264546"><ele>1093.0</ele><time>2026-04-26T07:46:10.363Z</time></trkpt><trkpt lat="42.3721207" lon="13.5263901"><ele>1093.0</ele><time>2026-04-26T07:46:11.35Z</time></trkpt><trkpt lat="42.3722138" lon="13.5263087"><ele>1093.0</ele><time>2026-04-26T07:46:12.354Z</time></trkpt><trkpt lat="42.3723106" lon="13.526213"><ele>1092.2</ele><time>2026-04-26T07:46:13.441Z</time></trkpt><trkpt lat="42.3724029" lon="13.5261436"><ele>1091.4</ele><time>2026-04-26T07:46:14.408Z</time></trkpt><trkpt lat="42.3724898" lon="13.5261061"><ele>1090.6000000000001</ele><time>2026-04-26T07:46:15.442Z</time></trkpt><trkpt lat="42.3725741" lon="13.5260647"><ele>1089.8</ele><time>2026-04-26T07:46:16.392Z</time></trkpt><trkpt lat="42.3726661" lon="13.5260187"><ele>1089.0</ele><time>2026-04-26T07:46:17.36Z</time></trkpt><trkpt lat="42.3727616" lon="13.5259801"><ele>1089.0</ele><time>2026-04-26T07:46:18.344Z</time></trkpt><trkpt lat="42.3728672" lon="13.5259604"><ele>1089.0</ele><time>2026-04-26T07:46:19.343Z</time></trkpt><trkpt lat="42.3729976" lon="13.5259815"><ele>1089.0</ele><time>2026-04-26T07:46:20.362Z</time></trkpt><trkpt lat="42.3731143" lon="13.526008"><ele>1089.0</ele><time>2026-04-26T07:46:21.367Z</time></trkpt><trkpt lat="42.3732307" lon="13.5260103"><ele>1087.25</ele><time>2026-04-26T07:46:22.36Z</time></trkpt><trkpt lat="42.3733569" lon="13.5260045"><ele>1085.5</ele><time>2026-04-26T07:46:23.375Z</time></trkpt><trkpt lat="42.3734787" lon="13.5260164"><ele>1083.75</ele><time>2026-04-26T07:46:24.346Z</time></trkpt><trkpt lat="42.373596" lon="13.5260366"><ele>1082.0</ele><time>2026-04-26T07:46:25.335Z</time></trkpt><trkpt lat="42.3737134" lon="13.526056"><ele>1082.0</ele><time>2026-04-26T07:46:26.362Z</time></trkpt><trkpt lat="42.3738313" lon="13.5260687"><ele>1082.0</ele><time>2026-04-26T07:46:27.433Z</time></trkpt><trkpt lat="42.3739349" lon="13.5260705"><ele>1082.0</ele><time>2026-04-26T07:46:28.432Z</time></trkpt><trkpt lat="42.3740303" lon="13.5260514"><ele>1082.0</ele><time>2026-04-26T07:46:29.41Z</time></trkpt><trkpt lat="42.3741183" lon="13.5260167"><ele>1082.0</ele><time>2026-04-26T07:46:30.409Z</time></trkpt><trkpt lat="42.3741958" lon="13.5259632"><ele>1079.8</ele><time>2026-04-26T07:46:31.392Z</time></trkpt><trkpt lat="42.374271" lon="13.5258858"><ele>1077.6</ele><time>2026-04-26T07:46:32.405Z</time></trkpt><trkpt lat="42.3743383" lon="13.5257917"><ele>1075.3999999999999</ele><time>2026-04-26T07:46:33.396Z</time></trkpt><trkpt lat="42.3744051" lon="13.525689"><ele>1073.2</ele><time>2026-04-26T07:46:34.354Z</time></trkpt><trkpt lat="42.3744792" lon="13.5255713"><ele>1071.0</ele><time>2026-04-26T07:46:35.352Z</time></trkpt><trkpt lat="42.3745555" lon="13.5254469"><ele>1069.75</ele><time>2026-04-26T07:46:36.359Z</time></trkpt><trkpt lat="42.3746369" lon="13.5253204"><ele>1068.5</ele><time>2026-04-26T07:46:37.347Z</time></trkpt><trkpt lat="42.3747361" lon="13.5251765"><ele>1067.25</ele><time>2026-04-26T07:46:38.43Z</time></trkpt><trkpt lat="42.3748294" lon="13.5250479"><ele>1066.0</ele><time>2026-04-26T07:46:39.419Z</time></trkpt><trkpt lat="42.3749254" lon="13.5249134"><ele>1066.0</ele><time>2026-04-26T07:46:40.446Z</time></trkpt><trkpt lat="42.3750168" lon="13.5247914"><ele>1066.0</ele><time>2026-04-26T07:46:41.42Z</time></trkpt><trkpt lat="42.3751112" lon="13.5246726"><ele>1066.0</ele><time>2026-04-26T07:46:42.413Z</time></trkpt><trkpt lat="42.3752066" lon="13.5245556"><ele>1066.0</ele><time>2026-04-26T07:46:43.441Z</time></trkpt><trkpt lat="42.3752912" lon="13.5244487"><ele>1068.0</ele><time>2026-04-26T07:46:44.432Z</time></trkpt><trkpt lat="42.3753662" lon="13.5243416"><ele>1070.0</ele><time>2026-04-26T07:46:45.404Z</time></trkpt><trkpt lat="42.3754371" lon="13.5242219"><ele>1072.0</ele><time>2026-04-26T07:46:46.464Z</time></trkpt><trkpt lat="42.3754871" lon="13.5241092"><ele>1074.0</ele><time>2026-04-26T07:46:47.419Z</time></trkpt><trkpt lat="42.3755271" lon="13.5239875"><ele>1076.0</ele><time>2026-04-26T07:46:48.421Z</time></trkpt><trkpt lat="42.3755532" lon="13.523862"><ele>1073.8</ele><time>2026-04-26T07:46:49.443Z</time></trkpt><trkpt lat="42.3755691" lon="13.5237403"><ele>1071.6</ele><time>2026-04-26T07:46:50.42Z</time></trkpt><trkpt lat="42.3755787" lon="13.5236116"><ele>1069.4</ele><time>2026-04-26T07:46:51.438Z</time></trkpt><trkpt lat="42.3755882" lon="13.5234808"><ele>1067.2</ele><time>2026-04-26T07:46:52.465Z</time></trkpt><trkpt lat="42.3756082" lon="13.5233586"><ele>1065.0</ele><time>2026-04-26T07:46:53.419Z</time></trkpt><trkpt lat="42.3756443" lon="13.5232233"><ele>1065.0</ele><time>2026-04-26T07:46:54.474Z</time></trkpt><trkpt lat="42.3756905" lon="13.5231097"><ele>1065.0</ele><time>2026-04-26T07:46:55.428Z</time></trkpt><trkpt lat="42.3757499" lon="13.5230098"><ele>1065.0</ele><time>2026-04-26T07:46:56.434Z</time></trkpt><trkpt lat="42.3758216" lon="13.5229231"><ele>1065.0</ele><time>2026-04-26T07:46:57.43Z</time></trkpt><trkpt lat="42.3759001" lon="13.5228492"><ele>1065.0</ele><time>2026-04-26T07:46:58.414Z</time></trkpt><trkpt lat="42.375992" lon="13.5227783"><ele>1064.6</ele><time>2026-04-26T07:46:59.48Z</time></trkpt><trkpt lat="42.3760783" lon="13.5227236"><ele>1064.2</ele><time>2026-04-26T07:47:00.427Z</time></trkpt><trkpt lat="42.3761595" lon="13.522675"><ele>1063.8</ele><time>2026-04-26T07:47:01.349Z</time></trkpt><trkpt lat="42.3762473" lon="13.5226156"><ele>1063.4</ele><time>2026-04-26T07:47:02.336Z</time></trkpt><trkpt lat="42.3763376" lon="13.522549"><ele>1063.0</ele><time>2026-04-26T07:47:03.349Z</time></trkpt><trkpt lat="42.376428" lon="13.5224739"><ele>1063.0</ele><time>2026-04-26T07:47:04.359Z</time></trkpt><trkpt lat="42.3765144" lon="13.5223957"><ele>1063.0</ele><time>2026-04-26T07:47:05.343Z</time></trkpt><trkpt lat="42.376599" lon="13.5223206"><ele>1063.0</ele><time>2026-04-26T07:47:06.326Z</time></trkpt><trkpt lat="42.376686" lon="13.5222531"><ele>1063.0</ele><time>2026-04-26T07:47:07.329Z</time></trkpt><trkpt lat="42.3767709" lon="13.5221901"><ele>1063.0</ele><time>2026-04-26T07:47:08.353Z</time></trkpt><trkpt lat="42.3768487" lon="13.5221315"><ele>1063.0</ele><time>2026-04-26T07:47:09.368Z</time></trkpt><trkpt lat="42.3769235" lon="13.5220691"><ele>1063.0</ele><time>2026-04-26T07:47:10.365Z</time></trkpt><trkpt lat="42.3769889" lon="13.5219953"><ele>1063.0</ele><time>2026-04-26T07:47:11.378Z</time></trkpt><trkpt lat="42.3770409" lon="13.5219048"><ele>1063.0</ele><time>2026-04-26T07:47:12.383Z</time></trkpt><trkpt lat="42.3770786" lon="13.5218094"><ele>1063.0</ele><time>2026-04-26T07:47:13.376Z</time></trkpt><trkpt lat="42.3771067" lon="13.5217061"><ele>1063.0</ele><time>2026-04-26T07:47:14.398Z</time></trkpt><trkpt lat="42.3771317" lon="13.5216072"><ele>1062.8333333333333</ele><time>2026-04-26T07:47:15.388Z</time></trkpt><trkpt lat="42.3771601" lon="13.5215148"><ele>1062.6666666666665</ele><time>2026-04-26T07:47:16.345Z</time></trkpt><trkpt lat="42.3771942" lon="13.5214261"><ele>1062.5</ele><time>2026-04-26T07:47:17.4Z</time></trkpt><trkpt lat="42.3772582" lon="13.5212894"><ele>1062.3333333333333</ele><time>2026-04-26T07:47:19.363Z</time></trkpt><trkpt lat="42.3772991" lon="13.5212183"><ele>1062.1666666666667</ele><time>2026-04-26T07:47:20.4Z</time></trkpt><trkpt lat="42.3773449" lon="13.5211511"><ele>1062.0</ele><time>2026-04-26T07:47:21.375Z</time></trkpt><trkpt lat="42.3773993" lon="13.5210896"><ele>1063.0</ele><time>2026-04-26T07:47:22.361Z</time></trkpt><trkpt lat="42.3774581" lon="13.5210267"><ele>1064.0</ele><time>2026-04-26T07:47:23.386Z</time></trkpt><trkpt lat="42.3775138" lon="13.5209598"><ele>1065.0</ele><time>2026-04-26T07:47:24.432Z</time></trkpt><trkpt lat="42.3775644" lon="13.5208961"><ele>1066.0</ele><time>2026-04-26T07:47:25.393Z</time></trkpt><trkpt lat="42.3776147" lon="13.5208268"><ele>1067.0</ele><time>2026-04-26T07:47:26.423Z</time></trkpt><trkpt lat="42.3776948" lon="13.5206956"><ele>1068.0</ele><time>2026-04-26T07:47:28.373Z</time></trkpt><trkpt lat="42.3777606" lon="13.5205873"><ele>1068.0</ele><time>2026-04-26T07:47:30.385Z</time></trkpt><trkpt lat="42.3777554" lon="13.5204897"><ele>1068.0</ele><time>2026-04-26T07:47:33.378Z</time></trkpt><trkpt lat="42.3776444" lon="13.520465"><ele>1068.0</ele><time>2026-04-26T07:47:48.399Z</time></trkpt><trkpt lat="42.3775785" lon="13.5204575"><ele>1068.0</ele><time>2026-04-26T07:47:49.38Z</time></trkpt><trkpt lat="42.3774985" lon="13.5204345"><ele>1068.0</ele><time>2026-04-26T07:47:50.398Z</time></trkpt><trkpt lat="42.3773748" lon="13.5203929"><ele>1067.5</ele><time>2026-04-26T07:47:51.36Z</time></trkpt><trkpt lat="42.3772111" lon="13.5203532"><ele>1067.0</ele><time>2026-04-26T07:47:52.367Z</time></trkpt><trkpt lat="42.3770632" lon="13.5203068"><ele>1066.5</ele><time>2026-04-26T07:47:53.438Z</time></trkpt><trkpt lat="42.3769395" lon="13.5202594"><ele>1066.0</ele><time>2026-04-26T07:47:54.472Z</time></trkpt><trkpt lat="42.376853" lon="13.5202211"><ele>1066.0</ele><time>2026-04-26T07:47:55.422Z</time></trkpt><trkpt lat="42.3767762" lon="13.5201895"><ele>1066.0</ele><time>2026-04-26T07:47:56.451Z</time></trkpt><trkpt lat="42.3767117" lon="13.5201632"><ele>1066.0</ele><time>2026-04-26T07:47:57.423Z</time></trkpt><trkpt lat="42.3766128" lon="13.5201371"><ele>1066.0</ele><time>2026-04-26T07:47:59.409Z</time></trkpt><trkpt lat="42.3765267" lon="13.5201239"><ele>1066.0</ele><time>2026-04-26T07:48:01.363Z</time></trkpt><trkpt lat="42.3764066" lon="13.5200782"><ele>1066.6</ele><time>2026-04-26T07:48:03.366Z</time></trkpt><trkpt lat="42.376338" lon="13.5200384"><ele>1067.1999999999998</ele><time>2026-04-26T07:48:04.386Z</time></trkpt><trkpt lat="42.3762572" lon="13.5199861"><ele>1067.8000000000002</ele><time>2026-04-26T07:48:05.496Z</time></trkpt><trkpt lat="42.3761716" lon="13.519934"><ele>1068.4</ele><time>2026-04-26T07:48:06.498Z</time></trkpt><trkpt lat="42.3760736" lon="13.5198925"><ele>1069.0</ele><time>2026-04-26T07:48:07.398Z</time></trkpt><trkpt lat="42.3759522" lon="13.5198689"><ele>1069.0</ele><time>2026-04-26T07:48:08.45Z</time></trkpt><trkpt lat="42.375859" lon="13.5198645"><ele>1069.0</ele><time>2026-04-26T07:48:09.407Z</time></trkpt><trkpt lat="42.3757752" lon="13.5198851"><ele>1069.0</ele><time>2026-04-26T07:48:10.408Z</time></trkpt><trkpt lat="42.3756793" lon="13.5199404"><ele>1069.0</ele><time>2026-04-26T07:48:11.428Z</time></trkpt><trkpt lat="42.3755263" lon="13.5200864"><ele>1069.0</ele><time>2026-04-26T07:48:12.4Z</time></trkpt><trkpt lat="42.3754099" lon="13.5201954"><ele>1069.0</ele><time>2026-04-26T07:48:13.408Z</time></trkpt><trkpt lat="42.3752751" lon="13.5203125"><ele>1069.0</ele><time>2026-04-26T07:48:14.439Z</time></trkpt><trkpt lat="42.3751417" lon="13.5203886"><ele>1069.0</ele><time>2026-04-26T07:48:15.509Z</time></trkpt><trkpt lat="42.3748957" lon="13.5204385"><ele>1072.0</ele><time>2026-04-26T07:48:17.469Z</time></trkpt><trkpt lat="42.3747813" lon="13.520457"><ele>1075.0</ele><time>2026-04-26T07:48:18.371Z</time></trkpt><trkpt lat="42.3746515" lon="13.5204761"><ele>1078.0</ele><time>2026-04-26T07:48:19.39Z</time></trkpt><trkpt lat="42.3745333" lon="13.5204943"><ele>1081.0</ele><time>2026-04-26T07:48:20.388Z</time></trkpt><trkpt lat="42.374411" lon="13.5205058"><ele>1081.5</ele><time>2026-04-26T07:48:21.394Z</time></trkpt><trkpt lat="42.3742834" lon="13.5204907"><ele>1082.0</ele><time>2026-04-26T07:48:22.38Z</time></trkpt><trkpt lat="42.3741576" lon="13.5204411"><ele>1082.5</ele><time>2026-04-26T07:48:23.372Z</time></trkpt><trkpt lat="42.3740419" lon="13.5203181"><ele>1083.0</ele><time>2026-04-26T07:48:24.451Z</time></trkpt><trkpt lat="42.3739455" lon="13.52021"><ele>1081.6666666666667</ele><time>2026-04-26T07:48:25.371Z</time></trkpt><trkpt lat="42.3738352" lon="13.5200855"><ele>1080.3333333333335</ele><time>2026-04-26T07:48:26.4Z</time></trkpt><trkpt lat="42.3737162" lon="13.5199543"><ele>1079.0</ele><time>2026-04-26T07:48:27.401Z</time></trkpt><trkpt lat="42.3735886" lon="13.5198194"><ele>1079.0</ele><time>2026-04-26T07:48:28.406Z</time></trkpt><trkpt lat="42.3734646" lon="13.5196923"><ele>1079.0</ele><time>2026-04-26T07:48:29.395Z</time></trkpt><trkpt lat="42.3733314" lon="13.5195555"><ele>1079.0</ele><time>2026-04-26T07:48:30.415Z</time></trkpt><trkpt lat="42.3732002" lon="13.5194168"><ele>1076.0</ele><time>2026-04-26T07:48:31.408Z</time></trkpt><trkpt lat="42.3730688" lon="13.5192769"><ele>1073.0</ele><time>2026-04-26T07:48:32.384Z</time></trkpt><trkpt lat="42.372935" lon="13.5191296"><ele>1070.0</ele><time>2026-04-26T07:48:33.38Z</time></trkpt><trkpt lat="42.3727979" lon="13.5189689"><ele>1070.0</ele><time>2026-04-26T07:48:34.419Z</time></trkpt><trkpt lat="42.3726863" lon="13.5188158"><ele>1070.0</ele><time>2026-04-26T07:48:35.38Z</time></trkpt><trkpt lat="42.3725817" lon="13.5186394"><ele>1070.0</ele><time>2026-04-26T07:48:36.443Z</time></trkpt><trkpt lat="42.3725005" lon="13.5184823"><ele>1068.6666666666667</ele><time>2026-04-26T07:48:37.401Z</time></trkpt><trkpt lat="42.3724031" lon="13.5183304"><ele>1067.3333333333333</ele><time>2026-04-26T07:48:38.406Z</time></trkpt><trkpt lat="42.3722962" lon="13.5181836"><ele>1066.0</ele><time>2026-04-26T07:48:39.403Z</time></trkpt><trkpt lat="42.3721767" lon="13.5180509"><ele>1065.5</ele><time>2026-04-26T07:48:40.414Z</time></trkpt><trkpt lat="42.3720559" lon="13.5179336"><ele>1065.0</ele><time>2026-04-26T07:48:41.445Z</time></trkpt><trkpt lat="42.37194" lon="13.5178514"><ele>1064.5</ele><time>2026-04-26T07:48:42.402Z</time></trkpt><trkpt lat="42.3718105" lon="13.5177926"><ele>1064.0</ele><time>2026-04-26T07:48:43.442Z</time></trkpt><trkpt lat="42.3716846" lon="13.5177675"><ele>1064.0</ele><time>2026-04-26T07:48:44.404Z</time></trkpt><trkpt lat="42.3715302" lon="13.5177729"><ele>1064.0</ele><time>2026-04-26T07:48:45.546Z</time></trkpt><trkpt lat="42.3712668" lon="13.5178353"><ele>1064.0</ele><time>2026-04-26T07:48:47.41Z</time></trkpt><trkpt lat="42.3711308" lon="13.5178713"><ele>1063.5</ele><time>2026-04-26T07:48:48.404Z</time></trkpt><trkpt lat="42.3709902" lon="13.5179022"><ele>1063.0</ele><time>2026-04-26T07:48:49.378Z</time></trkpt><trkpt lat="42.3708433" lon="13.5179211"><ele>1062.5</ele><time>2026-04-26T07:48:50.408Z</time></trkpt><trkpt lat="42.3706993" lon="13.5179245"><ele>1062.0</ele><time>2026-04-26T07:48:51.383Z</time></trkpt><trkpt lat="42.3705462" lon="13.5179035"><ele>1058.6666666666667</ele><time>2026-04-26T07:48:52.401Z</time></trkpt><trkpt lat="42.3703924" lon="13.5178631"><ele>1055.3333333333335</ele><time>2026-04-26T07:48:53.375Z</time></trkpt><trkpt lat="42.3702288" lon="13.5178048"><ele>1052.0</ele><time>2026-04-26T07:48:54.37Z</time></trkpt><trkpt lat="42.3700583" lon="13.5177496"><ele>1052.0</ele><time>2026-04-26T07:48:55.37Z</time></trkpt><trkpt lat="42.3698962" lon="13.5177044"><ele>1052.0</ele><time>2026-04-26T07:48:56.328Z</time></trkpt><trkpt lat="42.3697202" lon="13.5176573"><ele>1052.0</ele><time>2026-04-26T07:48:57.343Z</time></trkpt><trkpt lat="42.3695482" lon="13.5175948"><ele>1048.3333333333335</ele><time>2026-04-26T07:48:58.39Z</time></trkpt><trkpt lat="42.3693976" lon="13.5175237"><ele>1044.6666666666667</ele><time>2026-04-26T07:48:59.371Z</time></trkpt><trkpt lat="42.36926" lon="13.5174563"><ele>1041.0</ele><time>2026-04-26T07:49:00.355Z</time></trkpt><trkpt lat="42.3691148" lon="13.5173926"><ele>1041.0</ele><time>2026-04-26T07:49:01.449Z</time></trkpt><trkpt lat="42.3689997" lon="13.5173574"><ele>1041.0</ele><time>2026-04-26T07:49:02.423Z</time></trkpt><trkpt lat="42.3689026" lon="13.5173501"><ele>1041.0</ele><time>2026-04-26T07:49:03.38Z</time></trkpt><trkpt lat="42.3687968" lon="13.5173909"><ele>1041.0</ele><time>2026-04-26T07:49:04.471Z</time></trkpt><trkpt lat="42.368696" lon="13.5176015"><ele>1039.75</ele><time>2026-04-26T07:49:06.481Z</time></trkpt><trkpt lat="42.3686933" lon="13.5177414"><ele>1038.5</ele><time>2026-04-26T07:49:07.399Z</time></trkpt><trkpt lat="42.3686745" lon="13.5179032"><ele>1037.25</ele><time>2026-04-26T07:49:08.357Z</time></trkpt><trkpt lat="42.3686524" lon="13.5180725"><ele>1036.0</ele><time>2026-04-26T07:49:09.354Z</time></trkpt><trkpt lat="42.3686261" lon="13.5182338"><ele>1036.0</ele><time>2026-04-26T07:49:10.357Z</time></trkpt><trkpt lat="42.3685836" lon="13.5183818"><ele>1036.0</ele><time>2026-04-26T07:49:11.34Z</time></trkpt><trkpt lat="42.3685132" lon="13.5185173"><ele>1036.0</ele><time>2026-04-26T07:49:12.444Z</time></trkpt><trkpt lat="42.3684328" lon="13.5186212"><ele>1036.0</ele><time>2026-04-26T07:49:13.406Z</time></trkpt><trkpt lat="42.3683503" lon="13.5187041"><ele>1040.0</ele><time>2026-04-26T07:49:14.348Z</time></trkpt><trkpt lat="42.3682548" lon="13.5187753"><ele>1044.0</ele><time>2026-04-26T07:49:15.371Z</time></trkpt><trkpt lat="42.36816" lon="13.5188273"><ele>1048.0</ele><time>2026-04-26T07:49:16.341Z</time></trkpt><trkpt lat="42.368056" lon="13.5188538"><ele>1052.0</ele><time>2026-04-26T07:49:17.347Z</time></trkpt><trkpt lat="42.3679521" lon="13.5188527"><ele>1056.0</ele><time>2026-04-26T07:49:18.325Z</time></trkpt><trkpt lat="42.3678612" lon="13.5187862"><ele>1052.5</ele><time>2026-04-26T07:49:19.372Z</time></trkpt><trkpt lat="42.3677788" lon="13.5187145"><ele>1049.0</ele><time>2026-04-26T07:49:20.337Z</time></trkpt><trkpt lat="42.3677063" lon="13.5186053"><ele>1045.5</ele><time>2026-04-26T07:49:21.365Z</time></trkpt><trkpt lat="42.3676585" lon="13.5184741"><ele>1042.0</ele><time>2026-04-26T07:49:22.336Z</time></trkpt><trkpt lat="42.3676254" lon="13.5182751"><ele>1042.0</ele><time>2026-04-26T07:49:23.459Z</time></trkpt><trkpt lat="42.3675532" lon="13.5179519"><ele>1042.0</ele><time>2026-04-26T07:49:25.395Z</time></trkpt><trkpt lat="42.3675027" lon="13.5178136"><ele>1042.0</ele><time>2026-04-26T07:49:26.359Z</time></trkpt><trkpt lat="42.3674332" lon="13.5176788"><ele>1039.75</ele><time>2026-04-26T07:49:27.364Z</time></trkpt><trkpt lat="42.367351" lon="13.5175418"><ele>1037.5</ele><time>2026-04-26T07:49:28.407Z</time></trkpt><trkpt lat="42.367237" lon="13.5174514"><ele>1035.25</ele><time>2026-04-26T07:49:29.365Z</time></trkpt><trkpt lat="42.3670903" lon="13.5173914"><ele>1033.0</ele><time>2026-04-26T07:49:30.415Z</time></trkpt><trkpt lat="42.3669516" lon="13.5173564"><ele>1033.0</ele><time>2026-04-26T07:49:31.363Z</time></trkpt><trkpt lat="42.3668196" lon="13.5173019"><ele>1033.0</ele><time>2026-04-26T07:49:32.364Z</time></trkpt><trkpt lat="42.3667008" lon="13.5172258"><ele>1033.0</ele><time>2026-04-26T07:49:33.334Z</time></trkpt><trkpt lat="42.3665845" lon="13.517098"><ele>1033.0</ele><time>2026-04-26T07:49:34.341Z</time></trkpt><trkpt lat="42.36647" lon="13.5169603"><ele>1031.6666666666665</ele><time>2026-04-26T07:49:35.337Z</time></trkpt><trkpt lat="42.3663362" lon="13.5168111"><ele>1030.3333333333333</ele><time>2026-04-26T07:49:36.389Z</time></trkpt><trkpt lat="42.3662035" lon="13.5166792"><ele>1029.0</ele><time>2026-04-26T07:49:37.351Z</time></trkpt><trkpt lat="42.366066" lon="13.5165527"><ele>1029.0</ele><time>2026-04-26T07:49:38.354Z</time></trkpt><trkpt lat="42.365923" lon="13.5164223"><ele>1029.0</ele><time>2026-04-26T07:49:39.391Z</time></trkpt><trkpt lat="42.3657991" lon="13.5163106"><ele>1029.0</ele><time>2026-04-26T07:49:40.345Z</time></trkpt><trkpt lat="42.365674" lon="13.5162003"><ele>1027.25</ele><time>2026-04-26T07:49:41.36Z</time></trkpt><trkpt lat="42.3655593" lon="13.5160909"><ele>1025.5</ele><time>2026-04-26T07:49:42.362Z</time></trkpt><trkpt lat="42.3654561" lon="13.5159723"><ele>1023.75</ele><time>2026-04-26T07:49:43.358Z</time></trkpt><trkpt lat="42.3653632" lon="13.5158301"><ele>1022.0</ele><time>2026-04-26T07:49:44.354Z</time></trkpt><trkpt lat="42.365279" lon="13.5156572"><ele>1022.0</ele><time>2026-04-26T07:49:45.437Z</time></trkpt><trkpt lat="42.3651992" lon="13.5155063"><ele>1022.0</ele><time>2026-04-26T07:49:46.361Z</time></trkpt><trkpt lat="42.3651024" lon="13.5153467"><ele>1022.0</ele><time>2026-04-26T07:49:47.369Z</time></trkpt><trkpt lat="42.364963" lon="13.5151959"><ele>1020.0</ele><time>2026-04-26T07:49:48.458Z</time></trkpt><trkpt lat="42.3648209" lon="13.5150723"><ele>1018.0</ele><time>2026-04-26T07:49:49.379Z</time></trkpt><trkpt lat="42.3646657" lon="13.5149286"><ele>1016.0</ele><time>2026-04-26T07:49:50.497Z</time></trkpt><trkpt lat="42.3645368" lon="13.5148139"><ele>1016.0</ele><time>2026-04-26T07:49:51.423Z</time></trkpt><trkpt lat="42.3644054" lon="13.5146981"><ele>1016.0</ele><time>2026-04-26T07:49:52.372Z</time></trkpt><trkpt lat="42.3642509" lon="13.5145636"><ele>1016.0</ele><time>2026-04-26T07:49:53.508Z</time></trkpt><trkpt lat="42.3639967" lon="13.5143359"><ele>1015.6666666666667</ele><time>2026-04-26T07:49:55.466Z</time></trkpt><trkpt lat="42.3638711" lon="13.5142209"><ele>1015.3333333333333</ele><time>2026-04-26T07:49:56.401Z</time></trkpt><trkpt lat="42.3637381" lon="13.5140947"><ele>1015.0</ele><time>2026-04-26T07:49:57.372Z</time></trkpt><trkpt lat="42.3635947" lon="13.5139576"><ele>1015.0</ele><time>2026-04-26T07:49:58.407Z</time></trkpt><trkpt lat="42.3634548" lon="13.5138272"><ele>1015.0</ele><time>2026-04-26T07:49:59.397Z</time></trkpt><trkpt lat="42.3633155" lon="13.5137001"><ele>1015.0</ele><time>2026-04-26T07:50:00.379Z</time></trkpt><trkpt lat="42.3631644" lon="13.5135637"><ele>1012.3333333333333</ele><time>2026-04-26T07:50:01.438Z</time></trkpt><trkpt lat="42.3630353" lon="13.5134447"><ele>1009.6666666666667</ele><time>2026-04-26T07:50:02.403Z</time></trkpt><trkpt lat="42.3629082" lon="13.5133273"><ele>1007.0</ele><time>2026-04-26T07:50:03.41Z</time></trkpt><trkpt lat="42.3627817" lon="13.5132078"><ele>1007.0</ele><time>2026-04-26T07:50:04.466Z</time></trkpt><trkpt lat="42.3626729" lon="13.5131148"><ele>1007.0</ele><time>2026-04-26T07:50:05.38Z</time></trkpt><trkpt lat="42.3625472" lon="13.5130202"><ele>1007.0</ele><time>2026-04-26T07:50:06.385Z</time></trkpt><trkpt lat="42.3624138" lon="13.5129416"><ele>1007.0</ele><time>2026-04-26T07:50:07.395Z</time></trkpt><trkpt lat="42.3622729" lon="13.5128909"><ele>999.0</ele><time>2026-04-26T07:50:08.39Z</time></trkpt><trkpt lat="42.3621228" lon="13.5128631"><ele>991.0</ele><time>2026-04-26T07:50:09.379Z</time></trkpt><trkpt lat="42.3619625" lon="13.5128586"><ele>983.0</ele><time>2026-04-26T07:50:10.416Z</time></trkpt><trkpt lat="42.3618093" lon="13.5128757"><ele>987.0</ele><time>2026-04-26T07:50:11.38Z</time></trkpt><trkpt lat="42.3616407" lon="13.5129063"><ele>991.0</ele><time>2026-04-26T07:50:12.411Z</time></trkpt><trkpt lat="42.3614912" lon="13.5129529"><ele>995.0</ele><time>2026-04-26T07:50:13.373Z</time></trkpt><trkpt lat="42.3613442" lon="13.5130125"><ele>995.0</ele><time>2026-04-26T07:50:14.356Z</time></trkpt><trkpt lat="42.3611787" lon="13.5131014"><ele>995.0</ele><time>2026-04-26T07:50:15.439Z</time></trkpt><trkpt lat="42.3610348" lon="13.5132047"><ele>995.0</ele><time>2026-04-26T07:50:16.412Z</time></trkpt><trkpt lat="42.3608909" lon="13.5133208"><ele>995.0</ele><time>2026-04-26T07:50:17.401Z</time></trkpt><trkpt lat="42.3607356" lon="13.5134514"><ele>995.0</ele><time>2026-04-26T07:50:18.477Z</time></trkpt><trkpt lat="42.3606059" lon="13.5135659"><ele>995.0</ele><time>2026-04-26T07:50:19.378Z</time></trkpt><trkpt lat="42.3604601" lon="13.5137081"><ele>993.0</ele><time>2026-04-26T07:50:20.411Z</time></trkpt><trkpt lat="42.3603037" lon="13.5138922"><ele>991.0</ele><time>2026-04-26T07:50:21.621Z</time></trkpt><trkpt lat="42.3601123" lon="13.514172"><ele>991.0</ele><time>2026-04-26T07:50:23.44Z</time></trkpt><trkpt lat="42.3600191" lon="13.5143199"><ele>991.0</ele><time>2026-04-26T07:50:24.421Z</time></trkpt><trkpt lat="42.3599352" lon="13.5144581"><ele>991.0</ele><time>2026-04-26T07:50:25.375Z</time></trkpt><trkpt lat="42.359843" lon="13.5146092"><ele>991.0</ele><time>2026-04-26T07:50:26.438Z</time></trkpt><trkpt lat="42.3597619" lon="13.5147519"><ele>989.8</ele><time>2026-04-26T07:50:27.49Z</time></trkpt><trkpt lat="42.3596926" lon="13.5148609"><ele>988.5999999999999</ele><time>2026-04-26T07:50:28.443Z</time></trkpt><trkpt lat="42.3596128" lon="13.5149601"><ele>987.4</ele><time>2026-04-26T07:50:29.427Z</time></trkpt><trkpt lat="42.3595267" lon="13.515031"><ele>986.2</ele><time>2026-04-26T07:50:30.381Z</time></trkpt><trkpt lat="42.3594245" lon="13.5150699"><ele>985.0</ele><time>2026-04-26T07:50:31.412Z</time></trkpt><trkpt lat="42.3593238" lon="13.5150777"><ele>985.0</ele><time>2026-04-26T07:50:32.438Z</time></trkpt><trkpt lat="42.3592326" lon="13.5150181"><ele>985.0</ele><time>2026-04-26T07:50:33.377Z</time></trkpt><trkpt lat="42.3591482" lon="13.514885"><ele>985.0</ele><time>2026-04-26T07:50:34.395Z</time></trkpt><trkpt lat="42.3590737" lon="13.514639"><ele>985.0</ele><time>2026-04-26T07:50:35.407Z</time></trkpt><trkpt lat="42.3589893" lon="13.5143949"><ele>984.0</ele><time>2026-04-26T07:50:36.413Z</time></trkpt><trkpt lat="42.358913" lon="13.5141937"><ele>983.0</ele><time>2026-04-26T07:50:37.41Z</time></trkpt><trkpt lat="42.3588325" lon="13.5139826"><ele>982.0</ele><time>2026-04-26T07:50:38.446Z</time></trkpt><trkpt lat="42.3587596" lon="13.513786"><ele>978.3333333333333</ele><time>2026-04-26T07:50:39.364Z</time></trkpt><trkpt lat="42.3586757" lon="13.5135482"><ele>974.6666666666667</ele><time>2026-04-26T07:50:40.488Z</time></trkpt><trkpt lat="42.3586103" lon="13.5133639"><ele>971.0</ele><time>2026-04-26T07:50:41.403Z</time></trkpt><trkpt lat="42.3585426" lon="13.513179"><ele>971.0</ele><time>2026-04-26T07:50:42.387Z</time></trkpt><trkpt lat="42.3584738" lon="13.5129992"><ele>971.0</ele><time>2026-04-26T07:50:43.387Z</time></trkpt><trkpt lat="42.3583958" lon="13.5127806"><ele>971.0</ele><time>2026-04-26T07:50:44.511Z</time></trkpt><trkpt lat="42.3583293" lon="13.5125988"><ele>970.5</ele><time>2026-04-26T07:50:45.484Z</time></trkpt><trkpt lat="42.3582605" lon="13.5124117"><ele>970.0</ele><time>2026-04-26T07:50:46.49Z</time></trkpt><trkpt lat="42.3581957" lon="13.512244"><ele>969.5</ele><time>2026-04-26T07:50:47.404Z</time></trkpt><trkpt lat="42.3581287" lon="13.5120609"><ele>969.0</ele><time>2026-04-26T07:50:48.444Z</time></trkpt><trkpt lat="42.3580663" lon="13.511881"><ele>968.25</ele><time>2026-04-26T07:50:49.503Z</time></trkpt><trkpt lat="42.3580105" lon="13.5117251"><ele>967.5</ele><time>2026-04-26T07:50:50.412Z</time></trkpt><trkpt lat="42.3579494" lon="13.5115512"><ele>966.75</ele><time>2026-04-26T07:50:51.423Z</time></trkpt><trkpt lat="42.3578925" lon="13.5113906"><ele>966.0</ele><time>2026-04-26T07:50:52.395Z</time></trkpt><trkpt lat="42.3578346" lon="13.511231"><ele>966.0</ele><time>2026-04-26T07:50:53.429Z</time></trkpt><trkpt lat="42.3577849" lon="13.5110996"><ele>966.0</ele><time>2026-04-26T07:50:54.435Z</time></trkpt><trkpt lat="42.3577433" lon="13.510993"><ele>966.0</ele><time>2026-04-26T07:50:55.387Z</time></trkpt><trkpt lat="42.357698" lon="13.5108922"><ele>966.0</ele><time>2026-04-26T07:50:56.45Z</time></trkpt><trkpt lat="42.3576589" lon="13.5108066"><ele>966.0</ele><time>2026-04-26T07:50:57.403Z</time></trkpt><trkpt lat="42.3576217" lon="13.5107321"><ele>966.0</ele><time>2026-04-26T07:50:58.409Z</time></trkpt><trkpt lat="42.3575902" lon="13.510636"><ele>966.0</ele><time>2026-04-26T07:51:00.42Z</time></trkpt><trkpt lat="42.3576435" lon="13.5105723"><ele>965.9999999999999</ele><time>2026-04-26T07:51:02.401Z</time></trkpt><trkpt lat="42.3577269" lon="13.5105695"><ele>965.9999999999999</ele><time>2026-04-26T07:51:04.419Z</time></trkpt><trkpt lat="42.3578345" lon="13.5105571"><ele>966.0</ele><time>2026-04-26T07:51:06.419Z</time></trkpt><trkpt lat="42.3579314" lon="13.5104964"><ele>966.0</ele><time>2026-04-26T07:51:08.396Z</time></trkpt><trkpt lat="42.3579933" lon="13.5103781"><ele>965.5999999999999</ele><time>2026-04-26T07:51:10.397Z</time></trkpt><trkpt lat="42.3580107" lon="13.5102446"><ele>965.1999999999999</ele><time>2026-04-26T07:51:12.399Z</time></trkpt><trkpt lat="42.3580133" lon="13.5100875"><ele>964.8000000000001</ele><time>2026-04-26T07:51:14.425Z</time></trkpt><trkpt lat="42.3580094" lon="13.509978"><ele>964.4000000000001</ele><time>2026-04-26T07:51:15.404Z</time></trkpt><trkpt lat="42.357991" lon="13.5098381"><ele>964.0</ele><time>2026-04-26T07:51:16.418Z</time></trkpt><trkpt lat="42.3579618" lon="13.509698"><ele>964.0</ele><time>2026-04-26T07:51:17.428Z</time></trkpt><trkpt lat="42.3579263" lon="13.5095776"><ele>964.0000000000001</ele><time>2026-04-26T07:51:18.383Z</time></trkpt><trkpt lat="42.3578776" lon="13.5094473"><ele>964.0000000000001</ele><time>2026-04-26T07:51:19.439Z</time></trkpt><trkpt lat="42.3578264" lon="13.5093397"><ele>964.0</ele><time>2026-04-26T07:51:20.419Z</time></trkpt><trkpt lat="42.3577659" lon="13.5092385"><ele>964.0</ele><time>2026-04-26T07:51:21.392Z</time></trkpt><trkpt lat="42.3577013" lon="13.5091393"><ele>961.8000000000001</ele><time>2026-04-26T07:51:22.447Z</time></trkpt><trkpt lat="42.357646" lon="13.5090639"><ele>959.6000000000001</ele><time>2026-04-26T07:51:23.417Z</time></trkpt><trkpt lat="42.357593" lon="13.5090001"><ele>957.4</ele><time>2026-04-26T07:51:24.423Z</time></trkpt><trkpt lat="42.3574866" lon="13.5089303"><ele>955.2</ele><time>2026-04-26T07:51:26.4Z</time></trkpt><trkpt lat="42.357367" lon="13.5089156"><ele>953.0</ele><time>2026-04-26T07:51:28.414Z</time></trkpt><trkpt lat="42.3572942" lon="13.5089116"><ele>953.0</ele><time>2026-04-26T07:51:29.427Z</time></trkpt><trkpt lat="42.357205" lon="13.5089061"><ele>953.0</ele><time>2026-04-26T07:51:30.523Z</time></trkpt><trkpt lat="42.3570437" lon="13.5088938"><ele>953.0</ele><time>2026-04-26T07:51:32.39Z</time></trkpt><trkpt lat="42.35697" lon="13.5088734"><ele>953.0</ele><time>2026-04-26T07:51:33.402Z</time></trkpt><trkpt lat="42.3569074" lon="13.5088268"><ele>953.0</ele><time>2026-04-26T07:51:34.38Z</time></trkpt><trkpt lat="42.3568564" lon="13.508753"><ele>952.25</ele><time>2026-04-26T07:51:35.362Z</time></trkpt><trkpt lat="42.3568075" lon="13.5086434"><ele>951.5</ele><time>2026-04-26T07:51:36.4Z</time></trkpt><trkpt lat="42.3567599" lon="13.508513"><ele>950.75</ele><time>2026-04-26T07:51:37.379Z</time></trkpt><trkpt lat="42.3567033" lon="13.5083551"><ele>950.0</ele><time>2026-04-26T07:51:38.381Z</time></trkpt><trkpt lat="42.3566489" lon="13.5081952"><ele>950.0</ele><time>2026-04-26T07:51:39.339Z</time></trkpt><trkpt lat="42.3565886" lon="13.5080125"><ele>950.0</ele><time>2026-04-26T07:51:40.464Z</time></trkpt><trkpt lat="42.3565332" lon="13.5078626"><ele>950.0</ele><time>2026-04-26T07:51:41.387Z</time></trkpt><trkpt lat="42.3564615" lon="13.5076841"><ele>950.0</ele><time>2026-04-26T07:51:42.391Z</time></trkpt><trkpt lat="42.3563716" lon="13.5074889"><ele>951.3333333333334</ele><time>2026-04-26T07:51:43.437Z</time></trkpt><trkpt lat="42.3562761" lon="13.5073127"><ele>952.6666666666667</ele><time>2026-04-26T07:51:44.373Z</time></trkpt><trkpt lat="42.3561643" lon="13.5071221"><ele>954.0</ele><time>2026-04-26T07:51:45.402Z</time></trkpt><trkpt lat="42.3560648" lon="13.5069551"><ele>947.3333333333333</ele><time>2026-04-26T07:51:46.371Z</time></trkpt><trkpt lat="42.3559558" lon="13.5067879"><ele>940.6666666666666</ele><time>2026-04-26T07:51:47.407Z</time></trkpt><trkpt lat="42.355858" lon="13.5066294"><ele>934.0</ele><time>2026-04-26T07:51:48.389Z</time></trkpt><trkpt lat="42.3557659" lon="13.5064708"><ele>934.0</ele><time>2026-04-26T07:51:49.393Z</time></trkpt><trkpt lat="42.3556766" lon="13.5063133"><ele>934.0</ele><time>2026-04-26T07:51:50.418Z</time></trkpt><trkpt lat="42.3555953" lon="13.5061684"><ele>934.0</ele><time>2026-04-26T07:51:51.37Z</time></trkpt><trkpt lat="42.3555061" lon="13.5060006"><ele>934.0</ele><time>2026-04-26T07:51:52.477Z</time></trkpt><trkpt lat="42.3554342" lon="13.5058602"><ele>932.25</ele><time>2026-04-26T07:51:53.409Z</time></trkpt><trkpt lat="42.3553626" lon="13.5057162"><ele>930.5</ele><time>2026-04-26T07:51:54.361Z</time></trkpt><trkpt lat="42.3552907" lon="13.5055563"><ele>928.75</ele><time>2026-04-26T07:51:55.408Z</time></trkpt><trkpt lat="42.3552299" lon="13.5054092"><ele>927.0</ele><time>2026-04-26T07:51:56.365Z</time></trkpt><trkpt lat="42.3551714" lon="13.5052462"><ele>925.25</ele><time>2026-04-26T07:51:57.404Z</time></trkpt><trkpt lat="42.3551261" lon="13.5050914"><ele>923.5</ele><time>2026-04-26T07:51:58.375Z</time></trkpt><trkpt lat="42.355085" lon="13.5049274"><ele>921.75</ele><time>2026-04-26T07:51:59.421Z</time></trkpt><trkpt lat="42.3550562" lon="13.5047712"><ele>920.0</ele><time>2026-04-26T07:52:00.371Z</time></trkpt><trkpt lat="42.355035" lon="13.5045937"><ele>917.5</ele><time>2026-04-26T07:52:01.406Z</time></trkpt><trkpt lat="42.3550196" lon="13.5044244"><ele>915.0</ele><time>2026-04-26T07:52:02.406Z</time></trkpt><trkpt lat="42.3550027" lon="13.5042621"><ele>912.5</ele><time>2026-04-26T07:52:03.379Z</time></trkpt><trkpt lat="42.3549756" lon="13.5040962"><ele>910.0</ele><time>2026-04-26T07:52:04.412Z</time></trkpt><trkpt lat="42.3549399" lon="13.5039389"><ele>910.0</ele><time>2026-04-26T07:52:05.381Z</time></trkpt><trkpt lat="42.3548796" lon="13.5037969"><ele>910.0</ele><time>2026-04-26T07:52:06.408Z</time></trkpt><trkpt lat="42.3548217" lon="13.5036869"><ele>910.0</ele><time>2026-04-26T07:52:07.38Z</time></trkpt><trkpt lat="42.3547734" lon="13.5035901"><ele>910.0</ele><time>2026-04-26T07:52:08.423Z</time></trkpt><trkpt lat="42.3547391" lon="13.5035026"><ele>910.0</ele><time>2026-04-26T07:52:09.416Z</time></trkpt><trkpt lat="42.3547164" lon="13.5034119"><ele>909.2</ele><time>2026-04-26T07:52:10.522Z</time></trkpt><trkpt lat="42.3547255" lon="13.5033116"><ele>908.4</ele><time>2026-04-26T07:52:12.415Z</time></trkpt><trkpt lat="42.3548151" lon="13.5033756"><ele>907.5999999999999</ele><time>2026-04-26T07:52:14.412Z</time></trkpt><trkpt lat="42.3548626" lon="13.5034531"><ele>906.8</ele><time>2026-04-26T07:52:15.422Z</time></trkpt><trkpt lat="42.3549186" lon="13.503586"><ele>906.0</ele><time>2026-04-26T07:52:16.47Z</time></trkpt><trkpt lat="42.3549709" lon="13.5037172"><ele>907.0</ele><time>2026-04-26T07:52:17.413Z</time></trkpt><trkpt lat="42.3550324" lon="13.5038701"><ele>908.0</ele><time>2026-04-26T07:52:18.433Z</time></trkpt><trkpt lat="42.3550902" lon="13.5040265"><ele>909.0</ele><time>2026-04-26T07:52:19.383Z</time></trkpt><trkpt lat="42.3551399" lon="13.50419"><ele>910.0</ele><time>2026-04-26T07:52:20.394Z</time></trkpt><trkpt lat="42.3551835" lon="13.5043477"><ele>910.0</ele><time>2026-04-26T07:52:21.392Z</time></trkpt><trkpt lat="42.3552211" lon="13.5045038"><ele>910.0</ele><time>2026-04-26T07:52:22.384Z</time></trkpt><trkpt lat="42.3552594" lon="13.5046575"><ele>910.0</ele><time>2026-04-26T07:52:23.389Z</time></trkpt><trkpt lat="42.3553103" lon="13.5048089"><ele>910.0</ele><time>2026-04-26T07:52:24.385Z</time></trkpt><trkpt lat="42.3553724" lon="13.5049619"><ele>910.25</ele><time>2026-04-26T07:52:25.4Z</time></trkpt><trkpt lat="42.3554461" lon="13.5051098"><ele>910.5</ele><time>2026-04-26T07:52:26.414Z</time></trkpt><trkpt lat="42.3555284" lon="13.5052481"><ele>910.75</ele><time>2026-04-26T07:52:27.403Z</time></trkpt><trkpt lat="42.3556221" lon="13.5053804"><ele>911.0</ele><time>2026-04-26T07:52:28.435Z</time></trkpt><trkpt lat="42.3557146" lon="13.5054866"><ele>911.0</ele><time>2026-04-26T07:52:29.367Z</time></trkpt><trkpt lat="42.3558197" lon="13.5055832"><ele>911.0</ele><time>2026-04-26T07:52:30.37Z</time></trkpt><trkpt lat="42.355929" lon="13.5056649"><ele>911.0</ele><time>2026-04-26T07:52:31.391Z</time></trkpt><trkpt lat="42.3560402" lon="13.5057273"><ele>911.0</ele><time>2026-04-26T07:52:32.428Z</time></trkpt><trkpt lat="42.3561592" lon="13.505765"><ele>911.0</ele><time>2026-04-26T07:52:33.537Z</time></trkpt><trkpt lat="42.3563479" lon="13.5057492"><ele>911.0</ele><time>2026-04-26T07:52:35.48Z</time></trkpt><trkpt lat="42.3565291" lon="13.5055392"><ele>911.0</ele><time>2026-04-26T07:52:37.425Z</time></trkpt><trkpt lat="42.3565769" lon="13.5053834"><ele>907.75</ele><time>2026-04-26T07:52:38.383Z</time></trkpt><trkpt lat="42.3565969" lon="13.5051954"><ele>904.5</ele><time>2026-04-26T07:52:39.43Z</time></trkpt><trkpt lat="42.356636" lon="13.5050468"><ele>901.25</ele><time>2026-04-26T07:52:40.351Z</time></trkpt><trkpt lat="42.3566852" lon="13.5048935"><ele>898.0</ele><time>2026-04-26T07:52:41.347Z</time></trkpt><trkpt lat="42.3567484" lon="13.5047534"><ele>898.0</ele><time>2026-04-26T07:52:42.396Z</time></trkpt><trkpt lat="42.3568155" lon="13.5046425"><ele>898.0</ele><time>2026-04-26T07:52:43.422Z</time></trkpt><trkpt lat="42.3569357" lon="13.5045639"><ele>898.0</ele><time>2026-04-26T07:52:44.402Z</time></trkpt><trkpt lat="42.3570716" lon="13.5045165"><ele>898.0</ele><time>2026-04-26T07:52:45.363Z</time></trkpt><trkpt lat="42.3572225" lon="13.5044794"><ele>898.25</ele><time>2026-04-26T07:52:46.481Z</time></trkpt><trkpt lat="42.3573641" lon="13.504476"><ele>898.5</ele><time>2026-04-26T07:52:47.485Z</time></trkpt><trkpt lat="42.3574963" lon="13.5044991"><ele>898.75</ele><time>2026-04-26T07:52:48.448Z</time></trkpt><trkpt lat="42.3576265" lon="13.5045471"><ele>899.0</ele><time>2026-04-26T07:52:49.388Z</time></trkpt><trkpt lat="42.3577552" lon="13.50462"><ele>899.0</ele><time>2026-04-26T07:52:50.38Z</time></trkpt><trkpt lat="42.3578851" lon="13.5047091"><ele>899.0</ele><time>2026-04-26T07:52:51.412Z</time></trkpt><trkpt lat="42.3580004" lon="13.5047957"><ele>899.0</ele><time>2026-04-26T07:52:52.38Z</time></trkpt><trkpt lat="42.3581221" lon="13.5048942"><ele>899.0</ele><time>2026-04-26T07:52:53.419Z</time></trkpt><trkpt lat="42.358229" lon="13.5050028"><ele>897.0</ele><time>2026-04-26T07:52:54.41Z</time></trkpt><trkpt lat="42.3583267" lon="13.5051368"><ele>895.0</ele><time>2026-04-26T07:52:55.424Z</time></trkpt><trkpt lat="42.3584226" lon="13.5052892"><ele>893.0</ele><time>2026-04-26T07:52:56.39Z</time></trkpt><trkpt lat="42.3585196" lon="13.5054613"><ele>891.0</ele><time>2026-04-26T07:52:57.422Z</time></trkpt><trkpt lat="42.3586127" lon="13.5056366"><ele>891.0</ele><time>2026-04-26T07:52:58.364Z</time></trkpt><trkpt lat="42.3587078" lon="13.5058136"><ele>891.0</ele><time>2026-04-26T07:52:59.427Z</time></trkpt><trkpt lat="42.3587779" lon="13.5059384"><ele>891.0</ele><time>2026-04-26T07:53:00.369Z</time></trkpt><trkpt lat="42.3588519" lon="13.5060753"><ele>891.0</ele><time>2026-04-26T07:53:01.373Z</time></trkpt><trkpt lat="42.3589326" lon="13.5061928"><ele>889.0</ele><time>2026-04-26T07:53:02.412Z</time></trkpt><trkpt lat="42.3590218" lon="13.5062733"><ele>886.9999999999999</ele><time>2026-04-26T07:53:03.378Z</time></trkpt><trkpt lat="42.3591259" lon="13.5063266"><ele>884.9999999999999</ele><time>2026-04-26T07:53:04.403Z</time></trkpt><trkpt lat="42.3592238" lon="13.5063325"><ele>883.0</ele><time>2026-04-26T07:53:05.355Z</time></trkpt><trkpt lat="42.3593129" lon="13.5062891"><ele>881.0</ele><time>2026-04-26T07:53:06.371Z</time></trkpt><trkpt lat="42.3593742" lon="13.5061958"><ele>880.4</ele><time>2026-04-26T07:53:07.408Z</time></trkpt><trkpt lat="42.3593908" lon="13.5060864"><ele>879.8</ele><time>2026-04-26T07:53:08.356Z</time></trkpt><trkpt lat="42.3593777" lon="13.5059555"><ele>879.1999999999999</ele><time>2026-04-26T07:53:09.35Z</time></trkpt><trkpt lat="42.3593366" lon="13.5058094"><ele>878.5999999999999</ele><time>2026-04-26T07:53:10.341Z</time></trkpt><trkpt lat="42.3592726" lon="13.5056331"><ele>878.0</ele><time>2026-04-26T07:53:11.329Z</time></trkpt><trkpt lat="42.3591959" lon="13.5054233"><ele>878.0</ele><time>2026-04-26T07:53:12.346Z</time></trkpt><trkpt lat="42.3591289" lon="13.5052185"><ele>878.0</ele><time>2026-04-26T07:53:13.331Z</time></trkpt><trkpt lat="42.3590586" lon="13.5049975"><ele>878.0</ele><time>2026-04-26T07:53:14.393Z</time></trkpt><trkpt lat="42.3589949" lon="13.5048077"><ele>878.0</ele><time>2026-04-26T07:53:15.373Z</time></trkpt><trkpt lat="42.3589337" lon="13.5046221"><ele>878.0</ele><time>2026-04-26T07:53:16.361Z</time></trkpt><trkpt lat="42.3588733" lon="13.5044462"><ele>878.0</ele><time>2026-04-26T07:53:17.349Z</time></trkpt><trkpt lat="42.3588151" lon="13.5042696"><ele>878.0</ele><time>2026-04-26T07:53:18.354Z</time></trkpt><trkpt lat="42.3587596" lon="13.5040991"><ele>875.25</ele><time>2026-04-26T07:53:19.358Z</time></trkpt><trkpt lat="42.3587097" lon="13.5039308"><ele>872.5</ele><time>2026-04-26T07:53:20.338Z</time></trkpt><trkpt lat="42.3586509" lon="13.5037546"><ele>869.75</ele><time>2026-04-26T07:53:21.37Z</time></trkpt><trkpt lat="42.3585857" lon="13.5035918"><ele>867.0</ele><time>2026-04-26T07:53:22.36Z</time></trkpt><trkpt lat="42.3585039" lon="13.5034366"><ele>866.0</ele><time>2026-04-26T07:53:23.358Z</time></trkpt><trkpt lat="42.3584095" lon="13.5032949"><ele>865.0</ele><time>2026-04-26T07:53:24.343Z</time></trkpt><trkpt lat="42.358307" lon="13.5031504"><ele>864.0</ele><time>2026-04-26T07:53:25.367Z</time></trkpt><trkpt lat="42.3582134" lon="13.5030129"><ele>863.0</ele><time>2026-04-26T07:53:26.35Z</time></trkpt><trkpt lat="42.3581314" lon="13.5028582"><ele>862.6666666666667</ele><time>2026-04-26T07:53:27.349Z</time></trkpt><trkpt lat="42.3580595" lon="13.5026786"><ele>862.3333333333333</ele><time>2026-04-26T07:53:28.368Z</time></trkpt><trkpt lat="42.3579996" lon="13.5024674"><ele>862.0</ele><time>2026-04-26T07:53:29.45Z</time></trkpt><trkpt lat="42.3579074" lon="13.5020692"><ele>857.6666666666666</ele><time>2026-04-26T07:53:31.41Z</time></trkpt><trkpt lat="42.3578667" lon="13.5018826"><ele>853.3333333333333</ele><time>2026-04-26T07:53:32.355Z</time></trkpt><trkpt lat="42.3578305" lon="13.5016841"><ele>849.0</ele><time>2026-04-26T07:53:33.356Z</time></trkpt><trkpt lat="42.357801" lon="13.5014745"><ele>849.0</ele><time>2026-04-26T07:53:34.421Z</time></trkpt><trkpt lat="42.3577787" lon="13.5012848"><ele>849.0</ele><time>2026-04-26T07:53:35.414Z</time></trkpt><trkpt lat="42.3577741" lon="13.501092"><ele>849.0</ele><time>2026-04-26T07:53:36.42Z</time></trkpt><trkpt lat="42.3577991" lon="13.5009144"><ele>849.0</ele><time>2026-04-26T07:53:37.372Z</time></trkpt><trkpt lat="42.3578368" lon="13.5007289"><ele>846.75</ele><time>2026-04-26T07:53:38.406Z</time></trkpt><trkpt lat="42.3578837" lon="13.5005657"><ele>844.5</ele><time>2026-04-26T07:53:39.372Z</time></trkpt><trkpt lat="42.3579545" lon="13.5004062"><ele>842.25</ele><time>2026-04-26T07:53:40.384Z</time></trkpt><trkpt lat="42.3580636" lon="13.5002378"><ele>840.0</ele><time>2026-04-26T07:53:41.49Z</time></trkpt><trkpt lat="42.3582816" lon="13.4999734"><ele>839.6666666666667</ele><time>2026-04-26T07:53:43.407Z</time></trkpt><trkpt lat="42.3583966" lon="13.4998431"><ele>839.3333333333334</ele><time>2026-04-26T07:53:44.428Z</time></trkpt><trkpt lat="42.3585266" lon="13.4997054"><ele>839.0</ele><time>2026-04-26T07:53:45.602Z</time></trkpt><trkpt lat="42.3587171" lon="13.4995121"><ele>837.0</ele><time>2026-04-26T07:53:47.495Z</time></trkpt><trkpt lat="42.3588062" lon="13.4994108"><ele>835.0</ele><time>2026-04-26T07:53:48.476Z</time></trkpt><trkpt lat="42.3588852" lon="13.499307"><ele>833.0</ele><time>2026-04-26T07:53:49.459Z</time></trkpt><trkpt lat="42.3589568" lon="13.4991828"><ele>831.0</ele><time>2026-04-26T07:53:50.579Z</time></trkpt><trkpt lat="42.359017" lon="13.498916"><ele>830.0</ele><time>2026-04-26T07:53:52.455Z</time></trkpt><trkpt lat="42.3590293" lon="13.498758"><ele>829.0</ele><time>2026-04-26T07:53:53.415Z</time></trkpt><trkpt lat="42.3590383" lon="13.4985725"><ele>828.0</ele><time>2026-04-26T07:53:54.522Z</time></trkpt><trkpt lat="42.3590682" lon="13.4982404"><ele>827.25</ele><time>2026-04-26T07:53:56.434Z</time></trkpt><trkpt lat="42.3590995" lon="13.4980524"><ele>826.5</ele><time>2026-04-26T07:53:57.45Z</time></trkpt><trkpt lat="42.3591398" lon="13.4978712"><ele>825.75</ele><time>2026-04-26T07:53:58.473Z</time></trkpt><trkpt lat="42.359188" lon="13.4977043"><ele>825.0</ele><time>2026-04-26T07:53:59.489Z</time></trkpt><trkpt lat="42.3592378" lon="13.4975465"><ele>824.75</ele><time>2026-04-26T07:54:00.476Z</time></trkpt><trkpt lat="42.3592862" lon="13.4974021"><ele>824.5</ele><time>2026-04-26T07:54:01.402Z</time></trkpt><trkpt lat="42.3593408" lon="13.4972519"><ele>824.25</ele><time>2026-04-26T07:54:02.418Z</time></trkpt><trkpt lat="42.3593937" lon="13.497107"><ele>824.0</ele><time>2026-04-26T07:54:03.431Z</time></trkpt><trkpt lat="42.3594524" lon="13.4969609"><ele>824.0</ele><time>2026-04-26T07:54:04.468Z</time></trkpt><trkpt lat="42.3595234" lon="13.4968245"><ele>824.0</ele><time>2026-04-26T07:54:05.466Z</time></trkpt><trkpt lat="42.3596041" lon="13.4967041"><ele>824.0</ele><time>2026-04-26T07:54:06.454Z</time></trkpt><trkpt lat="42.3596869" lon="13.4965977"><ele>824.0</ele><time>2026-04-26T07:54:07.469Z</time></trkpt><trkpt lat="42.3597549" lon="13.4965036"><ele>824.4000000000001</ele><time>2026-04-26T07:54:08.447Z</time></trkpt><trkpt lat="42.3598099" lon="13.4963956"><ele>824.8</ele><time>2026-04-26T07:54:09.406Z</time></trkpt><trkpt lat="42.3598443" lon="13.4962608"><ele>825.2</ele><time>2026-04-26T07:54:10.389Z</time></trkpt><trkpt lat="42.3598622" lon="13.4961032"><ele>825.5999999999999</ele><time>2026-04-26T07:54:11.389Z</time></trkpt><trkpt lat="42.3598725" lon="13.4959406"><ele>826.0</ele><time>2026-04-26T07:54:12.355Z</time></trkpt><trkpt lat="42.3598843" lon="13.4957382"><ele>826.0</ele><time>2026-04-26T07:54:13.427Z</time></trkpt><trkpt lat="42.3599015" lon="13.4955485"><ele>826.0</ele><time>2026-04-26T07:54:14.373Z</time></trkpt><trkpt lat="42.3599174" lon="13.4953479"><ele>826.0</ele><time>2026-04-26T07:54:15.381Z</time></trkpt><trkpt lat="42.3599209" lon="13.495159"><ele>826.0</ele><time>2026-04-26T07:54:16.36Z</time></trkpt><trkpt lat="42.3599153" lon="13.4949556"><ele>825.25</ele><time>2026-04-26T07:54:17.431Z</time></trkpt><trkpt lat="42.3599064" lon="13.4947823"><ele>824.5</ele><time>2026-04-26T07:54:18.362Z</time></trkpt><trkpt lat="42.3598965" lon="13.4946047"><ele>823.75</ele><time>2026-04-26T07:54:19.423Z</time></trkpt><trkpt lat="42.3598766" lon="13.4944351"><ele>823.0</ele><time>2026-04-26T07:54:20.426Z</time></trkpt><trkpt lat="42.3598436" lon="13.4942671"><ele>822.5</ele><time>2026-04-26T07:54:21.431Z</time></trkpt><trkpt lat="42.3598056" lon="13.4941142"><ele>822.0</ele><time>2026-04-26T07:54:22.402Z</time></trkpt><trkpt lat="42.3597701" lon="13.4939599"><ele>821.5</ele><time>2026-04-26T07:54:23.411Z</time></trkpt><trkpt lat="42.3597338" lon="13.4938178"><ele>821.0</ele><time>2026-04-26T07:54:24.405Z</time></trkpt><trkpt lat="42.3596837" lon="13.4936813"><ele>817.0</ele><time>2026-04-26T07:54:25.353Z</time></trkpt><trkpt lat="42.3596111" lon="13.4935596"><ele>813.0</ele><time>2026-04-26T07:54:26.345Z</time></trkpt><trkpt lat="42.3595249" lon="13.4934722"><ele>809.0</ele><time>2026-04-26T07:54:27.347Z</time></trkpt><trkpt lat="42.3594328" lon="13.4934084"><ele>805.0</ele><time>2026-04-26T07:54:28.343Z</time></trkpt><trkpt lat="42.3593392" lon="13.4933438"><ele>801.0</ele><time>2026-04-26T07:54:29.351Z</time></trkpt><trkpt lat="42.3592626" lon="13.4932545"><ele>801.0</ele><time>2026-04-26T07:54:30.336Z</time></trkpt><trkpt lat="42.3591964" lon="13.4931445"><ele>801.0</ele><time>2026-04-26T07:54:31.371Z</time></trkpt><trkpt lat="42.3591444" lon="13.4930313"><ele>801.0</ele><time>2026-04-26T07:54:32.375Z</time></trkpt><trkpt lat="42.3591098" lon="13.4929043"><ele>801.0</ele><time>2026-04-26T07:54:33.36Z</time></trkpt><trkpt lat="42.359086" lon="13.4927605"><ele>801.0</ele><time>2026-04-26T07:54:34.332Z</time></trkpt><trkpt lat="42.3590557" lon="13.4926183"><ele>802.8</ele><time>2026-04-26T07:54:35.339Z</time></trkpt><trkpt lat="42.3590079" lon="13.4924874"><ele>804.5999999999999</ele><time>2026-04-26T07:54:36.33Z</time></trkpt><trkpt lat="42.3589372" lon="13.4923725"><ele>806.4</ele><time>2026-04-26T07:54:37.373Z</time></trkpt><trkpt lat="42.3588568" lon="13.4922913"><ele>808.2</ele><time>2026-04-26T07:54:38.343Z</time></trkpt><trkpt lat="42.3587549" lon="13.4922157"><ele>810.0</ele><time>2026-04-26T07:54:39.424Z</time></trkpt><trkpt lat="42.3586495" lon="13.4921731"><ele>806.8</ele><time>2026-04-26T07:54:40.417Z</time></trkpt><trkpt lat="42.3585473" lon="13.4921275"><ele>803.6</ele><time>2026-04-26T07:54:41.415Z</time></trkpt><trkpt lat="42.3584495" lon="13.4920717"><ele>800.4000000000001</ele><time>2026-04-26T07:54:42.432Z</time></trkpt><trkpt lat="42.3583748" lon="13.4920099"><ele>797.2</ele><time>2026-04-26T07:54:43.333Z</time></trkpt><trkpt lat="42.3583058" lon="13.4919173"><ele>794.0</ele><time>2026-04-26T07:54:44.324Z</time></trkpt><trkpt lat="42.3582468" lon="13.4918012"><ele>794.0</ele><time>2026-04-26T07:54:45.335Z</time></trkpt><trkpt lat="42.3581887" lon="13.4916777"><ele>794.0</ele><time>2026-04-26T07:54:46.332Z</time></trkpt><trkpt lat="42.3581303" lon="13.4915486"><ele>794.0</ele><time>2026-04-26T07:54:47.331Z</time></trkpt><trkpt lat="42.3580625" lon="13.4914208"><ele>794.0</ele><time>2026-04-26T07:54:48.389Z</time></trkpt><trkpt lat="42.3580239" lon="13.4912871"><ele>794.0</ele><time>2026-04-26T07:54:49.404Z</time></trkpt><trkpt lat="42.3580068" lon="13.4911256"><ele>785.6666666666667</ele><time>2026-04-26T07:54:50.38Z</time></trkpt><trkpt lat="42.3579878" lon="13.4909574"><ele>777.3333333333333</ele><time>2026-04-26T07:54:51.334Z</time></trkpt><trkpt lat="42.3579523" lon="13.4907676"><ele>769.0</ele><time>2026-04-26T07:54:52.472Z</time></trkpt><trkpt lat="42.3578753" lon="13.4904774"><ele>770.5</ele><time>2026-04-26T07:54:54.358Z</time></trkpt><trkpt lat="42.3578293" lon="13.4903234"><ele>772.0</ele><time>2026-04-26T07:54:55.374Z</time></trkpt><trkpt lat="42.357794" lon="13.4901716"><ele>773.5</ele><time>2026-04-26T07:54:56.37Z</time></trkpt><trkpt lat="42.3577619" lon="13.4900136"><ele>775.0</ele><time>2026-04-26T07:54:57.467Z</time></trkpt><trkpt lat="42.3577374" lon="13.489893"><ele>775.0</ele><time>2026-04-26T07:54:58.399Z</time></trkpt><trkpt lat="42.3577114" lon="13.4897366"><ele>775.0</ele><time>2026-04-26T07:54:59.617Z</time></trkpt><trkpt lat="42.3576705" lon="13.4895243"><ele>775.0</ele><time>2026-04-26T07:55:01.384Z</time></trkpt><trkpt lat="42.3576146" lon="13.4894227"><ele>775.0</ele><time>2026-04-26T07:55:02.427Z</time></trkpt><trkpt lat="42.3575517" lon="13.4893412"><ele>774.2</ele><time>2026-04-26T07:55:03.419Z</time></trkpt><trkpt lat="42.3574844" lon="13.4892844"><ele>773.4</ele><time>2026-04-26T07:55:04.374Z</time></trkpt><trkpt lat="42.3573851" lon="13.4892308"><ele>772.5999999999999</ele><time>2026-04-26T07:55:05.624Z</time></trkpt><trkpt lat="42.3572427" lon="13.4891903"><ele>771.8</ele><time>2026-04-26T07:55:07.409Z</time></trkpt><trkpt lat="42.3571673" lon="13.4891937"><ele>771.0</ele><time>2026-04-26T07:55:08.366Z</time></trkpt><trkpt lat="42.3570882" lon="13.4892183"><ele>770.0</ele><time>2026-04-26T07:55:09.413Z</time></trkpt><trkpt lat="42.3570251" lon="13.4892713"><ele>769.0</ele><time>2026-04-26T07:55:10.372Z</time></trkpt><trkpt lat="42.3569689" lon="13.4893412"><ele>768.0</ele><time>2026-04-26T07:55:11.401Z</time></trkpt><trkpt lat="42.3569194" lon="13.4894081"><ele>767.0</ele><time>2026-04-26T07:55:12.379Z</time></trkpt><trkpt lat="42.35687" lon="13.4894735"><ele>766.0</ele><time>2026-04-26T07:55:13.423Z</time></trkpt><trkpt lat="42.3568199" lon="13.4895381"><ele>765.0</ele><time>2026-04-26T07:55:14.39Z</time></trkpt><trkpt lat="42.3567667" lon="13.4895919"><ele>764.0</ele><time>2026-04-26T07:55:15.434Z</time></trkpt><trkpt lat="42.3566481" lon="13.4896127"><ele>764.0</ele><time>2026-04-26T07:55:17.385Z</time></trkpt><trkpt lat="42.3565278" lon="13.4895535"><ele>764.0</ele><time>2026-04-26T07:55:19.423Z</time></trkpt><trkpt lat="42.356463" lon="13.4895158"><ele>764.0</ele><time>2026-04-26T07:55:20.529Z</time></trkpt><trkpt lat="42.3563303" lon="13.4894359"><ele>764.0</ele><time>2026-04-26T07:55:22.432Z</time></trkpt><trkpt lat="42.3562592" lon="13.4893965"><ele>764.0</ele><time>2026-04-26T07:55:23.493Z</time></trkpt><trkpt lat="42.3562008" lon="13.4893601"><ele>762.6</ele><time>2026-04-26T07:55:24.414Z</time></trkpt><trkpt lat="42.3561307" lon="13.4893195"><ele>761.2</ele><time>2026-04-26T07:55:25.489Z</time></trkpt><trkpt lat="42.356068" lon="13.4892885"><ele>759.8000000000001</ele><time>2026-04-26T07:55:26.51Z</time></trkpt><trkpt lat="42.3559473" lon="13.4892522"><ele>758.4000000000001</ele><time>2026-04-26T07:55:28.492Z</time></trkpt><trkpt lat="42.3558202" lon="13.4892974"><ele>757.0</ele><time>2026-04-26T07:55:30.451Z</time></trkpt><trkpt lat="42.3557528" lon="13.489352"><ele>757.0</ele><time>2026-04-26T07:55:31.408Z</time></trkpt><trkpt lat="42.3556887" lon="13.4894393"><ele>757.0</ele><time>2026-04-26T07:55:32.408Z</time></trkpt><trkpt lat="42.3556258" lon="13.4895523"><ele>757.0</ele><time>2026-04-26T07:55:33.404Z</time></trkpt><trkpt lat="42.355562" lon="13.4896694"><ele>757.0</ele><time>2026-04-26T07:55:34.43Z</time></trkpt><trkpt lat="42.3555086" lon="13.4898081"><ele>757.0</ele><time>2026-04-26T07:55:35.513Z</time></trkpt><trkpt lat="42.3554812" lon="13.4900738"><ele>756.6</ele><time>2026-04-26T07:55:37.431Z</time></trkpt><trkpt lat="42.3555089" lon="13.4901946"><ele>756.2</ele><time>2026-04-26T07:55:38.408Z</time></trkpt><trkpt lat="42.3555652" lon="13.4903032"><ele>755.8</ele><time>2026-04-26T07:55:39.421Z</time></trkpt><trkpt lat="42.3556404" lon="13.490393"><ele>755.4</ele><time>2026-04-26T07:55:40.412Z</time></trkpt><trkpt lat="42.3557323" lon="13.4904842"><ele>755.0</ele><time>2026-04-26T07:55:41.477Z</time></trkpt><trkpt lat="42.3558102" lon="13.4905593"><ele>753.2</ele><time>2026-04-26T07:55:42.402Z</time></trkpt><trkpt lat="42.3559048" lon="13.4906322"><ele>751.4</ele><time>2026-04-26T07:55:43.428Z</time></trkpt><trkpt lat="42.3560022" lon="13.4906909"><ele>749.5999999999999</ele><time>2026-04-26T07:55:44.477Z</time></trkpt><trkpt lat="42.3560907" lon="13.4907317"><ele>747.8</ele><time>2026-04-26T07:55:45.448Z</time></trkpt><trkpt lat="42.3561718" lon="13.4907631"><ele>746.0</ele><time>2026-04-26T07:55:46.433Z</time></trkpt><trkpt lat="42.3562569" lon="13.4907939"><ele>746.0</ele><time>2026-04-26T07:55:47.643Z</time></trkpt><trkpt lat="42.3563568" lon="13.4908314"><ele>746.0</ele><time>2026-04-26T07:55:49.406Z</time></trkpt><trkpt lat="42.3564153" lon="13.4908812"><ele>746.0</ele><time>2026-04-26T07:55:51.395Z</time></trkpt><trkpt lat="42.3564186" lon="13.4909941"><ele>746.0</ele><time>2026-04-26T07:55:53.369Z</time></trkpt><trkpt lat="42.3563417" lon="13.4910588"><ele>746.0</ele><time>2026-04-26T07:55:55.339Z</time></trkpt><trkpt lat="42.3562109" lon="13.4910326"><ele>746.0</ele><time>2026-04-26T07:55:57.362Z</time></trkpt><trkpt lat="42.3561182" lon="13.491002"><ele>746.0</ele><time>2026-04-26T07:55:58.364Z</time></trkpt><trkpt lat="42.3560115" lon="13.490974"><ele>746.0</ele><time>2026-04-26T07:55:59.471Z</time></trkpt><trkpt lat="42.3559028" lon="13.4909608"><ele>746.0</ele><time>2026-04-26T07:56:00.437Z</time></trkpt><trkpt lat="42.3557876" lon="13.4909385"><ele>746.0</ele><time>2026-04-26T07:56:01.348Z</time></trkpt><trkpt lat="42.3556636" lon="13.4909097"><ele>746.0</ele><time>2026-04-26T07:56:02.351Z</time></trkpt><trkpt lat="42.3555453" lon="13.490868"><ele>746.0</ele><time>2026-04-26T07:56:03.364Z</time></trkpt><trkpt lat="42.3554293" lon="13.4908189"><ele>746.0</ele><time>2026-04-26T07:56:04.383Z</time></trkpt><trkpt lat="42.3553103" lon="13.4907632"><ele>746.0</ele><time>2026-04-26T07:56:05.422Z</time></trkpt><trkpt lat="42.3551897" lon="13.4907119"><ele>743.5</ele><time>2026-04-26T07:56:06.422Z</time></trkpt><trkpt lat="42.3550665" lon="13.4906605"><ele>741.0</ele><time>2026-04-26T07:56:07.418Z</time></trkpt><trkpt lat="42.3549544" lon="13.4906096"><ele>738.5</ele><time>2026-04-26T07:56:08.365Z</time></trkpt><trkpt lat="42.3548244" lon="13.4905472"><ele>736.0</ele><time>2026-04-26T07:56:09.509Z</time></trkpt><trkpt lat="42.3546386" lon="13.4904138"><ele>733.25</ele><time>2026-04-26T07:56:11.375Z</time></trkpt><trkpt lat="42.3545612" lon="13.490301"><ele>730.5</ele><time>2026-04-26T07:56:12.479Z</time></trkpt><trkpt lat="42.3544798" lon="13.4900393"><ele>727.75</ele><time>2026-04-26T07:56:14.384Z</time></trkpt><trkpt lat="42.3544454" lon="13.4898813"><ele>725.0</ele><time>2026-04-26T07:56:15.363Z</time></trkpt><trkpt lat="42.3544062" lon="13.4897094"><ele>725.25</ele><time>2026-04-26T07:56:16.369Z</time></trkpt><trkpt lat="42.3543593" lon="13.4895426"><ele>725.5</ele><time>2026-04-26T07:56:17.379Z</time></trkpt><trkpt lat="42.3542997" lon="13.4893844"><ele>725.75</ele><time>2026-04-26T07:56:18.419Z</time></trkpt><trkpt lat="42.3542343" lon="13.4892254"><ele>726.0</ele><time>2026-04-26T07:56:19.516Z</time></trkpt><trkpt lat="42.3541866" lon="13.4890827"><ele>726.0</ele><time>2026-04-26T07:56:20.447Z</time></trkpt><trkpt lat="42.3541487" lon="13.4889259"><ele>726.0</ele><time>2026-04-26T07:56:21.462Z</time></trkpt><trkpt lat="42.354123" lon="13.4887788"><ele>726.0</ele><time>2026-04-26T07:56:22.37Z</time></trkpt><trkpt lat="42.3541056" lon="13.4886133"><ele>726.0</ele><time>2026-04-26T07:56:23.41Z</time></trkpt><trkpt lat="42.3540964" lon="13.4884524"><ele>725.75</ele><time>2026-04-26T07:56:24.367Z</time></trkpt><trkpt lat="42.3540941" lon="13.4882707"><ele>725.5</ele><time>2026-04-26T07:56:25.389Z</time></trkpt><trkpt lat="42.3540927" lon="13.4880896"><ele>725.25</ele><time>2026-04-26T07:56:26.387Z</time></trkpt><trkpt lat="42.3540941" lon="13.4878963"><ele>725.0</ele><time>2026-04-26T07:56:27.407Z</time></trkpt><trkpt lat="42.3540921" lon="13.4877075"><ele>723.25</ele><time>2026-04-26T07:56:28.429Z</time></trkpt><trkpt lat="42.354093" lon="13.4875345"><ele>721.5</ele><time>2026-04-26T07:56:29.365Z</time></trkpt><trkpt lat="42.3541007" lon="13.4873446"><ele>719.75</ele><time>2026-04-26T07:56:30.427Z</time></trkpt><trkpt lat="42.3541189" lon="13.4871778"><ele>718.0</ele><time>2026-04-26T07:56:31.381Z</time></trkpt><trkpt lat="42.3541547" lon="13.4870147"><ele>715.8</ele><time>2026-04-26T07:56:32.368Z</time></trkpt><trkpt lat="42.3542016" lon="13.4868614"><ele>713.5999999999999</ele><time>2026-04-26T07:56:33.434Z</time></trkpt><trkpt lat="42.3542523" lon="13.4867418"><ele>711.4000000000001</ele><time>2026-04-26T07:56:34.356Z</time></trkpt><trkpt lat="42.3543182" lon="13.4866261"><ele>709.2</ele><time>2026-04-26T07:56:35.441Z</time></trkpt><trkpt lat="42.3543811" lon="13.486544"><ele>707.0</ele><time>2026-04-26T07:56:36.455Z</time></trkpt><trkpt lat="42.3544488" lon="13.4864874"><ele>707.0</ele><time>2026-04-26T07:56:37.438Z</time></trkpt><trkpt lat="42.354524" lon="13.4864642"><ele>707.0</ele><time>2026-04-26T07:56:38.434Z</time></trkpt><trkpt lat="42.3546171" lon="13.4864892"><ele>707.0</ele><time>2026-04-26T07:56:39.451Z</time></trkpt><trkpt lat="42.3547163" lon="13.4865275"><ele>707.0</ele><time>2026-04-26T07:56:40.445Z</time></trkpt><trkpt lat="42.3548197" lon="13.4865706"><ele>707.0</ele><time>2026-04-26T07:56:41.44Z</time></trkpt><trkpt lat="42.3549094" lon="13.4866023"><ele>708.6</ele><time>2026-04-26T07:56:42.371Z</time></trkpt><trkpt lat="42.354999" lon="13.4866304"><ele>710.2</ele><time>2026-04-26T07:56:43.356Z</time></trkpt><trkpt lat="42.3550848" lon="13.4866436"><ele>711.8</ele><time>2026-04-26T07:56:44.39Z</time></trkpt><trkpt lat="42.35516" lon="13.4866364"><ele>713.4</ele><time>2026-04-26T07:56:45.358Z</time></trkpt><trkpt lat="42.3552619" lon="13.4865513"><ele>715.0</ele><time>2026-04-26T07:56:47.39Z</time></trkpt><trkpt lat="42.3553114" lon="13.4864728"><ele>715.0</ele><time>2026-04-26T07:56:48.355Z</time></trkpt><trkpt lat="42.3553434" lon="13.4863812"><ele>715.0</ele><time>2026-04-26T07:56:49.342Z</time></trkpt><trkpt lat="42.3553051" lon="13.486271"><ele>715.0</ele><time>2026-04-26T07:56:50.346Z</time></trkpt><trkpt lat="42.3552611" lon="13.4861345"><ele>715.0</ele><time>2026-04-26T07:56:51.347Z</time></trkpt><trkpt lat="42.3551165" lon="13.4860061"><ele>715.0</ele><time>2026-04-26T07:56:52.331Z</time></trkpt><trkpt lat="42.3550289" lon="13.4858644"><ele>714.0</ele><time>2026-04-26T07:56:53.482Z</time></trkpt><trkpt lat="42.354943" lon="13.4857403"><ele>713.0</ele><time>2026-04-26T07:56:54.44Z</time></trkpt><trkpt lat="42.3548934" lon="13.4856314"><ele>712.0</ele><time>2026-04-26T07:56:55.369Z</time></trkpt><trkpt lat="42.3548478" lon="13.4855377"><ele>711.0</ele><time>2026-04-26T07:56:56.355Z</time></trkpt><trkpt lat="42.3547974" lon="13.4854696"><ele>710.0</ele><time>2026-04-26T07:56:57.375Z</time></trkpt><trkpt lat="42.3546666" lon="13.4854314"><ele>707.2</ele><time>2026-04-26T07:56:59.391Z</time></trkpt><trkpt lat="42.3545962" lon="13.4854586"><ele>704.4</ele><time>2026-04-26T07:57:00.365Z</time></trkpt><trkpt lat="42.3545082" lon="13.4855341"><ele>701.5999999999999</ele><time>2026-04-26T07:57:01.347Z</time></trkpt><trkpt lat="42.354395" lon="13.4856188"><ele>698.8</ele><time>2026-04-26T07:57:02.401Z</time></trkpt><trkpt lat="42.3542853" lon="13.4856818"><ele>696.0</ele><time>2026-04-26T07:57:03.365Z</time></trkpt><trkpt lat="42.3541623" lon="13.4857321"><ele>696.0</ele><time>2026-04-26T07:57:04.369Z</time></trkpt><trkpt lat="42.354035" lon="13.4857657"><ele>696.0</ele><time>2026-04-26T07:57:05.355Z</time></trkpt><trkpt lat="42.3539224" lon="13.4857512"><ele>696.0</ele><time>2026-04-26T07:57:06.365Z</time></trkpt><trkpt lat="42.3537829" lon="13.4856913"><ele>696.0</ele><time>2026-04-26T07:57:07.376Z</time></trkpt><trkpt lat="42.3536639" lon="13.4856236"><ele>694.25</ele><time>2026-04-26T07:57:08.364Z</time></trkpt><trkpt lat="42.3535483" lon="13.4855241"><ele>692.5</ele><time>2026-04-26T07:57:09.42Z</time></trkpt><trkpt lat="42.3534631" lon="13.4854155"><ele>690.75</ele><time>2026-04-26T07:57:10.354Z</time></trkpt><trkpt lat="42.3533889" lon="13.4852741"><ele>689.0</ele><time>2026-04-26T07:57:11.365Z</time></trkpt><trkpt lat="42.3533181" lon="13.4851087"><ele>688.0</ele><time>2026-04-26T07:57:12.517Z</time></trkpt><trkpt lat="42.3532753" lon="13.4849514"><ele>687.0</ele><time>2026-04-26T07:57:13.492Z</time></trkpt><trkpt lat="42.3532473" lon="13.4847871"><ele>686.0</ele><time>2026-04-26T07:57:14.468Z</time></trkpt><trkpt lat="42.3532289" lon="13.4845564"><ele>685.0</ele><time>2026-04-26T07:57:15.575Z</time></trkpt><trkpt lat="42.3532464" lon="13.4843765"><ele>683.6666666666667</ele><time>2026-04-26T07:57:16.485Z</time></trkpt><trkpt lat="42.3532978" lon="13.4841403"><ele>682.3333333333334</ele><time>2026-04-26T07:57:17.422Z</time></trkpt><trkpt lat="42.3533114" lon="13.4838779"><ele>681.0</ele><time>2026-04-26T07:57:18.421Z</time></trkpt><trkpt lat="42.3533036" lon="13.4836382"><ele>679.3333333333334</ele><time>2026-04-26T07:57:19.409Z</time></trkpt><trkpt lat="42.3532961" lon="13.4834071"><ele>677.6666666666667</ele><time>2026-04-26T07:57:20.404Z</time></trkpt><trkpt lat="42.3532882" lon="13.4831702"><ele>676.0</ele><time>2026-04-26T07:57:21.426Z</time></trkpt><trkpt lat="42.3532769" lon="13.4829237"><ele>674.6666666666667</ele><time>2026-04-26T07:57:22.462Z</time></trkpt><trkpt lat="42.3532653" lon="13.4826855"><ele>673.3333333333334</ele><time>2026-04-26T07:57:23.487Z</time></trkpt><trkpt lat="42.3532492" lon="13.482455"><ele>672.0</ele><time>2026-04-26T07:57:24.526Z</time></trkpt><trkpt lat="42.3532324" lon="13.4822388"><ele>671.0</ele><time>2026-04-26T07:57:25.532Z</time></trkpt><trkpt lat="42.353217" lon="13.4820422"><ele>670.0</ele><time>2026-04-26T07:57:26.479Z</time></trkpt><trkpt lat="42.3531981" lon="13.4818519"><ele>669.0</ele><time>2026-04-26T07:57:27.423Z</time></trkpt><trkpt lat="42.3531728" lon="13.4816503"><ele>668.0</ele><time>2026-04-26T07:57:28.411Z</time></trkpt><trkpt lat="42.3531409" lon="13.4814393"><ele>666.6666666666666</ele><time>2026-04-26T07:57:29.397Z</time></trkpt><trkpt lat="42.353093" lon="13.4812248"><ele>665.3333333333334</ele><time>2026-04-26T07:57:30.398Z</time></trkpt><trkpt lat="42.35302" lon="13.4809944"><ele>664.0</ele><time>2026-04-26T07:57:31.536Z</time></trkpt><trkpt lat="42.3529464" lon="13.4808033"><ele>661.5</ele><time>2026-04-26T07:57:32.472Z</time></trkpt><trkpt lat="42.3528428" lon="13.4805711"><ele>659.0</ele><time>2026-04-26T07:57:33.654Z</time></trkpt><trkpt lat="42.3526714" lon="13.4802734"><ele>658.0</ele><time>2026-04-26T07:57:35.384Z</time></trkpt><trkpt lat="42.3525677" lon="13.4801008"><ele>657.0</ele><time>2026-04-26T07:57:36.412Z</time></trkpt><trkpt lat="42.352474" lon="13.4799451"><ele>656.0</ele><time>2026-04-26T07:57:37.411Z</time></trkpt><trkpt lat="42.352378" lon="13.4797944"><ele>656.0</ele><time>2026-04-26T07:57:38.41Z</time></trkpt><trkpt lat="42.3522791" lon="13.4796389"><ele>656.0</ele><time>2026-04-26T07:57:39.475Z</time></trkpt><trkpt lat="42.3521843" lon="13.4794842"><ele>656.0</ele><time>2026-04-26T07:57:40.482Z</time></trkpt><trkpt lat="42.3520782" lon="13.4793156"><ele>653.5</ele><time>2026-04-26T07:57:41.538Z</time></trkpt><trkpt lat="42.3518611" lon="13.4789796"><ele>651.0</ele><time>2026-04-26T07:57:43.461Z</time></trkpt><trkpt lat="42.3517571" lon="13.4788117"><ele>649.6666666666666</ele><time>2026-04-26T07:57:44.419Z</time></trkpt><trkpt lat="42.3516573" lon="13.4786517"><ele>648.3333333333333</ele><time>2026-04-26T07:57:45.39Z</time></trkpt><trkpt lat="42.3515536" lon="13.4784806"><ele>647.0</ele><time>2026-04-26T07:57:46.402Z</time></trkpt><trkpt lat="42.3514535" lon="13.4782989"><ele>645.0</ele><time>2026-04-26T07:57:47.403Z</time></trkpt><trkpt lat="42.351358" lon="13.4781073"><ele>643.0</ele><time>2026-04-26T07:57:48.404Z</time></trkpt><trkpt lat="42.3512693" lon="13.4778927"><ele>641.0</ele><time>2026-04-26T07:57:49.452Z</time></trkpt><trkpt lat="42.3511915" lon="13.4776421"><ele>641.0</ele><time>2026-04-26T07:57:50.639Z</time></trkpt><trkpt lat="42.3511312" lon="13.4772684"><ele>641.0</ele><time>2026-04-26T07:57:52.465Z</time></trkpt><trkpt lat="42.3511133" lon="13.4770416"><ele>640.0</ele><time>2026-04-26T07:57:53.532Z</time></trkpt><trkpt lat="42.3510992" lon="13.4766278"><ele>639.0</ele><time>2026-04-26T07:57:55.469Z</time></trkpt><trkpt lat="42.3510959" lon="13.4764288"><ele>637.3333333333334</ele><time>2026-04-26T07:57:56.4Z</time></trkpt><trkpt lat="42.3510928" lon="13.476207"><ele>635.6666666666667</ele><time>2026-04-26T07:57:57.415Z</time></trkpt><trkpt lat="42.3510903" lon="13.4759864"><ele>634.0</ele><time>2026-04-26T07:57:58.423Z</time></trkpt><trkpt lat="42.3510894" lon="13.4757891"><ele>634.0</ele><time>2026-04-26T07:57:59.384Z</time></trkpt><trkpt lat="42.3510857" lon="13.4755844"><ele>634.0</ele><time>2026-04-26T07:58:00.443Z</time></trkpt><trkpt lat="42.3510735" lon="13.475396"><ele>634.0</ele><time>2026-04-26T07:58:01.423Z</time></trkpt><trkpt lat="42.3510536" lon="13.4751734"><ele>633.6666666666667</ele><time>2026-04-26T07:58:02.542Z</time></trkpt><trkpt lat="42.3510146" lon="13.4748115"><ele>633.3333333333334</ele><time>2026-04-26T07:58:04.393Z</time></trkpt><trkpt lat="42.3509895" lon="13.4746234"><ele>633.0</ele><time>2026-04-26T07:58:05.378Z</time></trkpt><trkpt lat="42.3509623" lon="13.4744405"><ele>632.75</ele><time>2026-04-26T07:58:06.377Z</time></trkpt><trkpt lat="42.3509331" lon="13.4742519"><ele>632.5</ele><time>2026-04-26T07:58:07.445Z</time></trkpt><trkpt lat="42.3509073" lon="13.4740833"><ele>632.25</ele><time>2026-04-26T07:58:08.424Z</time></trkpt><trkpt lat="42.3508849" lon="13.4739276"><ele>632.0</ele><time>2026-04-26T07:58:09.389Z</time></trkpt><trkpt lat="42.3508654" lon="13.4737591"><ele>632.5</ele><time>2026-04-26T07:58:10.44Z</time></trkpt><trkpt lat="42.3508479" lon="13.473603"><ele>633.0</ele><time>2026-04-26T07:58:11.413Z</time></trkpt><trkpt lat="42.3508277" lon="13.4734436"><ele>633.5</ele><time>2026-04-26T07:58:12.416Z</time></trkpt><trkpt lat="42.3508079" lon="13.4732844"><ele>634.0</ele><time>2026-04-26T07:58:13.421Z</time></trkpt><trkpt lat="42.3507894" lon="13.4731265"><ele>634.0</ele><time>2026-04-26T07:58:14.415Z</time></trkpt><trkpt lat="42.3507704" lon="13.4729772"><ele>634.0</ele><time>2026-04-26T07:58:15.417Z</time></trkpt><trkpt lat="42.3507516" lon="13.472839"><ele>634.0</ele><time>2026-04-26T07:58:16.411Z</time></trkpt><trkpt lat="42.3507386" lon="13.4727118"><ele>634.0</ele><time>2026-04-26T07:58:17.386Z</time></trkpt><trkpt lat="42.3507314" lon="13.4725991"><ele>634.0</ele><time>2026-04-26T07:58:18.43Z</time></trkpt><trkpt lat="42.3507272" lon="13.4725138"><ele>634.0</ele><time>2026-04-26T07:58:19.437Z</time></trkpt><trkpt lat="42.3507035" lon="13.4723673"><ele>634.0</ele><time>2026-04-26T07:58:22.46Z</time></trkpt><trkpt lat="42.3506527" lon="13.4723116"><ele>634.0</ele><time>2026-04-26T07:58:24.416Z</time></trkpt><trkpt lat="42.3505925" lon="13.4722773"><ele>634.0</ele><time>2026-04-26T07:58:25.448Z</time></trkpt><trkpt lat="42.3505179" lon="13.4722534"><ele>634.0</ele><time>2026-04-26T07:58:26.42Z</time></trkpt><trkpt lat="42.3504221" lon="13.4722333"><ele>634.0</ele><time>2026-04-26T07:58:27.434Z</time></trkpt><trkpt lat="42.3503224" lon="13.4722111"><ele>633.5</ele><time>2026-04-26T07:58:28.395Z</time></trkpt><trkpt lat="42.3501931" lon="13.4721842"><ele>633.0</ele><time>2026-04-26T07:58:29.404Z</time></trkpt><trkpt lat="42.350054" lon="13.4721577"><ele>632.5</ele><time>2026-04-26T07:58:30.417Z</time></trkpt><trkpt lat="42.3499122" lon="13.4721302"><ele>632.0</ele><time>2026-04-26T07:58:31.496Z</time></trkpt><trkpt lat="42.3497978" lon="13.4721049"><ele>631.0</ele><time>2026-04-26T07:58:32.413Z</time></trkpt><trkpt lat="42.3496533" lon="13.4720732"><ele>630.0</ele><time>2026-04-26T07:58:33.595Z</time></trkpt><trkpt lat="42.3494367" lon="13.4720443"><ele>629.0</ele><time>2026-04-26T07:58:35.422Z</time></trkpt><trkpt lat="42.3493154" lon="13.4720415"><ele>629.0</ele><time>2026-04-26T07:58:36.395Z</time></trkpt><trkpt lat="42.3491945" lon="13.4720455"><ele>629.0</ele><time>2026-04-26T07:58:37.388Z</time></trkpt><trkpt lat="42.3490605" lon="13.4720553"><ele>629.0</ele><time>2026-04-26T07:58:38.431Z</time></trkpt><trkpt lat="42.3489394" lon="13.4720696"><ele>629.0</ele><time>2026-04-26T07:58:39.433Z</time></trkpt><trkpt lat="42.3488218" lon="13.472094"><ele>628.75</ele><time>2026-04-26T07:58:40.413Z</time></trkpt><trkpt lat="42.3486883" lon="13.4721318"><ele>628.5</ele><time>2026-04-26T07:58:41.432Z</time></trkpt><trkpt lat="42.3485605" lon="13.4721769"><ele>628.25</ele><time>2026-04-26T07:58:42.384Z</time></trkpt><trkpt lat="42.3484127" lon="13.4722366"><ele>628.0</ele><time>2026-04-26T07:58:43.454Z</time></trkpt><trkpt lat="42.3482642" lon="13.4723021"><ele>627.3333333333334</ele><time>2026-04-26T07:58:44.59Z</time></trkpt><trkpt lat="42.3480413" lon="13.4724155"><ele>626.6666666666666</ele><time>2026-04-26T07:58:46.41Z</time></trkpt><trkpt lat="42.3479301" lon="13.4724745"><ele>626.0</ele><time>2026-04-26T07:58:47.395Z</time></trkpt><trkpt lat="42.3478012" lon="13.472541"><ele>626.0</ele><time>2026-04-26T07:58:48.495Z</time></trkpt><trkpt lat="42.3476889" lon="13.4725993"><ele>626.0</ele><time>2026-04-26T07:58:49.412Z</time></trkpt><trkpt lat="42.3475595" lon="13.4726613"><ele>626.0</ele><time>2026-04-26T07:58:50.435Z</time></trkpt><trkpt lat="42.3474324" lon="13.4727089"><ele>626.0</ele><time>2026-04-26T07:58:51.406Z</time></trkpt><trkpt lat="42.3473113" lon="13.4727451"><ele>625.0</ele><time>2026-04-26T07:58:52.389Z</time></trkpt><trkpt lat="42.3471709" lon="13.4727842"><ele>624.0</ele><time>2026-04-26T07:58:53.455Z</time></trkpt><trkpt lat="42.3470364" lon="13.4728216"><ele>623.0</ele><time>2026-04-26T07:58:54.39Z</time></trkpt><trkpt lat="42.3468744" lon="13.4728677"><ele>622.0</ele><time>2026-04-26T07:58:55.491Z</time></trkpt><trkpt lat="42.3467168" lon="13.4729113"><ele>621.6666666666667</ele><time>2026-04-26T07:58:56.5Z</time></trkpt><trkpt lat="42.34657" lon="13.4729485"><ele>621.3333333333334</ele><time>2026-04-26T07:58:57.415Z</time></trkpt><trkpt lat="42.3464027" lon="13.472989"><ele>621.0</ele><time>2026-04-26T07:58:58.435Z</time></trkpt><trkpt lat="42.3462403" lon="13.4730307"><ele>620.6666666666666</ele><time>2026-04-26T07:58:59.412Z</time></trkpt><trkpt lat="42.3460817" lon="13.4730755"><ele>620.3333333333333</ele><time>2026-04-26T07:59:00.394Z</time></trkpt><trkpt lat="42.3459212" lon="13.4731235"><ele>620.0</ele><time>2026-04-26T07:59:01.413Z</time></trkpt><trkpt lat="42.3457488" lon="13.4731782"><ele>620.0</ele><time>2026-04-26T07:59:02.528Z</time></trkpt><trkpt lat="42.3456037" lon="13.4732289"><ele>620.0</ele><time>2026-04-26T07:59:03.505Z</time></trkpt><trkpt lat="42.3454688" lon="13.4732774"><ele>620.0</ele><time>2026-04-26T07:59:04.433Z</time></trkpt><trkpt lat="42.3453266" lon="13.4733258"><ele>620.0</ele><time>2026-04-26T07:59:05.426Z</time></trkpt><trkpt lat="42.345188" lon="13.4733727"><ele>619.5</ele><time>2026-04-26T07:59:06.422Z</time></trkpt><trkpt lat="42.3450489" lon="13.4734231"><ele>619.0</ele><time>2026-04-26T07:59:07.43Z</time></trkpt><trkpt lat="42.3449071" lon="13.4734744"><ele>618.5</ele><time>2026-04-26T07:59:08.463Z</time></trkpt><trkpt lat="42.3447805" lon="13.4735209"><ele>618.0</ele><time>2026-04-26T07:59:09.392Z</time></trkpt><trkpt lat="42.3446314" lon="13.4735826"><ele>617.5</ele><time>2026-04-26T07:59:10.5Z</time></trkpt><trkpt lat="42.3445037" lon="13.4736335"><ele>617.0</ele><time>2026-04-26T07:59:11.45Z</time></trkpt><trkpt lat="42.3443771" lon="13.4736817"><ele>616.5</ele><time>2026-04-26T07:59:12.401Z</time></trkpt><trkpt lat="42.3442292" lon="13.4737353"><ele>616.0</ele><time>2026-04-26T07:59:13.507Z</time></trkpt><trkpt lat="42.3441061" lon="13.4737804"><ele>615.75</ele><time>2026-04-26T07:59:14.423Z</time></trkpt><trkpt lat="42.3439746" lon="13.4738268"><ele>615.5</ele><time>2026-04-26T07:59:15.397Z</time></trkpt><trkpt lat="42.3438331" lon="13.4738747"><ele>615.25</ele><time>2026-04-26T07:59:16.413Z</time></trkpt><trkpt lat="42.3436942" lon="13.4739257"><ele>615.0</ele><time>2026-04-26T07:59:17.406Z</time></trkpt><trkpt lat="42.343552" lon="13.4739808"><ele>615.0</ele><time>2026-04-26T07:59:18.423Z</time></trkpt><trkpt lat="42.3434102" lon="13.4740307"><ele>615.0</ele><time>2026-04-26T07:59:19.421Z</time></trkpt><trkpt lat="42.3432667" lon="13.4740787"><ele>615.0</ele><time>2026-04-26T07:59:20.412Z</time></trkpt><trkpt lat="42.3431237" lon="13.4741273"><ele>615.0</ele><time>2026-04-26T07:59:21.381Z</time></trkpt><trkpt lat="42.3429658" lon="13.4741853"><ele>615.0</ele><time>2026-04-26T07:59:22.462Z</time></trkpt><trkpt lat="42.3428273" lon="13.4742382"><ele>615.0</ele><time>2026-04-26T07:59:23.417Z</time></trkpt><trkpt lat="42.3426662" lon="13.4742968"><ele>615.0</ele><time>2026-04-26T07:59:24.507Z</time></trkpt><trkpt lat="42.3423742" lon="13.474391"><ele>615.0</ele><time>2026-04-26T07:59:26.453Z</time></trkpt><trkpt lat="42.3422329" lon="13.474433"><ele>615.0</ele><time>2026-04-26T07:59:27.395Z</time></trkpt><trkpt lat="42.3420863" lon="13.4744799"><ele>615.0</ele><time>2026-04-26T07:59:28.395Z</time></trkpt><trkpt lat="42.3419373" lon="13.474529"><ele>615.0</ele><time>2026-04-26T07:59:29.428Z</time></trkpt><trkpt lat="42.3418016" lon="13.4745774"><ele>614.5</ele><time>2026-04-26T07:59:30.374Z</time></trkpt><trkpt lat="42.341634" lon="13.4746349"><ele>614.0</ele><time>2026-04-26T07:59:31.559Z</time></trkpt><trkpt lat="42.3415163" lon="13.4746782"><ele>613.5</ele><time>2026-04-26T07:59:32.401Z</time></trkpt><trkpt lat="42.3413687" lon="13.4747293"><ele>613.0</ele><time>2026-04-26T07:59:33.437Z</time></trkpt><trkpt lat="42.3412315" lon="13.4747736"><ele>612.25</ele><time>2026-04-26T07:59:34.422Z</time></trkpt><trkpt lat="42.3410946" lon="13.4748153"><ele>611.5</ele><time>2026-04-26T07:59:35.392Z</time></trkpt><trkpt lat="42.3409442" lon="13.4748643"><ele>610.75</ele><time>2026-04-26T07:59:36.456Z</time></trkpt><trkpt lat="42.3408113" lon="13.4749111"><ele>610.0</ele><time>2026-04-26T07:59:37.398Z</time></trkpt><trkpt lat="42.3406687" lon="13.4749606"><ele>609.75</ele><time>2026-04-26T07:59:38.426Z</time></trkpt><trkpt lat="42.3405362" lon="13.475001"><ele>609.5</ele><time>2026-04-26T07:59:39.408Z</time></trkpt><trkpt lat="42.3403978" lon="13.4750387"><ele>609.25</ele><time>2026-04-26T07:59:40.398Z</time></trkpt><trkpt lat="42.3402534" lon="13.4750731"><ele>609.0</ele><time>2026-04-26T07:59:41.421Z</time></trkpt><trkpt lat="42.3401129" lon="13.4751033"><ele>609.0</ele><time>2026-04-26T07:59:42.386Z</time></trkpt><trkpt lat="42.3399599" lon="13.475138"><ele>609.0</ele><time>2026-04-26T07:59:43.427Z</time></trkpt><trkpt lat="42.3398123" lon="13.475171"><ele>609.0</ele><time>2026-04-26T07:59:44.42Z</time></trkpt><trkpt lat="42.3396686" lon="13.4752007"><ele>607.25</ele><time>2026-04-26T07:59:45.39Z</time></trkpt><trkpt lat="42.3395244" lon="13.4752312"><ele>605.5</ele><time>2026-04-26T07:59:46.388Z</time></trkpt><trkpt lat="42.3393618" lon="13.4752709"><ele>603.75</ele><time>2026-04-26T07:59:47.538Z</time></trkpt><trkpt lat="42.3392278" lon="13.4753116"><ele>602.0</ele><time>2026-04-26T07:59:48.509Z</time></trkpt><trkpt lat="42.3391038" lon="13.4753591"><ele>602.0</ele><time>2026-04-26T07:59:49.41Z</time></trkpt><trkpt lat="42.3389675" lon="13.4754162"><ele>602.0</ele><time>2026-04-26T07:59:50.418Z</time></trkpt><trkpt lat="42.3388361" lon="13.4754801"><ele>602.0</ele><time>2026-04-26T07:59:51.404Z</time></trkpt><trkpt lat="42.3387046" lon="13.4755498"><ele>602.0</ele><time>2026-04-26T07:59:52.412Z</time></trkpt><trkpt lat="42.3385704" lon="13.4756188"><ele>601.75</ele><time>2026-04-26T07:59:53.45Z</time></trkpt><trkpt lat="42.3384461" lon="13.4756835"><ele>601.5</ele><time>2026-04-26T07:59:54.409Z</time></trkpt><trkpt lat="42.3383088" lon="13.4757523"><ele>601.25</ele><time>2026-04-26T07:59:55.462Z</time></trkpt><trkpt lat="42.3381886" lon="13.4758073"><ele>601.0</ele><time>2026-04-26T07:59:56.393Z</time></trkpt><trkpt lat="42.3380527" lon="13.4758665"><ele>600.75</ele><time>2026-04-26T07:59:57.435Z</time></trkpt><trkpt lat="42.3379267" lon="13.4759215"><ele>600.5</ele><time>2026-04-26T07:59:58.388Z</time></trkpt><trkpt lat="42.3377843" lon="13.475977"><ele>600.25</ele><time>2026-04-26T07:59:59.444Z</time></trkpt><trkpt lat="42.3376511" lon="13.4760261"><ele>600.0</ele><time>2026-04-26T08:00:00.416Z</time></trkpt><trkpt lat="42.3375082" lon="13.4760729"><ele>600.0</ele><time>2026-04-26T08:00:01.406Z</time></trkpt><trkpt lat="42.3373581" lon="13.4761233"><ele>600.0</ele><time>2026-04-26T08:00:02.429Z</time></trkpt><trkpt lat="42.3372103" lon="13.4761724"><ele>600.0</ele><time>2026-04-26T08:00:03.43Z</time></trkpt><trkpt lat="42.3370633" lon="13.4762229"><ele>600.0</ele><time>2026-04-26T08:00:04.405Z</time></trkpt><trkpt lat="42.3369084" lon="13.4762802"><ele>600.0</ele><time>2026-04-26T08:00:05.428Z</time></trkpt><trkpt lat="42.336761" lon="13.4763379"><ele>600.0</ele><time>2026-04-26T08:00:06.398Z</time></trkpt><trkpt lat="42.3366085" lon="13.4763982"><ele>600.0</ele><time>2026-04-26T08:00:07.39Z</time></trkpt></trkseg></trk></gpx>